Provisional Data: Chemung River at West Elmira, NY


Please select a monitoring station.
Please select start date.
Please select start date.

Toggle Unit: C/F Toggle Unit: C/F
Sample Time Temperature (C) Temperature (F) Specific Conductivity (mS/cm) pH   Turbidity (NTU+) DO (mg/L)
6/22/2021 12:00:00 AM 24.75 76.55 0.406 8.15 46.21 7.66
6/22/2021 12:15:00 AM 24.68 76.424 0.405 8.13 48.27 7.63
6/22/2021 12:30:00 AM 24.62 76.316 0.405 8.11 47.03 7.57
6/22/2021 12:45:00 AM 24.56 76.208 0.404 8.11 45.95 7.55
6/22/2021 1:00:00 AM 24.5 76.1 0.403 8.1 46.51 7.53
6/22/2021 1:15:00 AM 24.44 75.992 0.402 8.1 48.9 7.46
6/22/2021 1:30:00 AM 24.38 75.884 0.402 8.07 46.27 7.44
6/22/2021 1:45:00 AM 24.31 75.758 0.402 8.07 45.64 7.35
6/22/2021 2:00:00 AM 24.25 75.65 0.401 8.07 46.1 7.42
6/22/2021 2:15:00 AM 24.19 75.542 0.4 8.06 46.29 7.39
6/22/2021 2:30:00 AM 24.13 75.434 0.399 8.06 47.17 7.35
6/22/2021 2:45:00 AM 24.06 75.308 0.399 8.05 47.91 7.35
6/22/2021 3:00:00 AM 23.99 75.182 0.398 8.04 47.54 7.33
6/22/2021 3:15:00 AM 23.93 75.074 0.397 8.04 47.83 7.29
6/22/2021 3:30:00 AM 23.86 74.948 0.397 8.02 46.52 7.25
6/22/2021 3:45:00 AM 23.8 74.84 0.396 8.02 48.12 7.28
6/22/2021 4:00:00 AM 23.73 74.714 0.395 8.01 48.21 7.24
6/22/2021 4:15:00 AM 23.67 74.606 0.394 8.01 48.12 7.24
6/22/2021 4:30:00 AM 23.61 74.498 0.393 8 52.91 7.19
6/22/2021 4:45:00 AM 23.56 74.408 0.393 8 50.1 7.21
6/22/2021 5:00:00 AM 23.5 74.3 0.392 8 123.77 7.17
6/22/2021 5:15:00 AM 23.45 74.21 0.391 8 47.04 7.22
6/22/2021 5:30:00 AM 23.39 74.102 0.39 7.99 48.2 7.2
6/22/2021 5:45:00 AM 23.35 74.03 0.389 7.99 45.33 7.2
6/22/2021 6:00:00 AM 23.3 73.94 0.388 7.99 47.06 7.19
6/22/2021 6:15:00 AM 23.25 73.85 0.387 7.98 46.25 7.19
6/22/2021 6:30:00 AM 23.19 73.742 0.386 7.98 46.77 7.18
6/22/2021 6:45:00 AM 23.15 73.67 0.385 7.98 46.36 7.17
6/22/2021 7:00:00 AM 23.11 73.598 0.384 7.98 45.82 7.19
6/22/2021 7:15:00 AM 23.07 73.526 0.383 7.97 46 7.2
6/22/2021 7:30:00 AM 23.02 73.436 0.382 7.97 46.43 7.21
6/22/2021 7:45:00 AM 22.99 73.382 0.381 7.97 47.56 7.26
6/22/2021 8:00:00 AM 22.96 73.328 0.38 7.97 48.5 7.29
6/22/2021 8:15:00 AM 22.93 73.274 0.379 7.98 47.72 7.33
6/22/2021 8:30:00 AM 22.91 73.238 0.378 7.99 47.39 7.37
6/22/2021 8:45:00 AM 22.89 73.202 0.377 7.98 47.34 7.38
6/22/2021 9:00:00 AM 22.87 73.166 0.376 7.99 54.21 7.45
6/22/2021 9:15:00 AM 22.86 73.148 0.375 8 47.25 7.53
6/22/2021 9:30:00 AM 22.85 73.13 0.374 8.01 46.9 7.6
6/22/2021 9:45:00 AM 22.85 73.13 0.373 8.01 48.86 7.6
6/22/2021 10:00:00 AM 22.86 73.148 0.337 8.03 9139.14 7.76
6/22/2021 10:15:00 AM 22.86 73.148 0.326 8.04 7385.11 7.83
6/22/2021 10:30:00 AM 22.85 73.13 0.314 8.04 2424.97 7.87
6/22/2021 10:45:00 AM 22.83 73.094 0.298 8.04 2173.1 7.94
6/22/2021 11:00:00 AM 22.82 73.076 0.362 8.05 95.75 7.95
6/22/2021 11:15:00 AM 22.81 73.058 0.361 8.05 90.09 8.02
6/22/2021 11:30:00 AM 22.79 73.022 0.36 8.07 120.94 8.08
6/22/2021 11:45:00 AM 22.74 72.932 0.36 8.07 117.77 8.08
6/22/2021 12:00:00 PM 22.73 72.914 0.359 8.07 64.26 8.12
6/22/2021 12:15:00 PM 22.7 72.86 0.358 8.08 59.3 8.17
6/22/2021 12:30:00 PM 22.67 72.806 0.356 8.08 54.32 8.16
6/22/2021 12:45:00 PM 22.63 72.734 0.356 8.08 57.35 8.22
6/22/2021 1:00:00 PM 22.6 72.68 0.355 8.09 52.75 8.23
6/22/2021 1:15:00 PM 22.57 72.626 0.354 8.09 71.21 8.21
6/22/2021 1:30:00 PM 22.52 72.536 0.354 8.1 64.83 8.29
6/22/2021 1:45:00 PM 22.48 72.464 0.354 8.09 61.41 8.32
6/22/2021 2:00:00 PM 22.48 72.464 0.354 8.1 84.61 8.34
6/22/2021 2:15:00 PM 22.47 72.446 0.353 8.11 91.86 8.37
6/22/2021 2:30:00 PM 22.45 72.41 0.352 8.12 109.38 8.48
6/22/2021 2:45:00 PM 22.43 72.374 0.351 8.14 134.53 8.51
6/22/2021 3:00:00 PM 22.42 72.356 0.35 8.14 139.83 8.62
6/22/2021 3:15:00 PM 22.42 72.356 0.35 8.15 144.1 8.7
6/22/2021 3:30:00 PM 22.39 72.302 0.349 8.18 273.31 8.76
6/22/2021 3:45:00 PM 22.39 72.302 0.349 8.19 274.96 8.85
6/22/2021 4:00:00 PM 22.39 72.302 0.348 8.21 303 8.93
6/22/2021 4:15:00 PM 22.37 72.266 0.347 8.22 327.79 8.99
6/22/2021 4:30:00 PM 22.34 72.212 0.346 8.23 361.64 9.05
6/22/2021 4:45:00 PM 22.33 72.194 0.345 8.24 456.13 9.11
6/22/2021 5:00:00 PM 22.34 72.212 0.344 8.25 476.93 9.06
6/22/2021 5:15:00 PM 22.33 72.194 0.344 8.26 581.38 9.2
6/22/2021 5:30:00 PM 22.31 72.158 0.342 8.25 550.27 9.26
6/22/2021 5:45:00 PM 22.27 72.086 0.342 8.28 574.55 9.2
6/22/2021 6:00:00 PM 22.23 72.014 0.341 8.28 606.17 9.13
6/22/2021 6:15:00 PM 22.21 71.978 0.34 8.28 574.53 9.29
6/22/2021 6:30:00 PM 22.16 71.888 0.34 8.29 564.71 9.26
6/22/2021 6:45:00 PM 22.11 71.798 0.338 8.28 590.42 9.22
6/22/2021 7:00:00 PM 22.06 71.708 0.338 8.28 636.35 9.24
6/22/2021 7:15:00 PM 22 71.6 0.337 8.29 665.8 9.21
6/22/2021 7:30:00 PM 21.94 71.492 0.336 8.27 682.3 9.15
6/22/2021 7:45:00 PM 21.89 71.402 0.336 8.27 672.43 9.15
6/22/2021 8:00:00 PM 21.84 71.312 0.335 8.27 721.85 9.14
6/22/2021 8:15:00 PM 21.77 71.186 0.334 8.24 753.48 9.1
6/22/2021 8:30:00 PM 21.69 71.042 0.336 8.25 864.08 9.02
6/22/2021 8:45:00 PM 21.61 70.898 0.337 8.24 1174.58 9.02
6/22/2021 9:00:00 PM 21.52 70.736 0.337 8.23 1466.28 8.96
6/22/2021 9:15:00 PM 21.43 70.574 0.334 8.21 1496.33 8.91
6/22/2021 9:30:00 PM 21.35 70.43 0.334 8.21 1466.23 8.89
6/22/2021 9:45:00 PM 21.26 70.268 0.333 8.2 1973.44 8.82
6/22/2021 10:00:00 PM 21.17 70.106 0.332 8.19 1653.45 8.75
6/22/2021 10:15:00 PM 21.09 69.962 0.332 8.17 1932.81 8.71
6/22/2021 10:30:00 PM 21 69.8 0.332 8.16 2412.04 8.68
6/22/2021 10:45:00 PM 20.91 69.638 0.332 8.15 3589.25 8.66
6/22/2021 11:00:00 PM 20.82 69.476 0.331 8.14 5443.76 8.64
6/22/2021 11:15:00 PM 20.74 69.332 0.331 8.14 6168.19 8.54
6/22/2021 11:30:00 PM 20.65 69.17 0.33 8.13 6233.39 8.58
6/22/2021 11:45:00 PM 20.57 69.026 0.33 8.12 5961.04 8.54
6/23/2021 12:00:00 AM 20.48 68.864 0.329 8.12 4503.92 8.52
6/23/2021 12:15:00 AM 20.39 68.702 0.329 8.11 4276.26 8.48
6/23/2021 12:30:00 AM 20.31 68.558 0.323 8.1 574.45 8.45
6/23/2021 12:45:00 AM 20.23 68.414 0.362 8.08 53.26 8.42
6/23/2021 1:00:00 AM 20.14 68.252 0.363 8.08 54.14 8.4
6/23/2021 1:15:00 AM 20.05 68.09 0.363 8.08 51.21 8.41
6/23/2021 1:30:00 AM 19.97 67.946 0.364 8.08 51.24 8.4
6/23/2021 1:45:00 AM 19.88 67.784 0.365 8.06 48.7 8.37
6/23/2021 2:00:00 AM 19.8 67.64 0.365 8.06 48.05 8.38
6/23/2021 2:15:00 AM 19.72 67.496 0.366 8.06 47.88 8.35
6/23/2021 2:30:00 AM 19.64 67.352 0.366 8.06 49.18 8.34
6/23/2021 2:45:00 AM 19.57 67.226 0.367 8.06 47.49 8.34
6/23/2021 3:00:00 AM 19.49 67.082 0.368 8.04 50.08 8.33
6/23/2021 3:15:00 AM 19.42 66.956 0.368 8.05 48.24 8.33
6/23/2021 3:30:00 AM 19.34 66.812 0.369 8.05 49.14 8.32
6/23/2021 3:45:00 AM 19.27 66.686 0.369 8.05 48.08 8.32
6/23/2021 4:00:00 AM 19.2 66.56 0.369 8.03 49.53 8.32
6/23/2021 4:15:00 AM 19.13 66.434 0.37 8.03 47.42 8.32
6/23/2021 4:30:00 AM 19.07 66.326 0.37 8.04 48.47 8.29
6/23/2021 4:45:00 AM 19 66.2 0.371 8.03 48.4 8.31
6/23/2021 5:00:00 AM 18.94 66.092 0.371 8.03 48.6 8.3
6/23/2021 5:15:00 AM 18.88 65.984 0.372 8.03 50.76 8.3
6/23/2021 5:30:00 AM 18.81 65.858 0.372 8.03 49.2 8.33
6/23/2021 5:45:00 AM 18.76 65.768 0.372 8.03 49.55 8.34
6/23/2021 6:00:00 AM 18.7 65.66 0.373 8.02 49.19 8.35
6/23/2021 6:15:00 AM 18.64 65.552 0.373 8.03 53.91 8.33
6/23/2021 6:30:00 AM 18.59 65.462 0.373 8.03 50.77 8.35
6/23/2021 6:45:00 AM 18.56 65.408 0.374 8.03 48.94 8.36
6/23/2021 7:00:00 AM 18.52 65.336 0.374 8.03 49.31 8.41
6/23/2021 7:15:00 AM 18.51 65.318 0.374 8.04 67.26 8.46
6/23/2021 7:30:00 AM 18.5 65.3 0.374 8.05 50.72 8.56
6/23/2021 7:45:00 AM 18.49 65.282 0.374 8.05 49.96 8.58
6/23/2021 8:00:00 AM 18.45 65.21 0.374 8.06 49.42 8.61
6/23/2021 8:15:00 AM 18.45 65.21 0.375 8.06 50.03 8.67
6/23/2021 8:30:00 AM 18.48 65.264 0.375 8.08 48.53 8.79
6/23/2021 8:45:00 AM 18.56 65.408 0.375 8.09 49.09 8.92
6/23/2021 9:00:00 AM 18.66 65.588 0.375 8.12 48.47 9.04
6/23/2021 9:15:00 AM 18.7 65.66 0.374 8.14 47.91 9.15
6/23/2021 9:30:00 AM 18.8 65.84 0.374 8.15 49.04 9.21
6/23/2021 9:45:00 AM 18.9 66.02 0.374 8.17 47.87 9.31
6/23/2021 10:00:00 AM 19.03 66.254 0.374 8.18 48.33 9.42
6/23/2021 10:15:00 AM 19.17 66.506 0.374 8.2 49.13 9.53
6/23/2021 10:30:00 AM 19.32 66.776 0.374 8.22 48.06 9.63
6/23/2021 10:45:00 AM 19.49 67.082 0.374 8.24 48.24 9.76
6/23/2021 11:00:00 AM 19.63 67.334 0.374 8.26 47 9.83
6/23/2021 11:15:00 AM 19.77 67.586 0.374 8.28 49.05 9.94
6/23/2021 11:30:00 AM 19.95 67.91 0.374 8.3 48.04 10.01
6/23/2021 11:45:00 AM 20.09 68.162 0.374 8.31 47.01 10.14
6/23/2021 12:00:00 PM 20.26 68.468 0.374 8.34 47.37 10.21
6/23/2021 12:15:00 PM 20.42 68.756 0.374 8.36 48.06 10.29
6/23/2021 12:30:00 PM 20.52 68.936 0.374 8.37 47.86 10.37
6/23/2021 12:45:00 PM 20.66 69.188 0.373 8.38 46.72 10.4
6/23/2021 1:00:00 PM 20.8 69.44 0.373 8.4 46.94 10.45
6/23/2021 1:15:00 PM 20.91 69.638 0.373 8.42 47.22 10.52
6/23/2021 1:30:00 PM 21 69.8 0.373 8.43 49.06 10.6
6/23/2021 1:45:00 PM 21.03 69.854 0.373 8.43 47.67 10.59
6/23/2021 2:00:00 PM 21.15 70.07 0.373 8.45 48.06 10.63
6/23/2021 2:15:00 PM 21.31 70.358 0.373 8.46 48.11 10.69
6/23/2021 2:30:00 PM 21.41 70.538 0.373 8.47 48.31 10.71
6/23/2021 2:45:00 PM 21.47 70.646 0.372 8.48 47.98 10.76
6/23/2021 3:00:00 PM 21.53 70.754 0.373 8.5 48.06 10.79
6/23/2021 3:15:00 PM 21.57 70.826 0.372 8.5 48.25 10.8
6/23/2021 3:30:00 PM 21.66 70.988 0.372 8.51 47.9 10.84
6/23/2021 3:45:00 PM 21.73 71.114 0.372 8.52 47.08 10.87
6/23/2021 4:00:00 PM 21.8 71.24 0.372 8.52 47.93 10.9
6/23/2021 4:15:00 PM 21.84 71.312 0.372 8.54 47.49 10.9
6/23/2021 4:30:00 PM 21.88 71.384 0.372 8.54 47.56 10.91
6/23/2021 4:45:00 PM 21.91 71.438 0.372 8.55 48.55 10.94
6/23/2021 5:00:00 PM 21.95 71.51 0.372 8.56 47.77 10.96
6/23/2021 5:15:00 PM 21.95 71.51 0.372 8.56 47.24 10.91
6/23/2021 5:30:00 PM 21.94 71.492 0.372 8.56 49.11 10.95
6/23/2021 5:45:00 PM 21.9 71.42 0.371 8.57 48.8 10.92
6/23/2021 6:00:00 PM 21.84 71.312 0.372 8.57 48.32 10.83
6/23/2021 6:15:00 PM 21.8 71.24 0.371 8.56 47.96 10.82
6/23/2021 6:30:00 PM 21.78 71.204 0.371 8.56 47.94 10.78
6/23/2021 6:45:00 PM 21.74 71.132 0.371 8.56 51.83 10.77
6/23/2021 7:00:00 PM 21.69 71.042 0.371 8.57 48.71 10.72
6/23/2021 7:15:00 PM 21.66 70.988 0.371 8.57 49.59 10.72
6/23/2021 7:30:00 PM 21.6 70.88 0.371 8.57 47.98 10.69
6/23/2021 7:45:00 PM 21.54 70.772 0.371 8.56 49.59 10.63
6/23/2021 8:00:00 PM 21.48 70.664 0.371 8.55 49.47 10.53
6/23/2021 8:15:00 PM 21.41 70.538 0.37 8.54 48.55 10.46
6/23/2021 8:30:00 PM 21.35 70.43 0.37 8.53 49.5 10.38
6/23/2021 8:45:00 PM 21.29 70.32201 0.37 8.51 48.72 10.31
6/23/2021 9:00:00 PM 21.22 70.196 0.37 8.51 48.6 10.23
6/23/2021 9:15:00 PM 21.15 70.07 0.37 8.5 48.88 10.15
6/23/2021 9:30:00 PM 21.07 69.926 0.37 8.47 49.06 10.05
6/23/2021 9:45:00 PM 20.99 69.782 0.37 8.47 48.02 9.98
6/23/2021 10:00:00 PM 20.92 69.656 0.37 8.46 49.62 9.91
6/23/2021 10:15:00 PM 20.84 69.512 0.369 8.44 48.99 9.81
6/23/2021 10:30:00 PM 20.76 69.368 0.369 8.43 49.52 9.75
6/23/2021 10:45:00 PM 20.68 69.224 0.369 8.41 52.11 9.67
6/23/2021 11:00:00 PM 20.61 69.098 0.369 8.4 51.54 9.58
6/23/2021 11:15:00 PM 20.54 68.972 0.369 8.39 50.3 9.52
6/23/2021 11:30:00 PM 20.48 68.864 0.368 8.38 50.5 9.49
6/23/2021 11:45:00 PM 20.41 68.738 0.368 8.35 49.36 9.42
6/24/2021 12:00:00 AM 20.35 68.63 0.368 8.35 51.62 9.34
6/24/2021 12:15:00 AM 20.29 68.522 0.367 8.33 50.15 9.32
6/24/2021 12:30:00 AM 20.23 68.414 0.367 8.32 49.99 9.26
6/24/2021 12:45:00 AM 20.17 68.306 0.367 8.3 52.07 9.21
6/24/2021 1:00:00 AM 20.11 68.198 0.366 8.3 50.44 9.12
6/24/2021 1:15:00 AM 20.05 68.09 0.366 8.29 51.07 9.09
6/24/2021 1:30:00 AM 19.99 67.982 0.366 8.27 50.54 9.04
6/24/2021 1:45:00 AM 19.93 67.874 0.365 8.25 49.91 9
6/24/2021 2:00:00 AM 19.88 67.784 0.365 8.24 48.16 8.94
6/24/2021 2:15:00 AM 19.81 67.658 0.365 8.24 49.83 8.94
6/24/2021 2:30:00 AM 19.75 67.55 0.364 8.23 51.31 8.89
6/24/2021 2:45:00 AM 19.68 67.424 0.364 8.22 51.03 8.86
6/24/2021 3:00:00 AM 19.63 67.334 0.363 8.21 50.29 8.85
6/24/2021 3:15:00 AM 19.56 67.208 0.363 8.2 51.21 8.81
6/24/2021 3:30:00 AM 19.5 67.1 0.362 8.19 52.13 8.77
6/24/2021 3:45:00 AM 19.44 66.992 0.362 8.18 48.76 8.77
6/24/2021 4:00:00 AM 19.38 66.884 0.361 8.16 50.86 8.76
6/24/2021 4:15:00 AM 19.32 66.776 0.361 8.17 50.39 8.72
6/24/2021 4:30:00 AM 19.26 66.668 0.361 8.15 50.12 8.7
6/24/2021 4:45:00 AM 19.2 66.56 0.36 8.15 50.15 8.67
6/24/2021 5:00:00 AM 19.14 66.452 0.36 8.15 49.02 8.68
6/24/2021 5:15:00 AM 19.08 66.344 0.359 8.13 50.76 8.64
6/24/2021 5:30:00 AM 19.02 66.236 0.359 8.13 62.09 8.64
6/24/2021 5:45:00 AM 18.96 66.128 0.359 8.13 55.85 8.62
6/24/2021 6:00:00 AM 18.91 66.038 0.358 8.11 46.38 8.61
6/24/2021 6:15:00 AM 18.85 65.93 0.358 8.11 46.39 8.6
6/24/2021 6:30:00 AM 18.82 65.876 0.358 8.11 50.17 8.59
6/24/2021 6:45:00 AM 18.79 65.82201 0.358 8.1 49.71 8.64
6/24/2021 7:00:00 AM 18.78 65.804 0.357 8.11 47.19 8.66
6/24/2021 7:15:00 AM 18.77 65.786 0.357 8.11 48.45 8.69
6/24/2021 7:30:00 AM 18.77 65.786 0.357 8.11 49.76 8.72
6/24/2021 7:45:00 AM 18.8 65.84 0.356 8.12 49.7 8.77
6/24/2021 8:00:00 AM 18.81 65.858 0.301 8.12 54.01 8.84
6/24/2021 8:15:00 AM 18.84 65.912 0.356 8.13 50.86 8.92
6/24/2021 8:30:00 AM 18.89 66.002 0.355 8.13 52.01 8.98
6/24/2021 8:45:00 AM 18.96 66.128 0.355 8.16 55.55 8.91
6/24/2021 9:00:00 AM 19.05 66.29 0.355 8.17 49.22 9.21
6/24/2021 9:15:00 AM 19.15 66.47 0.354 8.18 61.68 9.3
6/24/2021 9:30:00 AM 19.25 66.65 0.354 8.19 46.81 9.33
6/24/2021 9:45:00 AM 19.34 66.812 0.354 8.21 42.33 9.46
6/24/2021 10:00:00 AM 19.48 67.064 0.354 8.22 42.31 9.54
6/24/2021 10:15:00 AM 19.64 67.352 0.353 8.25 41.88 9.66
6/24/2021 10:30:00 AM 19.79 67.622 0.353 8.26 42.3 9.75
6/24/2021 10:45:00 AM 19.96 67.92799 0.353 8.29 42.66 9.85
6/24/2021 11:00:00 AM 20.11 68.198 0.352 8.3 41.62 9.92
6/24/2021 11:15:00 AM 20.25 68.45 0.352 8.32 42.72 10.01
6/24/2021 11:30:00 AM 20.42 68.756 0.352 8.34 44.12 10.12
6/24/2021 11:45:00 AM 20.59 69.062 0.352 8.35 42.51 10.18
6/24/2021 12:00:00 PM 20.77 69.386 0.352 8.37 47.07 10.25
6/24/2021 12:15:00 PM 20.95 69.71 0.351 8.4 40.85 10.4
6/24/2021 12:30:00 PM 21.12 70.016 0.351 8.42 41.56 10.45
6/24/2021 12:45:00 PM 21.28 70.304 0.351 8.43 41.33 10.5
6/24/2021 1:00:00 PM 21.42 70.556 0.351 8.44 41.95 10.55
6/24/2021 1:15:00 PM 21.56 70.808 0.351 8.46 41.56 10.64
6/24/2021 1:30:00 PM 21.74 71.132 0.351 8.47 41.6 10.66
6/24/2021 1:45:00 PM 21.9 71.42 0.351 8.49 42.13 10.75
6/24/2021 2:00:00 PM 22.03 71.654 0.351 8.49 43.1 10.75
6/24/2021 2:15:00 PM 22.14 71.852 0.351 8.51 41.56 10.76
6/24/2021 2:30:00 PM 22.29 72.122 0.35 8.52 41.89 10.82
6/24/2021 2:45:00 PM 22.42 72.356 0.35 8.53 41.21 10.87
6/24/2021 3:00:00 PM 22.53 72.554 0.35 8.54 41.86 10.86
6/24/2021 3:15:00 PM 22.63 72.734 0.35 8.55 41.59 10.86
6/24/2021 3:30:00 PM 22.71 72.878 0.349 8.56 40.87 10.86
6/24/2021 3:45:00 PM 22.81 73.058 0.349 8.57 41.4 10.91
6/24/2021 4:00:00 PM 22.89 73.202 0.349 8.58 41.53 10.9
6/24/2021 4:15:00 PM 22.97 73.346 0.349 8.58 43.14 10.87
6/24/2021 4:30:00 PM 23.06 73.508 0.348 8.59 41.76 10.93
6/24/2021 4:45:00 PM 23.14 73.652 0.348 8.59 43.04 10.92
6/24/2021 5:00:00 PM 23.18 73.724 0.348 8.61 42.7 10.94
6/24/2021 5:15:00 PM 23.21 73.778 0.348 8.6 42.02 10.89
6/24/2021 5:30:00 PM 23.22 73.796 0.347 8.61 42.59 10.89
6/24/2021 5:45:00 PM 23.25 73.85 0.347 8.61 41.73 10.89
6/24/2021 6:00:00 PM 23.25 73.85 0.346 8.63 42.9 10.86
6/24/2021 6:15:00 PM 23.23 73.814 0.346 8.62 44.71 10.63
6/24/2021 6:30:00 PM 23.2 73.76 0.346 8.63 42.92 10.8
6/24/2021 6:45:00 PM 23.18 73.724 0.345 8.63 41.84 10.77
6/24/2021 7:00:00 PM 23.12 73.616 0.345 8.63 42.07 10.72
6/24/2021 7:15:00 PM 23.06 73.508 0.345 8.62 40.47 10.64
6/24/2021 7:30:00 PM 22.99 73.382 0.345 8.62 40.64 10.58
6/24/2021 7:45:00 PM 22.94 73.292 0.344 8.6 40.7 10.47
6/24/2021 8:00:00 PM 22.88 73.184 0.344 8.6 41.3 10.41
6/24/2021 8:15:00 PM 22.83 73.094 0.344 8.59 40.4 10.3
6/24/2021 8:30:00 PM 22.78 73.004 0.344 8.58 39.05 10.21
6/24/2021 8:45:00 PM 22.72 72.896 0.344 8.56 39.96 10.11
6/24/2021 9:00:00 PM 22.68 72.824 0.344 8.55 39.02 10.06
6/24/2021 9:15:00 PM 22.62 72.716 0.344 8.53 40.25 9.95
6/24/2021 9:30:00 PM 22.57 72.626 0.343 8.53 39.02 9.86
6/24/2021 9:45:00 PM 22.52 72.536 0.343 8.51 40.8 9.77
6/24/2021 10:00:00 PM 22.45 72.41 0.343 8.49 40.87 9.69
6/24/2021 10:15:00 PM 22.39 72.302 0.343 8.47 40.03 9.57
6/24/2021 10:30:00 PM 22.32 72.176 0.343 8.45 39.33 9.48
6/24/2021 10:45:00 PM 22.25 72.05 0.343 8.42 40.05 9.39
6/24/2021 11:00:00 PM 22.19 71.942 0.343 8.42 39.33 9.32
6/24/2021 11:15:00 PM 22.12 71.816 0.343 8.4 39.47 9.25
6/24/2021 11:30:00 PM 22.05 71.69 0.343 8.38 39.43 9.17
6/24/2021 11:45:00 PM 21.98 71.564 0.343 8.37 38.99 9.11
6/25/2021 12:00:00 AM 21.9 71.42 0.343 8.35 39.29 9.03
6/25/2021 12:15:00 AM 21.82 71.276 0.343 8.33 38.45 8.98
6/25/2021 12:30:00 AM 21.75 71.15 0.343 8.31 38.62 8.89
6/25/2021 12:45:00 AM 21.67 71.006 0.343 8.3 38.07 8.83
6/25/2021 1:00:00 AM 21.59 70.862 0.343 8.28 38.91 8.78
6/25/2021 1:15:00 AM 21.51 70.718 0.344 8.26 40.35 8.71
6/25/2021 1:30:00 AM 21.44 70.592 0.344 8.25 38.52 8.66
6/25/2021 1:45:00 AM 21.36 70.448 0.344 8.23 38.94 8.63
6/25/2021 2:00:00 AM 21.28 70.304 0.344 8.22 38.57 8.57
6/25/2021 2:15:00 AM 21.22 70.196 0.344 8.2 38.32 8.53
6/25/2021 2:30:00 AM 21.15 70.07 0.344 8.19 38.26 8.49
6/25/2021 2:45:00 AM 21.08 69.944 0.344 8.16 38.7 8.46
6/25/2021 3:00:00 AM 21.01 69.818 0.344 8.17 38.22 8.41
6/25/2021 3:15:00 AM 20.95 69.71 0.344 8.16 38.86 8.39
6/25/2021 3:30:00 AM 20.89 69.602 0.344 8.14 38.45 8.37
6/25/2021 3:45:00 AM 20.83 69.494 0.345 8.14 39.22 8.34
6/25/2021 4:00:00 AM 20.77 69.386 0.345 8.12 39.21 8.28
6/25/2021 4:15:00 AM 20.71 69.278 0.345 8.12 39.1 8.25
6/25/2021 4:30:00 AM 20.65 69.17 0.345 8.11 44.14 8.23
6/25/2021 4:45:00 AM 20.58 69.044 0.345 8.1 37.29 8.21
6/25/2021 5:00:00 AM 20.53 68.954 0.345 8.08 38.52 8.17
6/25/2021 5:15:00 AM 20.47 68.846 0.345 8.07 39.09 8.19
6/25/2021 5:30:00 AM 20.41 68.738 0.346 8.07 42.16 8.16
6/25/2021 5:45:00 AM 20.35 68.63 0.346 8.07 41.33 8.15
6/25/2021 6:00:00 AM 20.3 68.54 0.346 8.05 39.39 8.1
6/25/2021 6:15:00 AM 20.25 68.45 0.346 8.06 40.9 8.11
6/25/2021 6:30:00 AM 20.22 68.396 0.346 8.05 41.39 8.1
6/25/2021 6:45:00 AM 20.19 68.342 0.346 8.05 36.84 8.12
6/25/2021 7:00:00 AM 20.17 68.306 0.347 8.05 38.82 8.15
6/25/2021 7:15:00 AM 20.15 68.27 0.347 8.04 38.42 8.19
6/25/2021 7:30:00 AM 20.14 68.252 0.347 8.05 37.32 8.25
6/25/2021 7:45:00 AM 20.14 68.252 0.347 8.06 37.46 8.3
6/25/2021 8:00:00 AM 20.17 68.306 0.347 8.05 37.38 8.36
6/25/2021 8:15:00 AM 20.2 68.36 0.347 8.08 38.44 8.44
6/25/2021 8:30:00 AM 20.24 68.432 0.348 8.08 38.39 8.56
6/25/2021 8:45:00 AM 20.28 68.504 0.348 8.1 37.65 8.65
6/25/2021 9:00:00 AM 20.35 68.63 0.348 8.13 38.44 8.76
6/25/2021 9:15:00 AM 20.43 68.774 0.348 8.13 39.24 8.87
6/25/2021 9:30:00 AM 20.51 68.918 0.349 8.16 38.81 8.96
6/25/2021 9:45:00 AM 20.6 69.08 0.349 8.17 39.59 9.07
6/25/2021 10:00:00 AM 20.7 69.26 0.349 8.19 39.24 9.17
6/25/2021 10:15:00 AM 20.81 69.458 0.349 8.21 39.11 9.24
6/25/2021 10:30:00 AM 20.95 69.71 0.35 8.23 38.88 9.36
6/25/2021 10:45:00 AM 21.11 69.998 0.35 8.24 38.99 9.44
6/25/2021 11:00:00 AM 21.24 70.232 0.35 8.27 55.56 9.56
6/25/2021 11:15:00 AM 21.39 70.502 0.35 8.29 38.86 9.64
6/25/2021 11:30:00 AM 21.55 70.79 0.351 8.31 40.02 9.75
6/25/2021 11:45:00 AM 21.73 71.114 0.351 8.34 38.53 9.87
6/25/2021 12:00:00 PM 21.9 71.42 0.351 8.35 38.63 9.95
6/25/2021 12:15:00 PM 22.08 71.744 0.351 8.38 38.33 10.07
6/25/2021 12:30:00 PM 22.23 72.014 0.352 8.4 37.92 10.18
6/25/2021 12:45:00 PM 22.38 72.284 0.352 8.42 40.07 10.26
6/25/2021 1:00:00 PM 22.52 72.536 0.352 8.44 38.49 10.33
6/25/2021 1:15:00 PM 22.63 72.734 0.352 8.45 39.66 10.37
6/25/2021 1:30:00 PM 22.76 72.968 0.353 8.47 39.17 10.46
6/25/2021 1:45:00 PM 22.91 73.238 0.353 8.48 38.95 10.52
6/25/2021 2:00:00 PM 23.03 73.454 0.353 8.5 39.33 10.56
6/25/2021 2:15:00 PM 23.15 73.67 0.353 8.51 42.46 10.67
6/25/2021 2:30:00 PM 23.26 73.868 0.353 8.53 41.34 10.68
6/25/2021 2:45:00 PM 23.34 74.012 0.353 8.55 41.14 10.75
6/25/2021 3:00:00 PM 23.46 74.228 0.354 8.56 41.14 10.81
6/25/2021 3:15:00 PM 23.56 74.408 0.354 8.57 42.74 10.81
6/25/2021 3:30:00 PM 23.65 74.57 0.354 8.57 43.08 10.87
6/25/2021 3:45:00 PM 23.73 74.714 0.354 8.58 44.64 10.89
6/25/2021 4:00:00 PM 23.84 74.912 0.354 8.59 43.49 10.92
6/25/2021 4:15:00 PM 23.94 75.092 0.354 8.58 42.35 10.92
6/25/2021 4:30:00 PM 24.01 75.218 0.354 8.6 41.43 10.93
6/25/2021 4:45:00 PM 24.05 75.29 0.354 8.6 40.96 10.92
6/25/2021 5:00:00 PM 24.07 75.326 0.355 8.62 39.4 10.92
6/25/2021 5:15:00 PM 24.06 75.308 0.354 8.63 39.75 10.92
6/25/2021 5:30:00 PM 24.06 75.308 0.355 8.63 39.41 10.92
6/25/2021 5:45:00 PM 24.05 75.29 0.355 8.63 40.52 10.91
6/25/2021 6:00:00 PM 24.01 75.218 0.355 8.63 39.4 10.87
6/25/2021 6:15:00 PM 23.99 75.182 0.355 8.63 40.37 10.83
6/25/2021 6:30:00 PM 23.96 75.128 0.355 8.63 40.6 10.77
6/25/2021 6:45:00 PM 23.93 75.074 0.355 8.62 41.83 10.75
6/25/2021 7:00:00 PM 23.91 75.038 0.355 8.62 42.03 10.71
6/25/2021 7:15:00 PM 23.9 75.02 0.355 8.63 40.37 10.7
6/25/2021 7:30:00 PM 23.87 74.966 0.356 8.63 41.18 10.63
6/25/2021 7:45:00 PM 23.83 74.894 0.355 8.62 40.84 10.6
6/25/2021 8:00:00 PM 23.79 74.82201 0.356 8.61 42.92 10.5
6/25/2021 8:15:00 PM 23.73 74.714 0.356 8.61 42.27 10.39
6/25/2021 8:30:00 PM 23.7 74.66 0.356 8.61 42.69 10.33
6/25/2021 8:45:00 PM 23.66 74.588 0.356 8.6 43.36 10.23
6/25/2021 9:00:00 PM 23.62 74.516 0.356 8.58 43.22 10.12
6/25/2021 9:15:00 PM 23.57 74.426 0.356 8.55 44.77 10.05
6/25/2021 9:30:00 PM 23.52 74.336 0.356 8.56 44.01 9.93
6/25/2021 9:45:00 PM 23.46 74.228 0.356 8.53 44.74 9.78
6/25/2021 10:00:00 PM 23.41 74.138 0.356 8.52 43.26 9.62
6/25/2021 10:15:00 PM 23.35 74.03 0.357 8.5 44.46 9.54
6/25/2021 10:30:00 PM 23.29 73.922 0.357 8.48 46.02 9.44
6/25/2021 10:45:00 PM 23.24 73.832 0.357 8.46 44.88 9.33
6/25/2021 11:00:00 PM 23.19 73.742 0.357 8.45 44.63 9.25
6/25/2021 11:15:00 PM 23.13 73.634 0.357 8.42 45.81 9.13
6/25/2021 11:30:00 PM 23.08 73.544 0.357 8.4 45.53 9.03
6/25/2021 11:45:00 PM 23.03 73.454 0.358 8.39 44.23 8.97
6/26/2021 12:00:00 AM 22.98 73.364 0.358 8.37 44.49 8.89
6/26/2021 12:15:00 AM 22.92 73.256 0.358 8.36 42.64 8.79
6/26/2021 12:30:00 AM 22.88 73.184 0.358 8.34 45.96 8.75
6/26/2021 12:45:00 AM 22.83 73.094 0.359 8.32 43.04 8.67
6/26/2021 1:00:00 AM 22.78 73.004 0.359 8.31 39.7 8.59
6/26/2021 1:15:00 AM 22.73 72.914 0.359 8.29 44.47 8.51
6/26/2021 1:30:00 AM 22.68 72.824 0.36 8.27 43.21 8.43
6/26/2021 1:45:00 AM 22.62 72.716 0.36 8.26 43.53 8.35
6/26/2021 2:00:00 AM 22.58 72.644 0.36 8.24 43.68 8.3
6/26/2021 2:15:00 AM 22.54 72.57201 0.361 8.23 41.57 8.26
6/26/2021 2:30:00 AM 22.5 72.5 0.361 8.21 43.94 8.17
6/26/2021 2:45:00 AM 22.45 72.41 0.361 8.2 41.91 8.13
6/26/2021 3:00:00 AM 22.4 72.32 0.362 8.18 42 8.05
6/26/2021 3:15:00 AM 22.37 72.266 0.362 8.16 42.79 8.04
6/26/2021 3:30:00 AM 22.33 72.194 0.362 8.15 43.06 8
6/26/2021 3:45:00 AM 22.29 72.122 0.363 8.15 44.57 7.96
6/26/2021 4:00:00 AM 22.25 72.05 0.363 8.13 47.53 7.9
6/26/2021 4:15:00 AM 22.21 71.978 0.364 8.12 45.21 7.89
6/26/2021 4:30:00 AM 22.17 71.906 0.364 8.11 44.7 7.8
6/26/2021 4:45:00 AM 22.13 71.834 0.364 8.11 43.41 7.81
6/26/2021 5:00:00 AM 22.09 71.762 0.365 8.1 44.65 7.78
6/26/2021 5:15:00 AM 22.05 71.69 0.365 8.09 46.69 7.73
6/26/2021 5:30:00 AM 22.02 71.636 0.365 8.08 45.92 7.69
6/26/2021 5:45:00 AM 21.99 71.582 0.366 8.07 45.41 7.64
6/26/2021 6:00:00 AM 21.96 71.528 0.367 8.06 45.24 7.64
6/26/2021 6:15:00 AM 21.93 71.474 0.367 8.05 47.13 7.61
6/26/2021 6:30:00 AM 21.9 71.42 0.367 8.05 45.66 7.57
6/26/2021 6:45:00 AM 21.89 71.402 0.368 8.05 46.02 7.62
6/26/2021 7:00:00 AM 21.88 71.384 0.368 8.04 44.7 7.59
6/26/2021 7:15:00 AM 21.87 71.366 0.369 8.04 45.78 7.62
6/26/2021 7:30:00 AM 21.86 71.348 0.369 8.03 51.91 7.6
6/26/2021 7:45:00 AM 21.84 71.312 0.37 8.04 46.06 7.65
6/26/2021 8:00:00 AM 21.83 71.294 0.37 8.04 45.53 7.7
6/26/2021 8:15:00 AM 21.83 71.294 0.371 8.05 47.67 7.77
6/26/2021 8:30:00 AM 21.83 71.294 0.371 8.06 45.8 7.82
6/26/2021 8:45:00 AM 21.84 71.312 0.371 8.06 50.2 7.88
6/26/2021 9:00:00 AM 21.84 71.312 0.372 8.08 45.62 7.97
6/26/2021 9:15:00 AM 21.85 71.33 0.372 8.09 47.39 8.02
6/26/2021 9:30:00 AM 21.86 71.348 0.373 8.1 47.48 8.09
6/26/2021 9:45:00 AM 21.9 71.42 0.373 8.11 45.05 8.2
6/26/2021 10:00:00 AM 21.97 71.546 0.374 8.12 45.12 8.33
6/26/2021 10:15:00 AM 22.12 71.816 0.374 8.15 45.44 8.48
6/26/2021 10:30:00 AM 22.24 72.032 0.375 8.17 45.3 8.59
6/26/2021 10:45:00 AM 22.3 72.14 0.375 8.19 45.07 8.68
6/26/2021 11:00:00 AM 22.4 72.32 0.376 8.22 44.81 8.87
6/26/2021 11:15:00 AM 22.51 72.518 0.377 8.24 46.04 8.99
6/26/2021 11:30:00 AM 22.62 72.716 0.377 8.26 45.42 9.14
6/26/2021 11:45:00 AM 22.75 72.95 0.378 8.29 45.92 9.26
6/26/2021 12:00:00 PM 22.84 73.112 0.378 8.31 46.69 9.39
6/26/2021 12:15:00 PM 22.97 73.346 0.379 8.34 46.01 9.53
6/26/2021 12:30:00 PM 23.13 73.634 0.379 8.36 44.86 9.66
6/26/2021 12:45:00 PM 23.23 73.814 0.38 8.38 44.96 9.7
6/26/2021 1:00:00 PM 23.28 73.904 0.38 8.4 46.3 9.81
6/26/2021 1:15:00 PM 23.33 73.994 0.381 8.42 45.46 9.87
6/26/2021 1:30:00 PM 23.47 74.246 0.381 8.44 44.79 9.99
6/26/2021 1:45:00 PM 23.59 74.462 0.382 8.45 45.34 10.07
6/26/2021 2:00:00 PM 23.69 74.642 0.382 8.47 45.24 10.16
6/26/2021 2:15:00 PM 23.75 74.75 0.383 8.48 44.76 10.2
6/26/2021 2:30:00 PM 23.81 74.858 0.383 8.48 44.75 10.23
6/26/2021 2:45:00 PM 23.93 75.074 0.384 8.5 44.07 10.29
6/26/2021 3:00:00 PM 24.07 75.326 0.384 8.52 43.95 10.42
6/26/2021 3:15:00 PM 24.17 75.506 0.385 8.52 75.87 10.47
6/26/2021 3:30:00 PM 24.26 75.668 0.385 8.53 48.42 10.49
6/26/2021 3:45:00 PM 24.31 75.758 0.385 8.55 46.86 10.54
6/26/2021 4:00:00 PM 24.38 75.884 0.386 8.57 45.16 10.6
6/26/2021 4:15:00 PM 24.42 75.956 0.386 8.58 44.86 10.68
6/26/2021 4:30:00 PM 24.44 75.992 0.387 8.58 44.43 10.68
6/26/2021 4:45:00 PM 24.45 76.01 0.387 8.59 44.48 10.67
6/26/2021 5:00:00 PM 24.47 76.046 0.387 8.59 43.9 10.68
6/26/2021 5:15:00 PM 24.5 76.1 0.387 8.59 44.22 10.68
6/26/2021 5:30:00 PM 24.54 76.172 0.388 8.61 43.98 10.71
6/26/2021 5:45:00 PM 24.58 76.244 0.388 8.61 43.46 10.77
6/26/2021 6:00:00 PM 24.6 76.28 0.388 8.62 43.9 10.8
6/26/2021 6:15:00 PM 24.62 76.316 0.389 8.61 43.86 10.75
6/26/2021 6:30:00 PM 24.62 76.316 0.389 8.61 42.78 10.77
6/26/2021 6:45:00 PM 24.63 76.334 0.389 8.62 43.03 10.75
6/26/2021 7:00:00 PM 24.63 76.334 0.389 8.63 43.26 10.73
6/26/2021 7:15:00 PM 24.64 76.352 0.389 8.63 42.61 10.77
6/26/2021 7:30:00 PM 24.64 76.352 0.39 8.62 43.16 10.7
6/26/2021 7:45:00 PM 24.61 76.298 0.39 8.61 44.21 10.63
6/26/2021 8:00:00 PM 24.57 76.226 0.39 8.6 44.94 10.49
6/26/2021 8:15:00 PM 24.54 76.172 0.391 8.6 44.07 10.42
6/26/2021 8:30:00 PM 24.51 76.118 0.391 8.59 43.56 10.3
6/26/2021 8:45:00 PM 24.48 76.064 0.391 8.58 42.68 10.16
6/26/2021 9:00:00 PM 24.45 76.01 0.392 8.57 43.56 10.03
6/26/2021 9:15:00 PM 24.42 75.956 0.392 8.55 42.98 9.92
6/26/2021 9:30:00 PM 24.38 75.884 0.392 8.54 44.8 9.78
6/26/2021 9:45:00 PM 24.36 75.848 0.392 8.52 44.46 9.66
6/26/2021 10:00:00 PM 24.33 75.794 0.393 8.5 44.62 9.55
6/26/2021 10:15:00 PM 24.31 75.758 0.393 8.49 44.92 9.41
6/26/2021 10:30:00 PM 24.28 75.704 0.393 8.47 44.86 9.3
6/26/2021 10:45:00 PM 24.26 75.668 0.394 8.46 44.77 9.22
6/26/2021 11:00:00 PM 24.23 75.614 0.394 8.44 45.03 9.09
6/26/2021 11:15:00 PM 24.21 75.578 0.394 8.42 44.97 8.99
6/26/2021 11:30:00 PM 24.18 75.524 0.394 8.41 48.25 8.92
6/26/2021 11:45:00 PM 24.15 75.47 0.394 8.39 47.01 8.8
6/27/2021 12:00:00 AM 24.12 75.416 0.395 8.37 45.9 8.74
6/27/2021 12:15:00 AM 24.09 75.362 0.395 8.36 45.15 8.65
6/27/2021 12:30:00 AM 24.06 75.308 0.395 8.34 45.97 8.54
6/27/2021 12:45:00 AM 24.03 75.254 0.395 8.32 45.26 8.45
6/27/2021 1:00:00 AM 23.99 75.182 0.395 8.31 46.09 8.37
6/27/2021 1:15:00 AM 23.96 75.128 0.395 8.29 45.79 8.3
6/27/2021 1:30:00 AM 23.93 75.074 0.396 8.27 45.72 8.21
6/27/2021 1:45:00 AM 23.89 75.002 0.396 8.26 45.41 8.14
6/27/2021 2:00:00 AM 23.86 74.948 0.396 8.24 46.49 8.06
6/27/2021 2:15:00 AM 23.82 74.876 0.396 8.23 45.7 8.01
6/27/2021 2:30:00 AM 23.79 74.82201 0.396 8.21 45.33 7.92
6/27/2021 2:45:00 AM 23.75 74.75 0.396 8.2 45.6 7.9
6/27/2021 3:00:00 AM 23.71 74.67799 0.396 8.19 46.77 7.86
6/27/2021 3:15:00 AM 23.68 74.624 0.396 8.18 46.24 7.79
6/27/2021 3:30:00 AM 23.64 74.552 0.396 8.17 46.08 7.74
6/27/2021 3:45:00 AM 23.61 74.498 0.396 8.16 45.57 7.7
6/27/2021 4:00:00 AM 23.57 74.426 0.396 8.15 46.84 7.62
6/27/2021 4:15:00 AM 23.54 74.372 0.396 8.14 45.13 7.59
6/27/2021 4:30:00 AM 23.51 74.318 0.396 8.13 45.32 7.57
6/27/2021 4:45:00 AM 23.48 74.264 0.396 8.12 46.31 7.53
6/27/2021 5:00:00 AM 23.44 74.192 0.396 8.11 45.55 7.49
6/27/2021 5:15:00 AM 23.41 74.138 0.396 8.1 45.67 7.43
6/27/2021 5:30:00 AM 23.38 74.084 0.395 8.08 45.58 7.42
6/27/2021 5:45:00 AM 23.35 74.03 0.395 8.09 45.12 7.41
6/27/2021 6:00:00 AM 23.33 73.994 0.395 8.08 44.58 7.4
6/27/2021 6:15:00 AM 23.3 73.94 0.395 8.06 47.06 7.29
6/27/2021 6:30:00 AM 23.29 73.922 0.395 8.07 45.15 7.37
6/27/2021 6:45:00 AM 23.28 73.904 0.395 8.06 45.18 7.37
6/27/2021 7:00:00 AM 23.29 73.922 0.395 8.06 44.74 7.38
6/27/2021 7:15:00 AM 23.31 73.958 0.394 8.06 44.84 7.44
6/27/2021 7:30:00 AM 23.34 74.012 0.394 8.06 45.38 7.48
6/27/2021 7:45:00 AM 23.38 74.084 0.394 8.07 45.72 7.53
6/27/2021 8:00:00 AM 23.42 74.156 0.394 8.07 45.69 7.61
6/27/2021 8:15:00 AM 23.48 74.264 0.393 8.09 44.35 7.72
6/27/2021 8:30:00 AM 23.52 74.336 0.393 8.1 44.44 7.8
6/27/2021 8:45:00 AM 23.61 74.498 0.393 8.11 46.18 7.9
6/27/2021 9:00:00 AM 23.69 74.642 0.393 8.12 44.98 7.98
6/27/2021 9:15:00 AM 23.77 74.786 0.392 8.14 44.81 8.12
6/27/2021 9:30:00 AM 23.89 75.002 0.392 8.16 45.28 8.29
6/27/2021 9:45:00 AM 23.96 75.128 0.392 8.18 44.84 8.38
6/27/2021 10:00:00 AM 24.01 75.218 0.392 8.2 45.69 8.49
6/27/2021 10:15:00 AM 24.14 75.452 0.392 8.21 45.22 8.62
6/27/2021 10:30:00 AM 24.33 75.794 0.391 8.24 44.3 8.77
6/27/2021 10:45:00 AM 24.47 76.046 0.391 8.26 43.76 8.9
6/27/2021 11:00:00 AM 24.57 76.226 0.391 8.28 43.64 9
6/27/2021 11:15:00 AM 24.69 76.442 0.391 8.3 45.39 9.12
6/27/2021 11:30:00 AM 24.85 76.73 0.39 8.32 46.27 9.25
6/27/2021 11:45:00 AM 25.01 77.018 0.39 8.35 44.92 9.37
6/27/2021 12:00:00 PM 25.16 77.288 0.39 8.38 45.01 9.51
6/27/2021 12:15:00 PM 25.3 77.54 0.39 8.4 44.68 9.67
6/27/2021 12:30:00 PM 25.49 77.882 0.389 8.42 44.84 9.78
6/27/2021 12:45:00 PM 25.67 78.206 0.389 8.44 45.61 9.88
6/27/2021 1:00:00 PM 25.84 78.512 0.389 8.45 44.79 9.95
6/27/2021 1:15:00 PM 25.99 78.782 0.389 8.47 44.57 10.04
6/27/2021 1:30:00 PM 26.13 79.034 0.389 8.49 44.75 10.18
6/27/2021 1:45:00 PM 26.21 79.17799 0.389 8.5 44.34 10.18
6/27/2021 2:00:00 PM 26.33 79.394 0.389 8.52 45.46 10.26
6/27/2021 2:15:00 PM 26.47 79.646 0.389 8.53 44.81 10.31
6/27/2021 2:30:00 PM 26.63 79.934 0.389 8.54 43.98 10.4
6/27/2021 2:45:00 PM 26.77 80.186 0.389 8.56 44.04 10.49
6/27/2021 3:00:00 PM 26.85 80.33 0.389 8.56 44.1 10.44
6/27/2021 3:15:00 PM 26.92 80.456 0.388 8.57 43.73 10.45
6/27/2021 3:30:00 PM 26.99 80.582 0.389 8.58 44.76 10.49
6/27/2021 3:45:00 PM 27.09 80.762 0.388 8.59 44.47 10.52
6/27/2021 4:00:00 PM 27.14 80.852 0.389 8.58 44.89 10.54
6/27/2021 4:15:00 PM 27.19 80.942 0.389 8.6 44.05 10.59
6/27/2021 4:30:00 PM 27.27 81.086 0.388 8.6 43.56 10.57
6/27/2021 4:45:00 PM 27.3 81.14 0.388 8.61 43.76 10.6
6/27/2021 5:00:00 PM 27.28 81.104 0.388 8.61 44.35 10.58
6/27/2021 5:15:00 PM 27.29 81.122 0.388 8.61 43.92 10.59
6/27/2021 5:30:00 PM 27.27 81.086 0.388 8.61 43.81 10.52
6/27/2021 5:45:00 PM 27.26 81.068 0.388 8.61 43.77 10.52
6/27/2021 6:00:00 PM 27.26 81.068 0.388 8.59 45.57 10.48
6/27/2021 6:15:00 PM 27.27 81.086 0.388 8.61 44.57 10.51
6/27/2021 6:30:00 PM 27.27 81.086 0.388 8.62 46.05 10.44
6/27/2021 6:45:00 PM 27.28 81.104 0.388 8.62 44.31 10.44
6/27/2021 7:00:00 PM 27.28 81.104 0.388 8.61 44.75 10.38
6/27/2021 7:15:00 PM 27.28 81.104 0.388 8.6 44.42 10.42
6/27/2021 7:30:00 PM 27.26 81.068 0.388 8.61 45.23 10.34
6/27/2021 7:45:00 PM 27.24 81.032 0.388 8.61 45.75 10.28
6/27/2021 8:00:00 PM 27.2 80.96 0.388 8.61 45.39 10.16
6/27/2021 8:15:00 PM 27.15 80.87 0.388 8.6 45.82 10.03
6/27/2021 8:30:00 PM 27.11 80.798 0.388 8.57 45.35 9.89
6/27/2021 8:45:00 PM 27.08 80.744 0.388 8.58 46.08 9.77
6/27/2021 9:00:00 PM 27.05 80.69 0.388 8.56 46.14 9.66
6/27/2021 9:15:00 PM 27.01 80.618 0.388 8.55 47.03 9.53
6/27/2021 9:30:00 PM 26.99 80.582 0.388 8.54 46.01 9.43
6/27/2021 9:45:00 PM 26.96 80.528 0.388 8.52 46.62 9.31
6/27/2021 10:00:00 PM 26.92 80.456 0.388 8.51 45.65 9.16
6/27/2021 10:15:00 PM 26.9 80.42 0.388 8.5 47.29 9.07
6/27/2021 10:30:00 PM 26.86 80.348 0.388 8.48 45.3 8.92
6/27/2021 10:45:00 PM 26.83 80.294 0.389 8.46 46.14 8.81
6/27/2021 11:00:00 PM 26.79 80.222 0.389 8.44 46.11 8.69
6/27/2021 11:15:00 PM 26.75 80.15 0.389 8.42 45.44 8.58
6/27/2021 11:30:00 PM 26.7 80.06 0.389 8.4 44.6 8.46
6/27/2021 11:45:00 PM 26.65 79.97 0.389 8.38 49.5 8.35
6/28/2021 12:00:00 AM 26.62 79.916 0.389 8.37 45.69 8.28
6/28/2021 12:15:00 AM 26.57 79.826 0.389 8.35 44.76 8.17
6/28/2021 12:30:00 AM 26.53 79.754 0.389 8.33 43.7 8.05
6/28/2021 12:45:00 AM 26.48 79.664 0.389 8.31 44.98 7.97
6/28/2021 1:00:00 AM 26.44 79.592 0.389 8.29 44.49 7.88
6/28/2021 1:15:00 AM 26.39 79.502 0.389 8.27 46.84 7.8
6/28/2021 1:30:00 AM 26.34 79.412 0.389 8.25 45.43 7.7
6/28/2021 1:45:00 AM 26.29 79.32201 0.389 8.24 45.59 7.61
6/28/2021 2:00:00 AM 26.24 79.232 0.389 8.22 45.53 7.55
6/28/2021 2:15:00 AM 26.18 79.124 0.389 8.2 45.75 7.46
6/28/2021 2:30:00 AM 26.13 79.034 0.389 8.18 45.58 7.4
6/28/2021 2:45:00 AM 26.07 78.926 0.389 8.17 45.96 7.31
6/28/2021 3:00:00 AM 26.02 78.836 0.389 8.14 45.54 7.27
6/28/2021 3:15:00 AM 25.96 78.728 0.389 8.14 45.85 7.21
6/28/2021 3:30:00 AM 25.91 78.638 0.389 8.12 45.43 7.15
6/28/2021 3:45:00 AM 25.85 78.53 0.389 8.11 45.55 7.11
6/28/2021 4:00:00 AM 25.79 78.422 0.389 8.09 45.29 7.05
6/28/2021 4:15:00 AM 25.73 78.314 0.389 8.08 46.29 7.02
6/28/2021 4:30:00 AM 25.68 78.224 0.389 8.07 46.23 6.95
6/28/2021 4:45:00 AM 25.62 78.116 0.389 8.04 46.55 6.92
6/28/2021 5:00:00 AM 25.56 78.008 0.389 8.04 46.62 6.84
6/28/2021 5:15:00 AM 25.5 77.9 0.389 8.04 47.75 6.81
6/28/2021 5:30:00 AM 25.44 77.792 0.389 8.02 51.93 6.77
6/28/2021 5:45:00 AM 25.39 77.702 0.389 8.01 46.31 6.75
6/28/2021 6:00:00 AM 25.34 77.612 0.389 8 46.41 6.72
6/28/2021 6:15:00 AM 25.3 77.54 0.39 8 47.78 6.68
6/28/2021 6:30:00 AM 25.25 77.45 0.39 7.99 46.09 6.71
6/28/2021 6:45:00 AM 25.23 77.414 0.39 7.97 46.61 6.69
6/28/2021 7:00:00 AM 25.22 77.396 0.39 7.98 46.68 6.52
6/28/2021 7:15:00 AM 25.22 77.396 0.39 7.98 47.62 6.74
6/28/2021 7:30:00 AM 25.22 77.396 0.39 7.98 48.16 6.76
6/28/2021 7:45:00 AM 25.25 77.45 0.391 7.98 46.5 6.84
6/28/2021 8:00:00 AM 25.29 77.522 0.391 7.99 46.93 6.93
6/28/2021 8:15:00 AM 25.33 77.594 0.391 8 48.84 7
6/28/2021 8:30:00 AM 25.37 77.666 0.392 7.99 46.88 7.12
6/28/2021 8:45:00 AM 25.44 77.792 0.392 8.03 47.59 7.23
6/28/2021 9:00:00 AM 25.52 77.936 0.392 8.04 48.73 7.32
6/28/2021 9:15:00 AM 25.62 78.116 0.392 8.06 48.5 7.45
6/28/2021 9:30:00 AM 25.72 78.296 0.392 8.07 52.98 7.61
6/28/2021 9:45:00 AM 25.84 78.512 0.393 8.1 48.2 7.74
6/28/2021 10:00:00 AM 25.94 78.692 0.393 8.11 48.18 7.9
6/28/2021 10:15:00 AM 26.08 78.944 0.393 8.14 46.48 8.04
6/28/2021 10:30:00 AM 26.24 79.232 0.393 8.16 46.99 8.21
6/28/2021 10:45:00 AM 26.4 79.52 0.394 8.2 48.12 8.4
6/28/2021 11:00:00 AM 26.55 79.79 0.394 8.22 46.87 8.55
6/28/2021 11:15:00 AM 26.66 79.988 0.394 8.24 47.46 8.69
6/28/2021 11:30:00 AM 26.81 80.258 0.394 8.26 47.91 8.82
6/28/2021 11:45:00 AM 26.99 80.582 0.394 8.28 46.46 8.93
6/28/2021 12:00:00 PM 27.18 80.924 0.394 8.3 46.22 9.08
6/28/2021 12:15:00 PM 27.36 81.248 0.394 8.33 46.43 9.22
6/28/2021 12:30:00 PM 27.5 81.5 0.394 8.34 46.09 9.37
6/28/2021 12:45:00 PM 27.62 81.716 0.394 8.37 47.23 9.41
6/28/2021 1:00:00 PM 27.76 81.968 0.394 8.37 46.31 9.53
6/28/2021 1:15:00 PM 27.86 82.148 0.394 8.4 47.36 9.61
6/28/2021 1:30:00 PM 28.01 82.418 0.394 8.43 46.83 9.77
6/28/2021 1:45:00 PM 28.15 82.67 0.394 8.45 46.5 9.83
6/28/2021 2:00:00 PM 28.28 82.904 0.394 8.46 46.55 9.92
6/28/2021 2:15:00 PM 28.43 83.174 0.394 8.48 45.89 10.04
6/28/2021 2:30:00 PM 28.58 83.444 0.394 8.48 45.99 10.11
6/28/2021 2:45:00 PM 28.7 83.66 0.394 8.5 46.18 10.18
6/28/2021 3:00:00 PM 28.83 83.894 0.393 8.52 46.41 10.28
6/28/2021 3:15:00 PM 28.91 84.038 0.393 8.53 47.23 10.29
6/28/2021 3:30:00 PM 29 84.2 0.393 8.54 47.7 10.35
6/28/2021 3:45:00 PM 29.06 84.308 0.393 8.55 46.53 10.35
6/28/2021 4:00:00 PM 29.12 84.416 0.393 8.56 46.72 10.39
6/28/2021 4:15:00 PM 29.05 84.28999 0.393 8.55 47.24 10.29
6/28/2021 4:30:00 PM 28.89 84.002 0.391 8.53 48.08 10.06
6/28/2021 4:45:00 PM 28.84 83.912 0.39 8.53 49.57 9.98
6/28/2021 5:00:00 PM 28.84 83.912 0.391 8.54 48.78 9.96
6/28/2021 5:15:00 PM 28.88 83.98399 0.39 8.55 48.21 10.03
6/28/2021 5:30:00 PM 28.91 84.038 0.39 8.55 48.95 9.99
6/28/2021 5:45:00 PM 28.92 84.056 0.39 8.54 47.45 9.95
6/28/2021 6:00:00 PM 28.88 83.98399 0.39 8.55 46.25 9.89
6/28/2021 6:15:00 PM 28.86 83.948 0.39 8.54 46.72 9.83
6/28/2021 6:30:00 PM 28.84 83.912 0.39 8.55 45.73 9.89
6/28/2021 6:45:00 PM 28.81 83.858 0.39 8.55 46.13 9.88
6/28/2021 7:00:00 PM 28.76 83.768 0.39 8.54 46.41 9.83
6/28/2021 7:15:00 PM 28.72 83.696 0.39 8.55 46.72 9.81
6/28/2021 7:30:00 PM 28.69 83.642 0.39 8.54 47.01 9.81
6/28/2021 7:45:00 PM 28.64 83.552 0.39 8.55 46.11 9.69
6/28/2021 8:00:00 PM 28.6 83.48 0.391 8.54 48.31 9.63
6/28/2021 8:15:00 PM 28.55 83.39 0.391 8.54 32.81 9.45
6/28/2021 8:30:00 PM 28.5 83.3 0.391 8.53 28.11 9.41
6/28/2021 8:45:00 PM 28.43 83.174 0.392 8.49 27.19 9.19
6/28/2021 9:00:00 PM 28.36 83.048 0.392 8.5 30.39 9.18
6/28/2021 9:15:00 PM 28.28 82.904 0.392 8.47 45.91 9.01
6/28/2021 9:30:00 PM 28.21 82.778 0.392 8.46 46.13 8.86
6/28/2021 9:45:00 PM 28.14 82.652 0.392 8.43 43.37 8.74
6/28/2021 10:00:00 PM 28.07 82.526 0.393 8.41 45.57 8.62
6/28/2021 10:15:00 PM 28.01 82.418 0.393 8.39 44.85 8.47
6/28/2021 10:30:00 PM 27.96 82.328 0.393 8.37 45.39 8.37
6/28/2021 10:45:00 PM 27.91 82.238 0.394 8.36 47.69 8.27
6/28/2021 11:00:00 PM 27.85 82.13 0.394 8.32 51.66 8.13
6/28/2021 11:15:00 PM 27.81 82.058 0.394 8.31 46.92 8.06
6/28/2021 11:30:00 PM 27.77 81.986 0.395 8.31 47.4 7.96
6/28/2021 11:45:00 PM 27.72 81.896 0.395 8.3 48.94 7.85
6/29/2021 12:00:00 AM 27.68 81.824 0.395 8.28 48.04 7.76
6/29/2021 12:15:00 AM 27.63 81.734 0.396 8.27 47.84 7.71
6/29/2021 12:30:00 AM 27.58 81.644 0.396 8.25 49.11 7.6
6/29/2021 12:45:00 AM 27.53 81.554 0.396 8.23 55.16 7.49
6/29/2021 1:00:00 AM 27.48 81.464 0.396 8.2 58.5 7.37
6/29/2021 1:15:00 AM 27.42 81.356 0.396 8.19 52.66 7.32
6/29/2021 1:30:00 AM 27.37 81.266 0.397 8.16 53.61 7.21
6/29/2021 1:45:00 AM 27.32 81.176 0.397 8.16 49.8 7.12
6/29/2021 2:00:00 AM 27.27 81.086 0.397 8.13 49.32 7.09
6/29/2021 2:15:00 AM 27.21 80.978 0.397 8.11 47.93 7
6/29/2021 2:30:00 AM 27.16 80.888 0.398 8.1 48.44 6.87
6/29/2021 2:45:00 AM 27.11 80.798 0.398 8.08 48.42 6.89
6/29/2021 3:00:00 AM 27.06 80.708 0.398 8.09 46.65 6.88
6/29/2021 3:15:00 AM 27 80.6 0.398 8.07 40.42 6.79
6/29/2021 3:30:00 AM 26.95 80.51 0.398 8.06 41.84 6.76
6/29/2021 3:45:00 AM 26.91 80.438 0.399 8.03 46.99 6.71
6/29/2021 4:00:00 AM 26.86 80.348 0.399 8.03 42.1 6.64
6/29/2021 4:15:00 AM 26.81 80.258 0.399 8.03 42.48 6.64
6/29/2021 4:30:00 AM 26.76 80.168 0.399 8.02 42.67 6.55
6/29/2021 4:45:00 AM 26.71 80.078 0.399 8.01 42.09 6.53
6/29/2021 5:00:00 AM 26.67 80.006 0.4 7.99 44.65 6.5
6/29/2021 5:15:00 AM 26.63 79.934 0.4 7.98 44.34 6.47
6/29/2021 5:30:00 AM 26.59 79.862 0.4 7.98 45.03 6.42
6/29/2021 5:45:00 AM 26.54 79.772 0.4 7.97 47.88 6.38
6/29/2021 6:00:00 AM 26.51 79.718 0.401 7.96 48.1 6.37
6/29/2021 6:15:00 AM 26.47 79.646 0.401 7.96 53.37 6.34
6/29/2021 6:30:00 AM 26.43 79.574 0.401 7.94 53.21 6.32
6/29/2021 6:45:00 AM 26.39 79.502 0.401 7.94 51.21 6.29
6/29/2021 7:00:00 AM 26.36 79.448 0.401 7.94 50.66 6.3
6/29/2021 7:15:00 AM 26.34 79.412 0.402 7.93 49.79 6.29
6/29/2021 7:30:00 AM 26.34 79.412 0.402 7.93 48.31 6.33
6/29/2021 7:45:00 AM 26.35 79.43 0.402 7.93 48.09 6.42
6/29/2021 8:00:00 AM 26.39 79.502 0.402 7.92 49.84 6.49
6/29/2021 8:15:00 AM 26.43 79.574 0.402 7.94 51.86 6.54
6/29/2021 8:30:00 AM 26.46 79.628 0.402 7.95 53.42 6.68
6/29/2021 8:45:00 AM 26.52 79.736 0.402 7.96 51.72 6.75
6/29/2021 9:00:00 AM 26.6 79.88 0.402 7.98 51.68 6.94
6/29/2021 9:15:00 AM 26.68 80.024 0.403 7.99 51.11 7.06
6/29/2021 9:30:00 AM 26.78 80.204 0.403 8.01 53.88 7.26
6/29/2021 9:45:00 AM 26.88 80.384 0.403 8.03 50.99 7.37
6/29/2021 10:00:00 AM 27.01 80.618 0.403 8.06 48.79 7.55
6/29/2021 10:15:00 AM 27.13 80.834 0.403 8.08 50.08 7.71
6/29/2021 10:30:00 AM 27.28 81.104 0.403 8.11 48.55 7.91
6/29/2021 10:45:00 AM 27.42 81.356 0.403 8.13 48.54 8.02
6/29/2021 11:00:00 AM 27.59 81.662 0.403 8.15 48.45 8.22
6/29/2021 11:15:00 AM 27.76 81.968 0.403 8.17 48.24 8.36
6/29/2021 11:30:00 AM 27.95 82.31 0.403 8.2 48.26 8.53
6/29/2021 11:45:00 AM 28.11 82.598 0.403 8.22 49.7 8.6
6/29/2021 12:00:00 PM 28.3 82.94 0.404 8.24 47.88 8.77
6/29/2021 12:15:00 PM 28.46 83.228 0.404 8.26 49.49 8.91
6/29/2021 12:30:00 PM 28.62 83.51601 0.404 8.29 47.14 9.06
6/29/2021 12:45:00 PM 28.76 83.768 0.404 8.3 53.49 9.16
6/29/2021 1:00:00 PM 28.93 84.074 0.404 8.32 49.69 9.34
6/29/2021 1:15:00 PM 29.13 84.434 0.404 8.33 49.23 9.39
6/29/2021 1:30:00 PM 29.33 84.794 0.404 8.36 49.01 9.55
6/29/2021 1:45:00 PM 29.47 85.046 0.404 8.38 50.36 9.67
6/29/2021 2:00:00 PM 29.59 85.262 0.404 8.41 49.37 9.73
6/29/2021 2:15:00 PM 29.77 85.586 0.404 8.43 50.29 9.88
6/29/2021 2:30:00 PM 29.9 85.82 0.404 8.44 49.83 9.97
6/29/2021 2:45:00 PM 30 86 0.404 8.45 48.66 9.99
6/29/2021 3:00:00 PM 30.09 86.162 0.404 8.44 51.18 9.99
6/29/2021 3:15:00 PM 30.12 86.216 0.404 8.48 48.45 10.05
6/29/2021 3:30:00 PM 30.15 86.27 0.404 8.48 50.12 10.02
6/29/2021 3:45:00 PM 30.23 86.414 0.404 8.51 50.69 10.09
6/29/2021 4:00:00 PM 30.3 86.53999 0.405 8.51 49.9 10.11
6/29/2021 4:15:00 PM 30.38 86.684 0.404 8.53 54.95 10.24
6/29/2021 4:30:00 PM 30.46 86.828 0.405 8.53 51.42 10.2
6/29/2021 4:45:00 PM 30.53 86.954 0.405 8.53 50.52 10.27
6/29/2021 5:00:00 PM 30.57 87.026 0.405 8.54 48.98 10.29
6/29/2021 5:15:00 PM 30.56 87.008 0.405 8.55 50.46 10.31
6/29/2021 5:30:00 PM 30.53 86.954 0.405 8.55 49.9 10.26
6/29/2021 5:45:00 PM 30.52 86.936 0.405 8.56 70.09 10.26
6/29/2021 6:00:00 PM 30.46 86.828 0.405 8.54 49.04 10.19
6/29/2021 6:15:00 PM 30.41 86.738 0.405 8.56 47.77 10.19
6/29/2021 6:30:00 PM 30.35 86.63 0.406 8.56 49.11 10.1
6/29/2021 6:45:00 PM 30.27 86.486 0.406 8.54 52.97 9.98
6/29/2021 7:00:00 PM 30.17 86.306 0.406 8.54 49.86 9.91
6/29/2021 7:15:00 PM 30.04 86.07201 0.406 8.53 50.88 9.76
6/29/2021 7:30:00 PM 29.93 85.874 0.406 8.5 52.63 9.57
6/29/2021 7:45:00 PM 29.82 85.676 0.406 8.48 58.99 9.4
6/29/2021 8:00:00 PM 29.71 85.478 0.406 8.47 52.43 9.26
6/29/2021 8:15:00 PM 29.62 85.316 0.407 8.45 50.92 9.08
6/29/2021 8:30:00 PM 29.55 85.18999 0.407 8.43 49.95 8.98
6/29/2021 8:45:00 PM 29.46 85.028 0.407 8.4 49.17 8.78
6/29/2021 9:00:00 PM 29.38 84.884 0.408 8.39 49.4 8.69
6/29/2021 9:15:00 PM 29.29 84.722 0.408 8.37 50.26 8.51
6/29/2021 9:30:00 PM 29.21 84.578 0.408 8.36 49.85 8.42
6/29/2021 9:45:00 PM 29.14 84.452 0.408 8.33 52.15 8.29
6/29/2021 10:00:00 PM 29.06 84.308 0.408 8.31 51.14 8.12
6/29/2021 10:15:00 PM 28.97 84.146 0.409 8.3 53.4 8.03
6/29/2021 10:30:00 PM 28.9 84.02 0.409 8.28 54.16 7.93
6/29/2021 10:45:00 PM 28.83 83.894 0.409 8.27 49.37 7.69
6/29/2021 11:00:00 PM 28.76 83.768 0.409 8.26 49.76 7.73
6/29/2021 11:15:00 PM 28.69 83.642 0.41 8.23 52.48 7.58
6/29/2021 11:30:00 PM 28.62 83.51601 0.41 8.22 49.53 7.51
6/29/2021 11:45:00 PM 28.56 83.408 0.41 8.2 49.61 7.42
6/30/2021 12:00:00 AM 28.49 83.282 0.41 8.18 49.65 7.28
6/30/2021 12:15:00 AM 28.42 83.156 0.41 8.16 47.91 7.18
6/30/2021 12:30:00 AM 28.36 83.048 0.41 8.15 48.86 7.12
6/30/2021 12:45:00 AM 28.29 82.922 0.41 8.12 48.21 7.05
6/30/2021 1:00:00 AM 28.24 82.832 0.41 8.11 46.15 6.95
6/30/2021 1:15:00 AM 28.19 82.742 0.41 8.09 45.05 6.87
6/30/2021 1:30:00 AM 28.14 82.652 0.411 8.08 45.67 6.8
6/30/2021 1:45:00 AM 28.08 82.544 0.411 8.07 45.55 6.7
6/30/2021 2:00:00 AM 28.03 82.454 0.411 8.05 49.73 6.66
6/30/2021 2:15:00 AM 27.99 82.382 0.411 8.05 47.57 6.63
6/30/2021 2:30:00 AM 27.93 82.274 0.411 8.04 46.2 6.59
6/30/2021 2:45:00 AM 27.87 82.166 0.412 8.03 45.67 6.5
6/30/2021 3:00:00 AM 27.82 82.076 0.412 8.02 44.63 6.47
6/30/2021 3:15:00 AM 27.77 81.986 0.412 8 45.54 6.41
6/30/2021 3:30:00 AM 27.71 81.878 0.412 8 44.66 6.4
6/30/2021 3:45:00 AM 27.66 81.788 0.413 7.99 46.45 6.38
6/30/2021 4:00:00 AM 27.6 81.68 0.413 7.99 47.96 6.32
6/30/2021 4:15:00 AM 27.54 81.57201 0.413 7.98 48.14 6.33
6/30/2021 4:30:00 AM 27.48 81.464 0.413 7.97 48.01 6.32
6/30/2021 4:45:00 AM 27.41 81.338 0.413 7.97 48.86 6.26
6/30/2021 5:00:00 AM 27.35 81.23 0.413 7.96 46.79 6.23
6/30/2021 5:15:00 AM 27.29 81.122 0.413 7.95 47.96 6.21
6/30/2021 5:30:00 AM 27.23 81.014 0.413 7.94 52.38 6.18
6/30/2021 5:45:00 AM 27.17 80.906 0.413 7.93 48.95 6.12
6/30/2021 6:00:00 AM 27.11 80.798 0.413 7.93 47.35 6.12
6/30/2021 6:15:00 AM 27.05 80.69 0.413 7.93 47.43 6.14
6/30/2021 6:30:00 AM 27 80.6 0.413 7.92 47.16 6.1
6/30/2021 6:45:00 AM 26.97 80.546 0.413 7.92 49.41 6.13
6/30/2021 7:00:00 AM 26.95 80.51 0.413 7.91 50.24 6.11
6/30/2021 7:15:00 AM 26.94 80.492 0.412 7.91 49.03 6.17
6/30/2021 7:30:00 AM 26.93 80.474 0.412 7.92 47.74 6.26
6/30/2021 7:45:00 AM 26.93 80.474 0.412 7.92 46.79 6.3
6/30/2021 8:00:00 AM 26.95 80.51 0.412 7.93 48.71 6.39
6/30/2021 8:15:00 AM 26.98 80.564 0.412 7.94 46.71 6.49
6/30/2021 8:30:00 AM 27.05 80.69 0.412 7.95 46.26 6.67
6/30/2021 8:45:00 AM 27.07 80.726 0.412 7.95 46.44 6.71
6/30/2021 9:00:00 AM 27.08 80.744 0.411 7.97 46.35 6.86
6/30/2021 9:15:00 AM 27.09 80.762 0.411 7.99 46.11 7
6/30/2021 9:30:00 AM 27.1 80.78 0.411 8 45.84 7.07
6/30/2021 9:45:00 AM 27.11 80.798 0.411 8.01 46.27 7.18
6/30/2021 10:00:00 AM 27.14 80.852 0.411 8.03 45.45 7.3
6/30/2021 10:15:00 AM 27.2 80.96 0.411 8.04 45.74 7.44
6/30/2021 10:30:00 AM 27.27 81.086 0.412 8.05 46.23 7.54
6/30/2021 10:45:00 AM 27.34 81.212 0.412 8.07 46.2 7.66
6/30/2021 11:00:00 AM 27.44 81.392 0.412 8.08 45.22 7.75
6/30/2021 11:15:00 AM 27.52 81.536 0.412 8.1 45.29 7.85
6/30/2021 11:30:00 AM 27.66 81.788 0.412 8.12 47.22 8
6/30/2021 11:45:00 AM 27.78 82.004 0.413 8.14 47.92 8.14
6/30/2021 12:00:00 PM 27.84 82.112 0.413 8.17 46.3 8.29
6/30/2021 12:15:00 PM 28 82.4 0.413 8.19 46 8.48
6/30/2021 12:30:00 PM 28.21 82.778 0.413 8.22 47.02 8.63
6/30/2021 12:45:00 PM 28.4 83.12 0.413 8.24 46.44 8.78
6/30/2021 1:00:00 PM 28.55 83.39 0.413 8.28 46.02 8.98
6/30/2021 1:15:00 PM 28.65 83.57 0.413 8.3 46.74 9.05
6/30/2021 1:30:00 PM 28.72 83.696 0.413 8.32 45.17 9.18
6/30/2021 1:45:00 PM 28.82 83.876 0.413 8.35 44.78 9.27
6/30/2021 2:00:00 PM 28.95 84.11 0.413 8.37 46.01 9.37
6/30/2021 2:15:00 PM 29.04 84.272 0.413 8.38 44.19 9.45
6/30/2021 2:30:00 PM 29.13 84.434 0.413 8.4 44.24 9.52
6/30/2021 2:45:00 PM 29.23 84.614 0.413 8.42 44.94 9.64
6/30/2021 3:00:00 PM 29.27 84.686 0.414 8.42 44.76 9.69
6/30/2021 3:15:00 PM 29.33 84.794 0.414 8.44 44.99 9.77
6/30/2021 3:30:00 PM 29.42 84.956 0.414 8.46 45.29 9.79
6/30/2021 3:45:00 PM 29.5 85.1 0.414 8.46 45.21 9.88
6/30/2021 4:00:00 PM 29.48 85.064 0.414 8.47 45.86 9.86
6/30/2021 4:15:00 PM 29.4 84.92 0.414 8.48 44.73 9.84
6/30/2021 4:30:00 PM 29.35 84.83 0.414 8.49 45.36 9.86
6/30/2021 4:45:00 PM 29.3 84.74 0.414 8.49 44.74 9.81
6/30/2021 5:00:00 PM 29.27 84.686 0.415 8.5 45.4 9.83
6/30/2021 5:15:00 PM 29.26 84.668 0.415 8.5 45.36 9.84
6/30/2021 5:30:00 PM 29.19 84.542 0.415 8.5 44.96 9.77
6/30/2021 5:45:00 PM 29.1 84.38 0.415 8.49 45.4 9.71
6/30/2021 6:00:00 PM 29.02 84.236 0.415 8.49 44.56 9.65
6/30/2021 6:15:00 PM 28.95 84.11 0.415 8.48 45.99 9.58
6/30/2021 6:30:00 PM 28.89 84.002 0.416 8.47 45.62 9.48
6/30/2021 6:45:00 PM 28.83 83.894 0.416 8.47 45.83 9.4
6/30/2021 7:00:00 PM 28.78 83.804 0.416 8.46 45.28 9.33
6/30/2021 7:15:00 PM 28.72 83.696 0.416 8.45 44.77 9.2
6/30/2021 7:30:00 PM 28.66 83.588 0.416 8.43 45.45 9.09
6/30/2021 7:45:00 PM 28.61 83.498 0.417 8.43 45.45 9.01
6/30/2021 8:00:00 PM 28.55 83.39 0.417 8.41 44.83 8.85
6/30/2021 8:15:00 PM 28.49 83.282 0.418 8.39 47.08 8.72
6/30/2021 8:30:00 PM 28.42 83.156 0.418 8.37 46.32 8.62
6/30/2021 8:45:00 PM 28.35 83.03 0.418 8.35 51.17 8.48
6/30/2021 9:00:00 PM 28.29 82.922 0.419 8.34 48.49 8.4
6/30/2021 9:15:00 PM 28.23 82.814 0.419 8.32 47.41 8.33
6/30/2021 9:30:00 PM 28.17 82.706 0.419 8.31 47.82 8.21
6/30/2021 9:45:00 PM 28.11 82.598 0.42 8.29 46.91 8.09
6/30/2021 10:00:00 PM 28.06 82.508 0.42 8.27 47.43 8
6/30/2021 10:15:00 PM 28.01 82.418 0.42 8.25 47.02 7.87
6/30/2021 10:30:00 PM 27.96 82.328 0.42 8.24 47.85 7.79
6/30/2021 10:45:00 PM 27.9 82.22 0.42 8.22 46.17 7.7
6/30/2021 11:00:00 PM 27.85 82.13 0.42 8.2 46.62 7.59
6/30/2021 11:15:00 PM 27.79 82.022 0.421 8.18 45.53 7.49
6/30/2021 11:30:00 PM 27.73 81.914 0.421 8.16 46.32 7.4
6/30/2021 11:45:00 PM 27.67 81.806 0.42 8.15 45.41 7.32
7/1/2021 12:00:00 AM 27.61 81.698 0.421 8.14 46.99 7.27
7/1/2021 12:15:00 AM 27.55 81.59 0.42 8.12 46.22 7.21
7/1/2021 12:30:00 AM 27.5 81.5 0.42 8.11 48.85 7.11
7/1/2021 12:45:00 AM 27.44 81.392 0.42 8.09 46.36 7.07
7/1/2021 1:00:00 AM 27.38 81.284 0.42 8.07 51.96 6.98
7/1/2021 1:15:00 AM 27.32 81.176 0.42 8.06 48.51 6.9
7/1/2021 1:30:00 AM 27.27 81.086 0.419 8.05 48.26 6.87
7/1/2021 1:45:00 AM 27.22 80.996 0.419 8.04 49.09 6.78
7/1/2021 2:00:00 AM 27.16 80.888 0.419 8.03 48.45 6.76
7/1/2021 2:15:00 AM 27.1 80.78 0.419 8.02 50.39 6.69
7/1/2021 2:30:00 AM 27.05 80.69 0.418 8.01 47.32 6.65
7/1/2021 2:45:00 AM 26.99 80.582 0.418 7.98 47.24 6.58
7/1/2021 3:00:00 AM 26.94 80.492 0.418 7.98 45.5 6.55
7/1/2021 3:15:00 AM 26.88 80.384 0.417 7.98 45.02 6.52
7/1/2021 3:30:00 AM 26.83 80.294 0.417 7.97 44.56 6.49
7/1/2021 3:45:00 AM 26.77 80.186 0.417 7.96 44.85 6.45
7/1/2021 4:00:00 AM 26.72 80.096 0.416 7.95 44.26 6.41
7/1/2021 4:15:00 AM 26.67 80.006 0.416 7.94 44.51 6.38
7/1/2021 4:30:00 AM 26.61 79.898 0.416 7.93 44.48 6.33
7/1/2021 4:45:00 AM 26.56 79.808 0.416 7.93 44.63 6.3
7/1/2021 5:00:00 AM 26.51 79.718 0.415 7.9 45.94 6.27
7/1/2021 5:15:00 AM 26.46 79.628 0.415 7.91 44.52 6.25
7/1/2021 5:30:00 AM 26.42 79.556 0.415 7.91 45.17 6.25
7/1/2021 5:45:00 AM 26.36 79.448 0.414 7.9 44.62 6.21
7/1/2021 6:00:00 AM 26.31 79.358 0.414 7.89 43.95 6.18
7/1/2021 6:15:00 AM 26.27 79.286 0.414 7.89 44.25 6.17
7/1/2021 6:30:00 AM 26.22 79.196 0.413 7.89 44.96 6.17
7/1/2021 6:45:00 AM 26.18 79.124 0.413 7.88 44.81 6.12
7/1/2021 7:00:00 AM 26.14 79.052 0.413 7.87 43.1 6.11
7/1/2021 7:15:00 AM 26.1 78.98 0.413 7.87 42.55 6.17
7/1/2021 7:30:00 AM 26.07 78.926 0.413 7.86 43.06 6.15
7/1/2021 7:45:00 AM 26.04 78.872 0.413 7.87 42.67 6.14
7/1/2021 8:00:00 AM 26.01 78.818 0.413 7.87 42.47 6.23
7/1/2021 8:15:00 AM 26 78.8 0.413 7.87 43.33 6.23
7/1/2021 8:30:00 AM 25.98 78.764 0.413 7.87 42.09 6.24
7/1/2021 8:45:00 AM 25.96 78.728 0.413 7.88 42.27 6.32
7/1/2021 9:00:00 AM 25.95 78.71 0.413 7.89 43.28 6.4
7/1/2021 9:15:00 AM 25.95 78.71 0.413 7.88 42.45 6.48
7/1/2021 9:30:00 AM 25.95 78.71 0.413 7.9 43.97 6.56
7/1/2021 9:45:00 AM 25.94 78.692 0.414 7.9 47.8 6.64
7/1/2021 10:00:00 AM 25.94 78.692 0.414 7.9 44.42 6.72
7/1/2021 10:15:00 AM 25.94 78.692 0.414 7.92 44.32 6.74
7/1/2021 10:30:00 AM 25.96 78.728 0.414 7.94 44.49 6.92
7/1/2021 10:45:00 AM 25.98 78.764 0.414 7.95 44.65 7.02
7/1/2021 11:00:00 AM 25.97 78.746 0.414 7.96 43.79 7.11
7/1/2021 11:15:00 AM 25.95 78.71 0.414 7.97 43.98 7.18
7/1/2021 11:30:00 AM 25.96 78.728 0.414 7.99 43.8 7.3
7/1/2021 11:45:00 AM 25.97 78.746 0.415 8.01 42.99 7.45
7/1/2021 12:00:00 PM 25.99 78.782 0.414 8.02 43.8 7.58
7/1/2021 12:15:00 PM 25.99 78.782 0.414 8.03 42.64 7.64
7/1/2021 12:30:00 PM 25.98 78.764 0.414 8.03 43.43 7.7
7/1/2021 12:45:00 PM 25.96 78.728 0.414 8.06 43.47 7.77
7/1/2021 1:00:00 PM 25.93 78.674 0.413 8.07 43.68 7.84
7/1/2021 1:15:00 PM 25.89 78.602 0.412 8.09 43.88 7.9
7/1/2021 1:30:00 PM 25.88 78.584 0.412 8.1 46.12 8.04
7/1/2021 1:45:00 PM 25.87 78.566 0.412 8.11 47.87 8.1
7/1/2021 2:00:00 PM 25.85 78.53 0.412 8.12 51.07 8.19
7/1/2021 2:15:00 PM 25.83 78.494 0.411 8.14 46.39 8.24
7/1/2021 2:30:00 PM 25.85 78.53 0.41 8.14 49.21 8.3
7/1/2021 2:45:00 PM 25.88 78.584 0.41 8.16 47.18 8.42
7/1/2021 3:00:00 PM 25.9 78.62 0.409 8.17 50.91 8.49
7/1/2021 3:15:00 PM 25.95 78.71 0.409 8.2 48.94 8.62
7/1/2021 3:30:00 PM 25.98 78.764 0.408 8.21 48.34 8.71
7/1/2021 3:45:00 PM 26.03 78.854 0.408 8.24 46 8.87
7/1/2021 4:00:00 PM 26.09 78.962 0.407 8.26 50.07 8.96
7/1/2021 4:15:00 PM 26.13 79.034 0.407 8.28 50.29 9.05
7/1/2021 4:30:00 PM 26.15 79.07 0.406 8.29 47.84 9.15
7/1/2021 4:45:00 PM 26.15 79.07 0.406 8.31 51.51 9.21
7/1/2021 5:00:00 PM 26.11 78.998 0.405 8.33 51.73 9.23
7/1/2021 5:15:00 PM 26.04 78.872 0.405 8.32 51.83 9.19
7/1/2021 5:30:00 PM 26.01 78.818 0.404 8.32 54.36 9.19
7/1/2021 5:45:00 PM 25.99 78.782 0.404 8.32 52.63 9.17
7/1/2021 6:00:00 PM 25.95 78.71 0.403 8.31 50.89 9.07
7/1/2021 6:15:00 PM 25.89 78.602 0.403 8.3 54.83 9.03
7/1/2021 6:30:00 PM 25.84 78.512 0.402 8.3 51.11 8.97
7/1/2021 6:45:00 PM 25.79 78.422 0.402 8.3 48.49 8.96
7/1/2021 7:00:00 PM 25.73 78.314 0.401 8.29 47.84 8.92
7/1/2021 7:15:00 PM 25.68 78.224 0.401 8.28 51.89 8.81
7/1/2021 7:30:00 PM 25.64 78.152 0.4 8.28 49.17 8.83
7/1/2021 7:45:00 PM 25.59 78.062 0.4 8.28 48.2 8.78
7/1/2021 8:00:00 PM 25.54 77.972 0.399 8.27 48.89 8.74
7/1/2021 8:15:00 PM 25.5 77.9 0.399 8.27 47.9 8.68
7/1/2021 8:30:00 PM 25.45 77.81 0.399 8.26 48.06 8.65
7/1/2021 8:45:00 PM 25.4 77.72 0.398 8.25 49.01 8.58
7/1/2021 9:00:00 PM 25.34 77.612 0.398 8.24 48.69 8.51
7/1/2021 9:15:00 PM 25.27 77.486 0.398 8.22 49.23 8.36
7/1/2021 9:30:00 PM 25.22 77.396 0.397 8.2 48.1 8.26
7/1/2021 9:45:00 PM 25.15 77.27 0.397 8.18 47.63 8.19
7/1/2021 10:00:00 PM 25.09 77.162 0.397 8.17 48.35 8.12
7/1/2021 10:15:00 PM 25.04 77.07201 0.396 8.16 47.5 7.95
7/1/2021 10:30:00 PM 24.99 76.982 0.395 8.14 49.02 7.95
7/1/2021 10:45:00 PM 24.94 76.892 0.395 8.13 49.53 7.88
7/1/2021 11:00:00 PM 24.88 76.784 0.394 8.11 49.93 7.82
7/1/2021 11:15:00 PM 24.74 76.532 0.391 8.11 49.01 7.85
7/1/2021 11:30:00 PM 24.65 76.37 0.389 8.09 50.84 7.79
7/1/2021 11:45:00 PM 24.58 76.244 0.388 8.08 51.86 7.7
7/2/2021 12:00:00 AM 24.53 76.154 0.388 8.07 52.81 7.68
7/2/2021 12:15:00 AM 24.48 76.064 0.388 8.07 49.08 7.65
7/2/2021 12:30:00 AM 24.43 75.974 0.388 8.05 48.75 7.6
7/2/2021 12:45:00 AM 24.38 75.884 0.132 8.05 27.17 7.48
7/2/2021 1:00:00 AM 24.32 75.776 0.17 8.02 28.89 7.34
7/2/2021 1:15:00 AM 24.24 75.632 0.181 7.98 30.85 7.2
7/2/2021 1:30:00 AM 24.18 75.524 0.191 7.97 32.82 7.24
7/2/2021 1:45:00 AM 24.13 75.434 0.191 7.96 33.23 7.08
7/2/2021 2:00:00 AM 24.09 75.362 0.193 7.96 33.28 7.09
7/2/2021 2:15:00 AM 24.04 75.272 0.196 7.95 43.48 7.11
7/2/2021 2:30:00 AM 24 75.2 0.203 7.95 52.82 7.04
7/2/2021 2:45:00 AM 23.96 75.128 0.204 7.94 55.16 7.06
7/2/2021 3:00:00 AM 23.91 75.038 0.203 7.95 48.93 7.05
7/2/2021 3:15:00 AM 23.86 74.948 0.205 7.94 48.85 7.04
7/2/2021 3:30:00 AM 23.8 74.84 0.208 7.94 48.85 6.93
7/2/2021 3:45:00 AM 23.75 74.75 0.209 7.93 51.25 6.47
7/2/2021 4:00:00 AM 23.69 74.642 0.213 7.93 55.11 6.82
7/2/2021 4:15:00 AM 23.62 74.516 0.217 7.93 54.08 6.89
7/2/2021 4:30:00 AM 23.56 74.408 0.22 7.93 52.72 6.87
7/2/2021 4:45:00 AM 23.5 74.3 0.231 7.93 54.2 6.86
7/2/2021 5:00:00 AM 23.43 74.174 0.233 7.93 53.5 6.72
7/2/2021 5:15:00 AM 23.37 74.066 0.233 7.94 53.67 6.92
7/2/2021 5:30:00 AM 23.31 73.958 0.233 7.93 53.9 6.88
7/2/2021 5:45:00 AM 23.25 73.85 0.233 7.94 53.94 7.02
7/2/2021 6:00:00 AM 23.18 73.724 0.234 7.94 54.08 6.93
7/2/2021 6:15:00 AM 23.12 73.616 0.234 7.94 54.33 7.07
7/2/2021 6:30:00 AM 23.06 73.508 0.24 7.94 53.9 7.01
7/2/2021 6:45:00 AM 22.99 73.382 0.399 7.95 62.11 7.1
7/2/2021 7:00:00 AM 22.92 73.256 0.4 7.95 56.74 7.2
7/2/2021 7:15:00 AM 22.87 73.166 0.4 7.96 51.29 7.27
7/2/2021 7:30:00 AM 22.83 73.094 0.401 7.97 49.75 7.37
7/2/2021 7:45:00 AM 22.8 73.04 0.402 7.99 45.43 7.49
7/2/2021 8:00:00 AM 22.76 72.968 0.403 7.99 47.28 7.55
7/2/2021 8:15:00 AM 22.75 72.95 0.403 8.01 49.28 7.64
7/2/2021 8:30:00 AM 22.73 72.914 0.402 8.02 46.73 7.69
7/2/2021 8:45:00 AM 22.7 72.86 0.401 8.01 48.69 7.73
7/2/2021 9:00:00 AM 22.68 72.824 0.399 8.02 47.66 7.78
7/2/2021 9:15:00 AM 22.67 72.806 0.397 8.03 49.84 7.82
7/2/2021 9:30:00 AM 22.68 72.824 0.394 8.03 48.62 7.87
7/2/2021 9:45:00 AM 22.67 72.806 0.392 8.03 52.56 7.88
7/2/2021 10:00:00 AM 22.7 72.86 0.39 8.04 50.23 7.95
7/2/2021 10:15:00 AM 22.72 72.896 0.389 8.05 51.17 8
7/2/2021 10:30:00 AM 22.74 72.932 0.388 8.06 48.08 8.06
7/2/2021 10:45:00 AM 22.76 72.968 0.388 8.07 49.97 8.12
7/2/2021 11:00:00 AM 22.79 73.022 0.387 8.08 45.16 8.19
7/2/2021 11:15:00 AM 22.83 73.094 0.386 8.1 43.98 8.25
7/2/2021 11:30:00 AM 22.86 73.148 0.386 8.11 47.44 8.33
7/2/2021 11:45:00 AM 22.91 73.238 0.384 8.12 56.6 8.42
7/2/2021 12:00:00 PM 22.92 73.256 0.383 8.13 47.47 8.47
7/2/2021 12:15:00 PM 22.91 73.238 0.381 8.14 40.06 8.49
7/2/2021 12:30:00 PM 22.95 73.31 0.379 8.15 52.56 8.56
7/2/2021 12:45:00 PM 22.95 73.31 0.375 8.15 39.63 8.54
7/2/2021 1:00:00 PM 23 73.4 0.372 8.15 43.11 8.62
7/2/2021 1:15:00 PM 23.09 73.562 0.367 8.16 44.87 8.7
7/2/2021 1:30:00 PM 23.21 73.778 0.362 8.17 45.78 8.77
7/2/2021 1:45:00 PM 23.39 74.102 0.357 8.19 43.67 8.85
7/2/2021 2:00:00 PM 23.47 74.246 0.351 8.19 43.85 8.89
7/2/2021 2:15:00 PM 23.59 74.462 0.345 8.2 45.09 8.96
7/2/2021 2:30:00 PM 23.64 74.552 0.339 8.19 44.95 8.99
7/2/2021 2:45:00 PM 23.68 74.624 0.332 8.2 45.42 9.01
7/2/2021 3:00:00 PM 23.66 74.588 0.326 8.2 47.54 9.02
7/2/2021 3:15:00 PM 23.7 74.66 0.319 8.2 47.81 9
7/2/2021 3:30:00 PM 23.75 74.75 0.312 8.2 48.37 9
7/2/2021 3:45:00 PM 23.75 74.75 0.306 8.2 50.43 9
7/2/2021 4:00:00 PM 23.69 74.642 0.3 8.18 53.76 8.96
7/2/2021 4:15:00 PM 23.6 74.48 0.293 8.15 50.74 8.88
7/2/2021 4:30:00 PM 23.48 74.264 0.287 8.14 51.88 8.81
7/2/2021 4:45:00 PM 23.37 74.066 0.282 8.11 56.32 8.72
7/2/2021 5:00:00 PM 23.28 73.904 0.276 8.09 55.93 8.67
7/2/2021 5:15:00 PM 23.2 73.76 0.271 8.07 56.49 8.6
7/2/2021 5:30:00 PM 23.14 73.652 0.267 8.05 56.39 8.54
7/2/2021 5:45:00 PM 23.04 73.472 0.262 8.02 55.99 8.53
7/2/2021 6:00:00 PM 22.92 73.256 0.257 8.02 57.04 8.49
7/2/2021 6:15:00 PM 22.79 73.022 0.253 8 57.49 8.44
7/2/2021 6:30:00 PM 22.65 72.77 0.249 7.99 57.4 8.44
7/2/2021 6:45:00 PM 22.54 72.57201 0.245 7.96 57.7 8.42
7/2/2021 7:00:00 PM 22.42 72.356 0.242 7.96 56.56 8.4
7/2/2021 7:15:00 PM 22.33 72.194 0.239 7.95 58.55 8.39
7/2/2021 7:30:00 PM 22.25 72.05 0.237 7.93 57.27 8.36
7/2/2021 7:45:00 PM 22.15 71.87 0.234 7.92 58.89 8.35
7/2/2021 8:00:00 PM 22.06 71.708 0.233 7.91 59.3 8.34
7/2/2021 8:15:00 PM 21.96 71.528 0.231 7.88 61.73 8.34
7/2/2021 8:30:00 PM 21.88 71.384 0.231 7.89 56.94 8.33
7/2/2021 8:45:00 PM 21.81 71.258 0.23 7.87 58.76 8.31
7/2/2021 9:00:00 PM 21.75 71.15 0.23 7.87 62.62 8.32
7/2/2021 9:15:00 PM 21.7 71.06 0.231 7.87 59.97 8.32
7/2/2021 9:30:00 PM 21.67 71.006 0.231 7.87 58.14 8.31
7/2/2021 9:45:00 PM 21.64 70.952 0.232 7.87 59.78 8.32
7/2/2021 10:00:00 PM 21.62 70.916 0.233 7.88 58.18 8.32
7/2/2021 10:15:00 PM 21.6 70.88 0.234 7.88 56.55 8.33
7/2/2021 10:30:00 PM 21.57 70.826 0.234 7.88 56.7 8.34
7/2/2021 10:45:00 PM 21.55 70.79 0.235 7.88 54.64 8.33
7/2/2021 11:00:00 PM 21.53 70.754 0.236 7.89 57 8.36
7/2/2021 11:15:00 PM 21.52 70.736 0.237 7.89 53.55 8.35
7/2/2021 11:30:00 PM 21.51 70.718 0.239 7.89 54.95 8.35
7/2/2021 11:45:00 PM 21.49 70.682 0.24 7.89 53.87 8.37
7/3/2021 12:00:00 AM 21.48 70.664 0.241 7.89 56.98 8.36
7/3/2021 12:15:00 AM 21.47 70.646 0.242 7.9 52.5 8.37
7/3/2021 12:30:00 AM 21.45 70.61 0.244 7.9 57.22 8.36
7/3/2021 12:45:00 AM 21.43 70.574 0.245 7.9 55.07 8.36
7/3/2021 1:00:00 AM 21.42 70.556 0.245 7.9 51.43 8.33
7/3/2021 1:15:00 AM 21.42 70.556 0.246 7.9 52.72 8.34
7/3/2021 1:30:00 AM 21.41 70.538 0.247 7.9 51.19 8.33
7/3/2021 1:45:00 AM 21.41 70.538 0.247 7.91 50.72 8.33
7/3/2021 2:00:00 AM 21.41 70.538 0.247 7.91 53.22 8.32
7/3/2021 2:15:00 AM 21.41 70.538 0.247 7.91 51.75 8.33
7/3/2021 2:30:00 AM 21.42 70.556 0.247 7.91 51.72 8.32
7/3/2021 2:45:00 AM 21.44 70.592 0.247 7.91 50.81 8.32
7/3/2021 3:00:00 AM 21.44 70.592 0.247 7.91 58.26 8.3
7/3/2021 3:15:00 AM 21.44 70.592 0.247 7.9 52.46 8.28
7/3/2021 3:30:00 AM 21.42 70.556 0.246 7.9 57.24 8.28
7/3/2021 3:45:00 AM 21.4 70.52 0.246 7.89 57.44 8.26
7/3/2021 4:00:00 AM 21.37 70.466 0.244 7.89 56.97 8.25
7/3/2021 4:15:00 AM 21.34 70.412 0.243 7.88 68.98 8.24
7/3/2021 4:30:00 AM 21.32 70.376 0.242 7.88 77.35 8.24
7/3/2021 4:45:00 AM 21.29 70.32201 0.24 7.87 96.24 8.23
7/3/2021 5:00:00 AM 21.26 70.268 0.238 7.86 81.33 8.21
7/3/2021 5:15:00 AM 21.23 70.214 0.236 7.85 77.84 8.2
7/3/2021 5:30:00 AM 21.21 70.17799 0.235 7.85 77.43 8.2
7/3/2021 5:45:00 AM 21.18 70.124 0.235 7.83 89.62 8.18
7/3/2021 6:00:00 AM 21.16 70.088 0.234 7.84 72.29 8.17
7/3/2021 6:15:00 AM 21.13 70.034 0.234 7.84 83.97 8.16
7/3/2021 6:30:00 AM 21.1 69.98 0.234 7.84 74.83 8.15
7/3/2021 6:45:00 AM 21.07 69.926 0.234 7.82 68.55 8.14
7/3/2021 7:00:00 AM 21.04 69.872 0.234 7.84 64 8.13
7/3/2021 7:15:00 AM 21 69.8 0.235 7.83 56.96 8.12
7/3/2021 7:30:00 AM 20.95 69.71 0.235 7.84 53.88 8.13
7/3/2021 7:45:00 AM 20.9 69.62 0.235 7.83 51.07 8.12
7/3/2021 8:00:00 AM 20.83 69.494 0.235 7.83 56.24 8.15
7/3/2021 8:15:00 AM 20.76 69.368 0.235 7.83 61.83 8.16
7/3/2021 8:30:00 AM 20.68 69.224 0.234 7.83 51.57 8.17
7/3/2021 8:45:00 AM 20.61 69.098 0.234 7.82 60.37 8.19
7/3/2021 9:00:00 AM 20.51 68.918 0.232 7.82 56.8 8.21
7/3/2021 9:15:00 AM 20.41 68.738 0.231 7.82 66.92 8.24
7/3/2021 9:30:00 AM 20.33 68.594 0.23 7.81 89.28 8.25
7/3/2021 9:45:00 AM 20.25 68.45 0.229 7.8 96.82 8.26
7/3/2021 10:00:00 AM 20.14 68.252 0.228 7.79 89.85 8.27
7/3/2021 10:15:00 AM 20.09 68.162 0.227 7.78 86.24 8.28
7/3/2021 10:30:00 AM 20.07 68.126 0.226 7.75 114.35 8.28
7/3/2021 10:45:00 AM 20.01 68.018 0.225 7.75 113.51 8.27
7/3/2021 11:00:00 AM 19.97 67.946 0.223 7.74 148.71 8.26
7/3/2021 11:15:00 AM 19.93 67.874 0.221 7.73 673.83 8.27
7/3/2021 11:30:00 AM 19.89 67.802 0.219 7.71 148.65 8.27
7/3/2021 11:45:00 AM 19.84 67.712 0.217 7.72 200.04 8.29
7/3/2021 12:00:00 PM 19.86 67.748 0.217 7.72 224.37 8.28
7/3/2021 12:15:00 PM 19.87 67.766 0.216 7.72 231.11 8.28
7/3/2021 12:30:00 PM 19.86 67.748 0.216 7.72 235.49 8.31
7/3/2021 12:45:00 PM 19.85 67.73 0.216 7.72 212.76 8.31
7/3/2021 1:00:00 PM 19.88 67.784 0.216 7.72 253.08 8.32
7/3/2021 1:15:00 PM 19.92 67.856 0.217 7.72 195.86 8.33
7/3/2021 1:30:00 PM 20.01 68.018 0.217 7.69 175.73 8.34
7/3/2021 1:45:00 PM 20.09 68.162 0.219 7.72 177.26 8.36
7/3/2021 2:00:00 PM 20.17 68.306 0.22 7.73 166.11 8.34
7/3/2021 2:15:00 PM 20.2 68.36 0.221 7.74 143.86 8.35
7/3/2021 2:30:00 PM 20.23 68.414 0.222 7.71 153.94 8.36
7/3/2021 2:45:00 PM 20.26 68.468 0.224 7.75 129.43 8.39
7/3/2021 3:00:00 PM 20.34 68.612 0.225 7.76 142.16 8.4
7/3/2021 3:15:00 PM 20.41 68.738 0.227 7.77 110.61 8.42
7/3/2021 3:30:00 PM 20.49 68.882 0.228 7.77 108.81 8.45
7/3/2021 3:45:00 PM 20.55 68.99 0.23 7.79 84.45 8.48
7/3/2021 4:00:00 PM 20.58 69.044 0.231 7.8 101.27 8.51
7/3/2021 4:15:00 PM 20.65 69.17 0.233 7.81 83.65 8.55
7/3/2021 4:30:00 PM 20.71 69.278 0.234 7.82 69.22 8.56
7/3/2021 4:45:00 PM 20.76 69.368 0.235 7.83 80.78 8.6
7/3/2021 5:00:00 PM 20.78 69.404 0.236 7.84 70.89 8.64
7/3/2021 5:15:00 PM 20.74 69.332 0.236 7.85 69.62 8.66
7/3/2021 5:30:00 PM 20.73 69.314 0.236 7.86 63.78 8.69
7/3/2021 5:45:00 PM 20.74 69.332 0.236 7.86 60.86 8.7
7/3/2021 6:00:00 PM 20.76 69.368 0.237 7.84 16.24 8.7
7/3/2021 6:15:00 PM 20.77 69.386 0.235 7.85 26.53 8.7
7/3/2021 6:30:00 PM 20.78 69.404 0.222 7.86 6.17 8.74
7/3/2021 6:45:00 PM 20.78 69.404 0.153 7.88 119.19 8.72
7/3/2021 7:00:00 PM 20.76 69.368 0.196 7.89 4.79 8.77
7/3/2021 7:15:00 PM 20.72 69.296 0.226 7.89 2.1 8.76
7/3/2021 7:30:00 PM 20.68 69.224 0.226 7.89 2.89 8.77
7/3/2021 7:45:00 PM 20.63 69.134 0.226 7.89 3.77 8.79
7/3/2021 8:00:00 PM 20.59 69.062 0.23 7.89 10.9 8.78
7/3/2021 8:15:00 PM 20.57 69.026 0.231 7.9 61.27 8.8
7/3/2021 8:30:00 PM 20.56 69.008 0.238 7.89 161.89 8.8
7/3/2021 8:45:00 PM 20.56 69.008 0.237 7.9 229.4 8.81
7/3/2021 9:00:00 PM 20.56 69.008 0.236 7.9 276.68 8.81
7/3/2021 9:15:00 PM 20.56 69.008 0.236 7.89 389.47 8.8
7/3/2021 9:30:00 PM 20.54 68.972 0.233 7.89 443.77 8.78
7/3/2021 9:45:00 PM 20.52 68.936 0.232 7.89 409.89 8.77
7/3/2021 10:00:00 PM 20.49 68.882 0.2 7.88 71.59 8.75
7/3/2021 10:15:00 PM 20.46 68.828 0.129 7.87 65.64 8.73
7/3/2021 10:30:00 PM 20.43 68.774 0.231 7.83 64.81 8.71
7/3/2021 10:45:00 PM 20.39 68.702 0.231 7.86 50.89 8.7
7/3/2021 11:00:00 PM 20.36 68.648 0.23 7.86 45.47 8.69
7/3/2021 11:15:00 PM 20.34 68.612 0.229 7.85 44.9 8.69
7/3/2021 11:30:00 PM 20.31 68.558 0.228 7.86 61.05 8.69
7/3/2021 11:45:00 PM 20.27 68.486 0.228 7.86 62.23 8.68
7/4/2021 12:00:00 AM 20.24 68.432 0.228 7.85 58.83 8.67
7/4/2021 12:15:00 AM 20.2 68.36 0.227 7.83 158.59 8.65
7/4/2021 12:30:00 AM 20.16 68.288 0.227 7.85 53 8.64
7/4/2021 12:45:00 AM 20.13 68.234 0.228 7.85 300.97 8.64
7/4/2021 1:00:00 AM 20.1 68.18 0.228 7.85 53.49 8.63
7/4/2021 1:15:00 AM 20.08 68.144 0.229 7.85 56.93 8.61
7/4/2021 1:30:00 AM 20.07 68.126 0.229 7.84 47.49 8.6
7/4/2021 1:45:00 AM 20.05 68.09 0.231 7.83 44.44 8.59
7/4/2021 2:00:00 AM 20.04 68.07201 0.232 7.85 53.91 8.57
7/4/2021 2:15:00 AM 20.03 68.054 0.233 7.83 48.7 8.56
7/4/2021 2:30:00 AM 20.02 68.036 0.235 7.85 54.45 8.55
7/4/2021 2:45:00 AM 20.01 68.018 0.236 7.85 56.97 8.54
7/4/2021 3:00:00 AM 20 68 0.238 7.84 44.61 8.54
7/4/2021 3:15:00 AM 19.99 67.982 0.239 7.84 43.46 8.53
7/4/2021 3:30:00 AM 19.97 67.946 0.241 7.86 47.89 8.53
7/4/2021 3:45:00 AM 19.95 67.91 0.242 7.86 45.72 8.52
7/4/2021 4:00:00 AM 19.94 67.892 0.244 7.85 43.46 8.52
7/4/2021 4:15:00 AM 19.92 67.856 0.246 7.86 43.09 8.51
7/4/2021 4:30:00 AM 19.91 67.838 0.247 7.84 38.09 8.51
7/4/2021 4:45:00 AM 19.89 67.802 0.249 7.85 56.1 8.5
7/4/2021 5:00:00 AM 19.87 67.766 0.251 7.86 41.41 8.49
7/4/2021 5:15:00 AM 19.85 67.73 0.253 7.86 41.25 8.5
7/4/2021 5:30:00 AM 19.84 67.712 0.254 7.87 40.01 8.5
7/4/2021 5:45:00 AM 19.82 67.676 0.256 7.86 39.57 8.48
7/4/2021 6:00:00 AM 19.81 67.658 0.257 7.87 40.54 8.48
7/4/2021 6:15:00 AM 19.79 67.622 0.259 7.87 37.99 8.47
7/4/2021 6:30:00 AM 19.79 67.622 0.26 7.87 37.73 8.47
7/4/2021 6:45:00 AM 19.78 67.604 0.261 7.88 40.9 8.46
7/4/2021 7:00:00 AM 19.78 67.604 0.263 7.88 37.54 8.46
7/4/2021 7:15:00 AM 19.78 67.604 0.264 7.88 37.07 8.46
7/4/2021 7:30:00 AM 19.78 67.604 0.266 7.87 33.12 8.47
7/4/2021 7:45:00 AM 19.79 67.622 0.267 7.88 32.75 8.47
7/4/2021 8:00:00 AM 19.82 67.676 0.269 7.88 31.83 8.49
7/4/2021 8:15:00 AM 19.84 67.712 0.27 7.9 30.57 8.51
7/4/2021 8:30:00 AM 19.89 67.802 0.271 7.91 29.05 8.52
7/4/2021 8:45:00 AM 19.96 67.92799 0.272 7.91 27.68 8.56
7/4/2021 9:00:00 AM 20.03 68.054 0.273 7.92 30.04 8.61
7/4/2021 9:15:00 AM 20.06 68.108 0.274 7.93 26.52 8.63
7/4/2021 9:30:00 AM 20.14 68.252 0.275 7.93 24.71 8.68
7/4/2021 9:45:00 AM 20.22 68.396 0.276 7.95 25.54 8.73
7/4/2021 10:00:00 AM 20.3 68.54 0.277 7.96 25.26 8.77
7/4/2021 10:15:00 AM 20.42 68.756 0.277 7.97 23.94 8.84
7/4/2021 10:30:00 AM 20.51 68.918 0.278 7.99 56.69 8.92
7/4/2021 10:45:00 AM 20.55 68.99 0.279 8 23.13 8.93
7/4/2021 11:00:00 AM 20.62 69.116 0.279 8 24.6 8.97
7/4/2021 11:15:00 AM 20.68 69.224 0.279 8.01 22.86 9.01
7/4/2021 11:30:00 AM 20.71 69.278 0.279 8.02 22.62 9.04
7/4/2021 11:45:00 AM 20.79 69.422 0.279 8.03 22.26 9.07
7/4/2021 12:00:00 PM 20.91 69.638 0.279 8.04 22.23 9.14
7/4/2021 12:15:00 PM 21.03 69.854 0.279 8.05 21.64 9.2
7/4/2021 12:30:00 PM 21.15 70.07 0.279 8.07 21.03 9.26
7/4/2021 12:45:00 PM 21.26 70.268 0.278 8.09 21.01 9.32
7/4/2021 1:00:00 PM 21.39 70.502 0.278 8.09 20.95 9.38
7/4/2021 1:15:00 PM 21.44 70.592 0.277 8.11 21.66 9.4
7/4/2021 1:30:00 PM 21.57 70.826 0.277 8.12 21.92 9.43
7/4/2021 1:45:00 PM 21.66 70.988 0.276 8.12 21.72 9.47
7/4/2021 2:00:00 PM 21.74 71.132 0.275 8.13 22.66 9.49
7/4/2021 2:15:00 PM 21.86 71.348 0.274 8.14 22.78 9.52
7/4/2021 2:30:00 PM 21.97 71.546 0.274 8.16 23.2 9.57
7/4/2021 2:45:00 PM 22.01 71.618 0.273 8.17 23.79 9.59
7/4/2021 3:00:00 PM 22.03 71.654 0.273 8.17 23.99 9.59
7/4/2021 3:15:00 PM 22.03 71.654 0.272 8.17 24.19 9.57
7/4/2021 3:30:00 PM 22.08 71.744 0.272 8.18 24.62 9.57
7/4/2021 3:45:00 PM 22.13 71.834 0.272 8.17 24.47 9.62
7/4/2021 4:00:00 PM 22.18 71.924 0.272 8.19 24.52 9.62
7/4/2021 4:15:00 PM 22.19 71.942 0.273 8.2 24.52 9.65
7/4/2021 4:30:00 PM 22.23 72.014 0.273 8.21 25.52 9.66
7/4/2021 4:45:00 PM 22.2 71.96 0.274 8.2 23.68 9.65
7/4/2021 5:00:00 PM 22.2 71.96 0.274 8.2 25.39 9.63
7/4/2021 5:15:00 PM 22.21 71.978 0.275 8.21 24.02 9.66
7/4/2021 5:30:00 PM 22.24 72.032 0.276 8.22 24.03 9.67
7/4/2021 5:45:00 PM 22.29 72.122 0.276 8.22 24.18 9.69
7/4/2021 6:00:00 PM 22.31 72.158 0.277 8.23 23.59 9.71
7/4/2021 6:15:00 PM 22.34 72.212 0.278 8.24 27.91 9.72
7/4/2021 6:30:00 PM 22.35 72.23 0.278 8.21 29.15 9.69
7/4/2021 6:45:00 PM 22.35 72.23 0.279 8.24 23.32 9.72
7/4/2021 7:00:00 PM 22.35 72.23 0.28 8.26 22.44 9.69
7/4/2021 7:15:00 PM 22.34 72.212 0.28 8.25 21.85 9.65
7/4/2021 7:30:00 PM 22.31 72.158 0.281 8.24 24.19 9.62
7/4/2021 7:45:00 PM 22.28 72.104 0.281 8.23 23.28 9.57
7/4/2021 8:00:00 PM 22.25 72.05 0.282 8.22 24.38 9.51
7/4/2021 8:15:00 PM 22.21 71.978 0.282 8.22 23.37 9.48
7/4/2021 8:30:00 PM 22.18 71.924 0.282 8.21 23.16 9.42
7/4/2021 8:45:00 PM 22.14 71.852 0.282 8.2 23.45 9.38
7/4/2021 9:00:00 PM 22.11 71.798 0.282 8.18 22.88 9.32
7/4/2021 9:15:00 PM 22.08 71.744 0.282 8.18 24.7 9.27
7/4/2021 9:30:00 PM 22.04 71.672 0.282 8.15 23.98 9.22
7/4/2021 9:45:00 PM 22.01 71.618 0.282 8.16 24.02 9.16
7/4/2021 10:00:00 PM 21.97 71.546 0.282 8.13 24.53 9.1
7/4/2021 10:15:00 PM 21.93 71.474 0.282 8.13 25.25 9.06
7/4/2021 10:30:00 PM 21.89 71.402 0.281 8.1 24.52 8.99
7/4/2021 10:45:00 PM 21.84 71.312 0.281 8.1 24.99 8.93
7/4/2021 11:00:00 PM 21.8 71.24 0.28 8.09 24.97 8.88
7/4/2021 11:15:00 PM 21.76 71.168 0.28 8.08 23.56 8.82
7/4/2021 11:30:00 PM 21.72 71.096 0.279 8.06 24.98 8.78
7/4/2021 11:45:00 PM 21.69 71.042 0.278 8.06 26.08 8.73
7/5/2021 12:00:00 AM 21.65 70.97 0.278 8.03 25.69 8.7
7/5/2021 12:15:00 AM 21.62 70.916 0.277 8.04 27.45 8.66
7/5/2021 12:30:00 AM 21.58 70.844 0.277 8.03 26.31 8.63
7/5/2021 12:45:00 AM 21.55 70.79 0.276 8.02 27.04 8.59
7/5/2021 1:00:00 AM 21.51 70.718 0.275 8.01 27.61 8.56
7/5/2021 1:15:00 AM 21.48 70.664 0.275 8 28.01 8.54
7/5/2021 1:30:00 AM 21.44 70.592 0.274 7.99 26.39 8.5
7/5/2021 1:45:00 AM 21.39 70.502 0.273 7.99 28.73 8.48
7/5/2021 2:00:00 AM 21.35 70.43 0.273 7.98 28.04 8.46
7/5/2021 2:15:00 AM 21.31 70.358 0.272 7.98 27.79 8.43
7/5/2021 2:30:00 AM 21.26 70.268 0.271 7.95 27.69 8.4
7/5/2021 2:45:00 AM 21.22 70.196 0.271 7.95 28.49 8.38
7/5/2021 3:00:00 AM 21.17 70.106 0.27 7.95 28.96 8.36
7/5/2021 3:15:00 AM 21.13 70.034 0.27 7.93 27.48 8.34
7/5/2021 3:30:00 AM 21.1 69.98 0.269 7.94 29.68 8.32
7/5/2021 3:45:00 AM 21.07 69.926 0.269 7.92 28.99 8.3
7/5/2021 4:00:00 AM 21.04 69.872 0.268 7.92 27.74 8.28
7/5/2021 4:15:00 AM 21.01 69.818 0.268 7.92 29.36 8.25
7/5/2021 4:30:00 AM 20.98 69.764 0.268 7.91 30.59 8.24
7/5/2021 4:45:00 AM 20.97 69.746 0.267 7.91 31.87 8.23
7/5/2021 5:00:00 AM 20.94 69.692 0.267 7.91 29.94 8.22
7/5/2021 5:15:00 AM 20.92 69.656 0.267 7.9 40.53 8.2
7/5/2021 5:30:00 AM 20.9 69.62 0.267 7.89 29.64 8.18
7/5/2021 5:45:00 AM 20.89 69.602 0.267 7.9 32.79 8.17
7/5/2021 6:00:00 AM 20.88 69.584 0.267 7.89 31.52 8.16
7/5/2021 6:15:00 AM 20.87 69.566 0.267 7.89 29.64 8.15
7/5/2021 6:30:00 AM 20.87 69.566 0.267 7.87 29.74 8.14
7/5/2021 6:45:00 AM 20.87 69.566 0.267 7.88 28.31 8.13
7/5/2021 7:00:00 AM 20.89 69.602 0.267 7.89 31.07 8.16
7/5/2021 7:15:00 AM 20.91 69.638 0.267 7.89 28.28 8.16
7/5/2021 7:30:00 AM 20.92 69.656 0.267 7.9 28.57 8.19
7/5/2021 7:45:00 AM 20.94 69.692 0.267 7.9 28.54 8.21
7/5/2021 8:00:00 AM 20.97 69.746 0.267 7.91 26.4 8.25
7/5/2021 8:15:00 AM 21 69.8 0.267 7.91 27.35 8.29
7/5/2021 8:30:00 AM 21.05 69.89 0.267 7.92 27.77 8.32
7/5/2021 8:45:00 AM 21.1 69.98 0.266 7.91 27.17 8.38
7/5/2021 9:00:00 AM 21.16 70.088 0.266 7.93 26.7 8.43
7/5/2021 9:15:00 AM 21.23 70.214 0.266 7.93 25.66 8.49
7/5/2021 9:30:00 AM 21.31 70.358 0.266 7.95 26.24 8.57
7/5/2021 9:45:00 AM 21.39 70.502 0.266 7.96 25.66 8.62
7/5/2021 10:00:00 AM 21.5 70.7 0.266 7.99 25.42 8.7
7/5/2021 10:15:00 AM 21.6 70.88 0.266 7.98 25.28 8.78
7/5/2021 10:30:00 AM 21.72 71.096 0.266 8.02 24.87 8.85
7/5/2021 10:45:00 AM 21.84 71.312 0.266 8.02 24.64 8.94
7/5/2021 11:00:00 AM 21.98 71.564 0.266 8.05 24.64 9.04
7/5/2021 11:15:00 AM 22.11 71.798 0.266 8.07 23.49 9.12
7/5/2021 11:30:00 AM 22.24 72.032 0.266 8.1 22.64 9.2
7/5/2021 11:45:00 AM 22.36 72.248 0.266 8.12 22.77 9.27
7/5/2021 12:00:00 PM 22.5 72.5 0.266 8.14 22.68 9.36
7/5/2021 12:15:00 PM 22.63 72.734 0.266 8.15 27.66 9.45
7/5/2021 12:30:00 PM 22.75 72.95 0.267 8.18 22.92 9.5
7/5/2021 12:45:00 PM 22.86 73.148 0.267 8.2 22.97 9.56
7/5/2021 1:00:00 PM 22.98 73.364 0.267 8.22 22.52 9.64
7/5/2021 1:15:00 PM 23.08 73.544 0.267 8.25 22.39 9.72
7/5/2021 1:30:00 PM 23.2 73.76 0.268 8.27 21.75 9.77
7/5/2021 1:45:00 PM 23.32 73.976 0.268 8.29 22.19 9.81
7/5/2021 2:00:00 PM 23.43 74.174 0.268 8.31 22.15 9.9
7/5/2021 2:15:00 PM 23.53 74.354 0.269 8.34 22.12 9.98
7/5/2021 2:30:00 PM 23.63 74.534 0.269 8.35 21.61 10.03
7/5/2021 2:45:00 PM 23.72 74.696 0.269 8.35 21.83 10.04
7/5/2021 3:00:00 PM 23.8 74.84 0.269 8.39 21.19 10.12
7/5/2021 3:15:00 PM 23.87 74.966 0.27 8.4 21.71 10.16
7/5/2021 3:30:00 PM 23.94 75.092 0.27 8.41 21.59 10.19
7/5/2021 3:45:00 PM 24.01 75.218 0.27 8.43 21.93 10.21
7/5/2021 4:00:00 PM 24.08 75.344 0.271 8.44 21.34 10.23
7/5/2021 4:15:00 PM 24.14 75.452 0.271 8.45 21.66 10.24
7/5/2021 4:30:00 PM 24.21 75.578 0.272 8.46 21.1 10.27
7/5/2021 4:45:00 PM 24.25 75.65 0.272 8.47 23.17 10.3
7/5/2021 5:00:00 PM 24.29 75.722 0.272 8.48 19.13 10.29
7/5/2021 5:15:00 PM 24.33 75.794 0.273 8.49 20.5 10.29
7/5/2021 5:30:00 PM 24.36 75.848 0.273 8.49 20.42 10.26
7/5/2021 5:45:00 PM 24.37 75.866 0.273 8.49 23.07 10.26
7/5/2021 6:00:00 PM 24.39 75.902 0.274 8.49 19.98 10.26
7/5/2021 6:15:00 PM 24.39 75.902 0.274 8.5 20.93 10.21
7/5/2021 6:30:00 PM 24.38 75.884 0.274 8.49 20.8 10.16
7/5/2021 6:45:00 PM 24.37 75.866 0.275 8.49 21.42 10.12
7/5/2021 7:00:00 PM 24.36 75.848 0.275 8.48 21.16 10.07
7/5/2021 7:15:00 PM 24.34 75.812 0.275 8.46 20.81 10.01
7/5/2021 7:30:00 PM 24.33 75.794 0.275 8.46 20.32 9.94
7/5/2021 7:45:00 PM 24.3 75.74 0.276 8.45 20.42 9.87
7/5/2021 8:00:00 PM 24.27 75.686 0.276 8.43 21.06 9.79
7/5/2021 8:15:00 PM 24.25 75.65 0.276 8.41 20.64 9.72
7/5/2021 8:30:00 PM 24.21 75.578 0.277 8.4 20.78 9.61
7/5/2021 8:45:00 PM 24.18 75.524 0.277 8.38 21.1 9.54
7/5/2021 9:00:00 PM 24.15 75.47 0.277 8.36 22.81 9.45
7/5/2021 9:15:00 PM 24.11 75.398 0.278 8.34 22.24 9.35
7/5/2021 9:30:00 PM 24.08 75.344 0.278 8.32 26.3 9.27
7/5/2021 9:45:00 PM 24.04 75.272 0.278 8.3 26.48 9.18
7/5/2021 10:00:00 PM 24 75.2 0.279 8.28 23.28 9.11
7/5/2021 10:15:00 PM 23.96 75.128 0.279 8.25 22.06 9.04
7/5/2021 10:30:00 PM 23.92 75.056 0.279 8.24 25.84 8.93
7/5/2021 10:45:00 PM 23.88 74.984 0.279 8.21 25.04 8.89
7/5/2021 11:00:00 PM 23.84 74.912 0.28 8.21 25.63 8.82
7/5/2021 11:15:00 PM 23.79 74.82201 0.28 8.17 22.62 8.76
7/5/2021 11:30:00 PM 23.76 74.768 0.28 8.17 24.77 8.67
7/5/2021 11:45:00 PM 23.72 74.696 0.28 8.16 22.87 8.63
7/6/2021 12:00:00 AM 23.68 74.624 0.281 8.14 22.97 8.57
7/6/2021 12:15:00 AM 23.64 74.552 0.281 8.12 23.07 8.51
7/6/2021 12:30:00 AM 23.61 74.498 0.281 8.12 22.2 8.48
7/6/2021 12:45:00 AM 23.58 74.444 0.281 8.1 22.5 8.43
7/6/2021 1:00:00 AM 23.54 74.372 0.281 8.09 21.96 8.38
7/6/2021 1:15:00 AM 23.51 74.318 0.282 8.07 22.59 8.32
7/6/2021 1:30:00 AM 23.49 74.282 0.282 8.05 22.08 8.29
7/6/2021 1:45:00 AM 23.46 74.228 0.282 8.05 24.88 8.23
7/6/2021 2:00:00 AM 23.43 74.174 0.282 8.02 22.86 8.2
7/6/2021 2:15:00 AM 23.4 74.12 0.282 8.02 20.02 8.17
7/6/2021 2:30:00 AM 23.38 74.084 0.282 8.02 21.24 8.14
7/6/2021 2:45:00 AM 23.35 74.03 0.282 8.02 23.86 8.1
7/6/2021 3:00:00 AM 23.32 73.976 0.283 8.01 23.17 8.06
7/6/2021 3:15:00 AM 23.3 73.94 0.283 7.99 23.3 8.02
7/6/2021 3:30:00 AM 23.27 73.886 0.283 7.98 22.81 7.97
7/6/2021 3:45:00 AM 23.25 73.85 0.283 7.98 22.79 7.97
7/6/2021 4:00:00 AM 23.22 73.796 0.283 7.97 23.89 7.92
7/6/2021 4:15:00 AM 23.21 73.778 0.283 7.95 24.24 7.9
7/6/2021 4:30:00 AM 23.18 73.724 0.283 7.95 24.58 7.87
7/6/2021 4:45:00 AM 23.16 73.688 0.283 7.94 25.13 7.84
7/6/2021 5:00:00 AM 23.14 73.652 0.283 7.94 23.43 7.8
7/6/2021 5:15:00 AM 23.12 73.616 0.284 7.93 23.81 7.78
7/6/2021 5:30:00 AM 23.1 73.58 0.284 7.92 24.16 7.74
7/6/2021 5:45:00 AM 23.09 73.562 0.284 7.92 24.14 7.73
7/6/2021 6:00:00 AM 23.08 73.544 0.284 7.92 22.9 7.71
7/6/2021 6:15:00 AM 23.06 73.508 0.284 7.9 23.7 7.69
7/6/2021 6:30:00 AM 23.06 73.508 0.284 7.9 24.58 7.67
7/6/2021 6:45:00 AM 23.06 73.508 0.284 7.9 24.28 7.66
7/6/2021 7:00:00 AM 23.06 73.508 0.284 7.9 23.59 7.66
7/6/2021 7:15:00 AM 23.07 73.526 0.284 7.89 23.66 7.68
7/6/2021 7:30:00 AM 23.09 73.562 0.285 7.9 24.52 7.71
7/6/2021 7:45:00 AM 23.12 73.616 0.285 7.91 22.94 7.76
7/6/2021 8:00:00 AM 23.16 73.688 0.285 7.91 22.96 7.81
7/6/2021 8:15:00 AM 23.21 73.778 0.285 7.92 19.37 7.85
7/6/2021 8:30:00 AM 23.29 73.922 0.285 7.93 22.91 7.96
7/6/2021 8:45:00 AM 23.37 74.066 0.285 7.95 20.88 8.05
7/6/2021 9:00:00 AM 23.47 74.246 0.286 7.97 20.48 8.13
7/6/2021 9:15:00 AM 23.57 74.426 0.286 7.99 20.72 8.25
7/6/2021 9:30:00 AM 23.69 74.642 0.286 7.99 20.46 8.37
7/6/2021 9:45:00 AM 23.81 74.858 0.286 8.04 21.2 8.47
7/6/2021 10:00:00 AM 23.93 75.074 0.287 8.06 22.41 8.57
7/6/2021 10:15:00 AM 24.04 75.272 0.287 8.1 22.25 8.68
7/6/2021 10:30:00 AM 24.17 75.506 0.287 8.13 21.59 8.83
7/6/2021 10:45:00 AM 24.3 75.74 0.287 8.14 21.82 8.94
7/6/2021 11:00:00 AM 24.44 75.992 0.288 8.19 21.94 9.08
7/6/2021 11:15:00 AM 24.59 76.262 0.288 8.21 21.62 9.2
7/6/2021 11:30:00 AM 24.73 76.514 0.288 8.24 22.87 9.28
7/6/2021 11:45:00 AM 24.9 76.82 0.289 8.26 21.52 9.4
7/6/2021 12:00:00 PM 25.04 77.07201 0.289 8.3 21.19 9.5
7/6/2021 12:15:00 PM 25.19 77.342 0.289 8.31 21.76 9.61
7/6/2021 12:30:00 PM 25.37 77.666 0.29 8.35 22.37 9.73
7/6/2021 12:45:00 PM 25.54 77.972 0.29 8.39 22.04 9.82
7/6/2021 1:00:00 PM 25.68 78.224 0.29 8.41 21.75 9.9
7/6/2021 1:15:00 PM 25.8 78.44 0.29 8.44 22.24 9.96
7/6/2021 1:30:00 PM 25.89 78.602 0.291 8.46 22.33 10.02
7/6/2021 1:45:00 PM 26.01 78.818 0.291 8.48 19.4 10.07
7/6/2021 2:00:00 PM 26.11 78.998 0.291 8.5 19.99 10.13
7/6/2021 2:15:00 PM 26.07 78.926 0.29 8.49 40.83 10.05
7/6/2021 2:30:00 PM 25.98 78.764 0.29 8.49 26.09 9.94
7/6/2021 2:45:00 PM 25.95 78.71 0.291 8.49 23.5 9.91
7/6/2021 3:00:00 PM 25.9 78.62 0.291 8.49 22.47 9.84
7/6/2021 3:15:00 PM 25.83 78.494 0.29 8.45 22.9 9.71
7/6/2021 3:30:00 PM 25.79 78.422 0.29 8.47 23.68 9.67
7/6/2021 3:45:00 PM 25.78 78.404 0.291 8.45 23.19 9.62
7/6/2021 4:00:00 PM 25.78 78.404 0.291 8.47 22.61 9.73
7/6/2021 4:15:00 PM 25.84 78.512 0.292 8.48 23.22 9.77
7/6/2021 4:30:00 PM 25.9 78.62 0.293 8.48 25.97 9.82
7/6/2021 4:45:00 PM 25.97 78.746 0.293 8.51 23 9.92
7/6/2021 5:00:00 PM 26.02 78.836 0.294 8.52 22.96 9.95
7/6/2021 5:15:00 PM 26.04 78.872 0.294 8.53 22.56 9.93
7/6/2021 5:30:00 PM 25.99 78.782 0.294 8.52 25.1 9.89
7/6/2021 5:45:00 PM 25.96 78.728 0.294 8.52 23.59 9.8
7/6/2021 6:00:00 PM 25.92 78.656 0.295 8.5 25.74 9.76
7/6/2021 6:15:00 PM 25.92 78.656 0.295 8.51 23.67 9.77
7/6/2021 6:30:00 PM 25.93 78.674 0.295 8.5 23.44 9.7
7/6/2021 6:45:00 PM 25.92 78.656 0.296 8.49 23.3 9.62
7/6/2021 7:00:00 PM 25.89 78.602 0.296 8.49 23.18 9.59
7/6/2021 7:15:00 PM 25.84 78.512 0.296 8.48 19.58 9.55
7/6/2021 7:30:00 PM 25.83 78.494 0.297 8.47 21.2 9.51
7/6/2021 7:45:00 PM 25.79 78.422 0.297 8.46 22.29 9.48
7/6/2021 8:00:00 PM 25.74 78.332 0.298 8.45 21.95 9.38
7/6/2021 8:15:00 PM 25.67 78.206 0.298 8.4 22.59 9.22
7/6/2021 8:30:00 PM 25.6 78.08 0.299 8.39 23.8 9.12
7/6/2021 8:45:00 PM 25.54 77.972 0.299 8.35 23.28 8.99
7/6/2021 9:00:00 PM 25.49 77.882 0.3 8.33 23.59 8.93
7/6/2021 9:15:00 PM 25.44 77.792 0.301 8.32 24.66 8.89
7/6/2021 9:30:00 PM 25.39 77.702 0.301 8.31 22.9 8.81
7/6/2021 9:45:00 PM 25.33 77.594 0.302 8.27 23.51 8.68
7/6/2021 10:00:00 PM 25.28 77.504 0.303 8.26 23.57 8.6
7/6/2021 10:15:00 PM 25.22 77.396 0.303 8.23 23.71 8.5
7/6/2021 10:30:00 PM 25.16 77.288 0.304 8.21 23.24 8.43
7/6/2021 10:45:00 PM 25.11 77.198 0.304 8.19 23.91 8.36
7/6/2021 11:00:00 PM 25.06 77.108 0.305 8.17 24.08 8.27
7/6/2021 11:15:00 PM 25 77 0.305 8.15 23.17 8.19
7/6/2021 11:30:00 PM 24.95 76.91 0.306 8.12 25.85 8.12
7/6/2021 11:45:00 PM 24.89 76.802 0.306 8.11 24.61 8.08
7/7/2021 12:00:00 AM 24.83 76.694 0.306 8.09 24.74 7.96
7/7/2021 12:15:00 AM 24.77 76.586 0.307 8.07 24.37 7.94
7/7/2021 12:30:00 AM 24.71 76.478 0.307 8.04 23.84 7.86
7/7/2021 12:45:00 AM 24.65 76.37 0.307 8.03 23.89 7.8
7/7/2021 1:00:00 AM 24.61 76.298 0.308 8.02 24.6 7.78
7/7/2021 1:15:00 AM 24.56 76.208 0.308 8 23.81 7.72
7/7/2021 1:30:00 AM 24.52 76.136 0.308 7.99 23.8 7.7
7/7/2021 1:45:00 AM 24.47 76.046 0.309 7.98 24.22 7.66
7/7/2021 2:00:00 AM 24.42 75.956 0.309 7.96 24.11 7.59
7/7/2021 2:15:00 AM 24.39 75.902 0.31 7.97 24.11 7.59
7/7/2021 2:30:00 AM 24.34 75.812 0.31 7.95 24.23 7.54
7/7/2021 2:45:00 AM 24.3 75.74 0.31 7.94 25 7.51
7/7/2021 3:00:00 AM 24.26 75.668 0.311 7.93 24.31 7.45
7/7/2021 3:15:00 AM 24.22 75.596 0.311 7.92 25.32 7.43
7/7/2021 3:30:00 AM 24.19 75.542 0.312 7.92 24.69 7.41
7/7/2021 3:45:00 AM 24.15 75.47 0.312 7.89 24.54 7.39
7/7/2021 4:00:00 AM 24.1 75.38 0.312 7.9 24.81 7.35
7/7/2021 4:15:00 AM 24.08 75.344 0.313 7.9 24.06 7.32
7/7/2021 4:30:00 AM 24.04 75.272 0.313 7.89 25.53 7.31
7/7/2021 4:45:00 AM 24.01 75.218 0.313 7.87 25.06 7.28
7/7/2021 5:00:00 AM 23.99 75.182 0.314 7.88 24.13 7.26
7/7/2021 5:15:00 AM 23.96 75.128 0.314 7.88 24.23 7.26
7/7/2021 5:30:00 AM 23.93 75.074 0.315 7.87 24.29 7.21
7/7/2021 5:45:00 AM 23.9 75.02 0.315 7.85 23.36 7.21
7/7/2021 6:00:00 AM 23.87 74.966 0.315 7.85 24.74 7.18
7/7/2021 6:15:00 AM 23.86 74.948 0.316 7.86 24.63 7.17
7/7/2021 6:30:00 AM 23.84 74.912 0.316 7.86 27.6 7.17
7/7/2021 6:45:00 AM 23.83 74.894 0.316 7.86 24.39 7.22
7/7/2021 7:00:00 AM 23.83 74.894 0.316 7.86 25.38 7.17
7/7/2021 7:15:00 AM 23.82 74.876 0.317 7.86 24.27 7.22
7/7/2021 7:30:00 AM 23.85 74.93 0.317 7.85 24.61 7.31
7/7/2021 7:45:00 AM 23.89 75.002 0.317 7.87 24.77 7.31
7/7/2021 8:00:00 AM 23.9 75.02 0.317 7.88 24.47 7.41
7/7/2021 8:15:00 AM 23.94 75.092 0.318 7.88 28.58 7.47
7/7/2021 8:30:00 AM 23.99 75.182 0.319 7.91 23.98 7.58
7/7/2021 8:45:00 AM 24.08 75.344 0.319 7.92 24.86 7.7
7/7/2021 9:00:00 AM 24.18 75.524 0.319 7.95 24.2 7.88
7/7/2021 9:15:00 AM 24.26 75.668 0.32 7.96 24.7 7.94
7/7/2021 9:30:00 AM 24.36 75.848 0.32 7.99 23.69 8.09
7/7/2021 9:45:00 AM 24.49 76.082 0.32 8.02 24.12 8.27
7/7/2021 10:00:00 AM 24.62 76.316 0.32 8.04 23.65 8.44
7/7/2021 10:15:00 AM 24.77 76.586 0.32 8.08 23.85 8.57
7/7/2021 10:30:00 AM 24.9 76.82 0.32 8.1 24.22 8.72
7/7/2021 10:45:00 AM 25.06 77.108 0.32 8.15 23.35 8.84
7/7/2021 11:00:00 AM 25.2 77.36 0.32 8.17 24.21 8.96
7/7/2021 11:15:00 AM 25.37 77.666 0.32 8.21 24.06 9.14
7/7/2021 11:30:00 AM 25.5 77.9 0.32 8.23 24.34 9.25
7/7/2021 11:45:00 AM 25.67 78.206 0.32 8.28 24.26 9.45
7/7/2021 12:00:00 PM 25.83 78.494 0.32 8.31 28.47 9.52
7/7/2021 12:15:00 PM 25.96 78.728 0.32 8.33 23.97 9.66
7/7/2021 12:30:00 PM 26.11 78.998 0.32 8.36 25.12 9.75
7/7/2021 12:45:00 PM 26.25 79.25 0.32 8.38 24.78 9.85
7/7/2021 1:00:00 PM 26.37 79.466 0.32 8.42 24.47 9.93
7/7/2021 1:15:00 PM 26.51 79.718 0.32 8.44 23.95 10.02
7/7/2021 1:30:00 PM 26.66 79.988 0.32 8.46 24.64 10.11
7/7/2021 1:45:00 PM 26.81 80.258 0.32 8.5 24.21 10.24
7/7/2021 2:00:00 PM 26.93 80.474 0.32 8.51 24.12 10.26
7/7/2021 2:15:00 PM 27.05 80.69 0.32 8.54 23.64 10.35
7/7/2021 2:30:00 PM 27.13 80.834 0.32 8.55 23.47 10.43
7/7/2021 2:45:00 PM 27.22 80.996 0.319 8.57 23.31 10.5
7/7/2021 3:00:00 PM 27.26 81.068 0.319 8.58 23.84 10.49
7/7/2021 3:15:00 PM 27.32 81.176 0.319 8.6 23.26 10.55
7/7/2021 3:30:00 PM 27.39 81.302 0.319 8.61 23.24 10.54
7/7/2021 3:45:00 PM 27.46 81.42799 0.319 8.62 23.79 10.61
7/7/2021 4:00:00 PM 27.51 81.518 0.319 8.64 26.06 10.57
7/7/2021 4:15:00 PM 27.54 81.57201 0.319 8.64 24.74 10.56
7/7/2021 4:30:00 PM 27.62 81.716 0.319 8.66 23.83 10.62
7/7/2021 4:45:00 PM 27.69 81.842 0.319 8.68 23.97 10.7
7/7/2021 5:00:00 PM 27.75 81.95 0.319 8.67 23.74 10.69
7/7/2021 5:15:00 PM 27.78 82.004 0.319 8.69 24.85 10.7
7/7/2021 5:30:00 PM 27.82 82.076 0.319 8.7 22.56 10.73
7/7/2021 5:45:00 PM 27.84 82.112 0.318 8.71 22.57 10.7
7/7/2021 6:00:00 PM 27.82 82.076 0.318 8.72 22.24 10.7
7/7/2021 6:15:00 PM 27.79 82.022 0.318 8.71 21.86 10.65
7/7/2021 6:30:00 PM 27.73 81.914 0.318 8.72 27.34 10.57
7/7/2021 6:45:00 PM 27.69 81.842 0.318 8.72 28.41 10.52
7/7/2021 7:00:00 PM 27.62 81.716 0.318 8.71 27.63 10.41
7/7/2021 7:15:00 PM 27.55 81.59 0.318 8.71 26.63 10.3
7/7/2021 7:30:00 PM 27.49 81.482 0.318 8.7 25.87 10.22
7/7/2021 7:45:00 PM 27.42 81.356 0.318 8.69 25.91 10.06
7/7/2021 8:00:00 PM 27.36 81.248 0.319 8.66 26.55 9.88
7/7/2021 8:15:00 PM 27.29 81.122 0.319 8.65 26.11 9.76
7/7/2021 8:30:00 PM 27.2 80.96 0.319 8.63 27.13 9.65
7/7/2021 8:45:00 PM 27.13 80.834 0.319 8.62 26.14 9.52
7/7/2021 9:00:00 PM 26.98 80.564 0.319 8.58 29.36 9.33
7/7/2021 9:15:00 PM 26.85 80.33 0.318 8.56 30.82 9.17
7/7/2021 9:30:00 PM 26.77 80.186 0.318 8.54 29.6 9.06
7/7/2021 9:45:00 PM 26.63 79.934 0.317 8.52 31.16 8.91
7/7/2021 10:00:00 PM 26.55 79.79 0.318 8.5 28.47 8.8
7/7/2021 10:15:00 PM 26.43 79.574 0.318 8.46 28.39 8.66
7/7/2021 10:30:00 PM 26.35 79.43 0.318 8.43 27.96 8.56
7/7/2021 10:45:00 PM 26.25 79.25 0.318 8.41 29.43 8.44
7/7/2021 11:00:00 PM 26.17 79.106 0.318 8.36 27.87 8.31
7/7/2021 11:15:00 PM 26.09 78.962 0.318 8.35 27.67 8.23
7/7/2021 11:30:00 PM 26.03 78.854 0.319 8.32 27.32 8.16
7/7/2021 11:45:00 PM 25.96 78.728 0.32 8.29 28.67 8.04
7/8/2021 12:00:00 AM 25.88 78.584 0.321 8.26 28.23 7.96
7/8/2021 12:15:00 AM 25.8 78.44 0.321 8.22 30.08 7.85
7/8/2021 12:30:00 AM 25.72 78.296 0.322 8.2 32.43 7.79
7/8/2021 12:45:00 AM 25.66 78.188 0.322 8.16 30.26 7.73
7/8/2021 1:00:00 AM 25.6 78.08 0.323 8.16 30.42 7.66
7/8/2021 1:15:00 AM 25.55 77.99 0.323 8.14 31.79 7.64
7/8/2021 1:30:00 AM 25.5 77.9 0.323 8.12 29.79 7.57
7/8/2021 1:45:00 AM 25.46 77.828 0.324 8.11 29.19 7.53
7/8/2021 2:00:00 AM 25.42 77.756 0.324 8.1 29.44 7.5
7/8/2021 2:15:00 AM 25.38 77.684 0.324 8.08 29.4 7.46
7/8/2021 2:30:00 AM 25.34 77.612 0.324 8.09 29.96 7.44
7/8/2021 2:45:00 AM 25.3 77.54 0.324 8.07 32.7 7.35
7/8/2021 3:00:00 AM 25.26 77.468 0.325 8.07 32.76 7.36
7/8/2021 3:15:00 AM 25.21 77.378 0.325 8.06 34.04 7.32
7/8/2021 3:30:00 AM 25.16 77.288 0.325 8.06 34.84 7.32
7/8/2021 3:45:00 AM 25.11 77.198 0.325 8.03 32.91 7.28
7/8/2021 4:00:00 AM 25.06 77.108 0.325 8.03 34 7.25
7/8/2021 4:15:00 AM 25.01 77.018 0.326 8.03 33.04 7.26
7/8/2021 4:30:00 AM 24.95 76.91 0.326 8.02 33.03 7.24
7/8/2021 4:45:00 AM 24.9 76.82 0.327 8.02 32.07 7.26
7/8/2021 5:00:00 AM 24.85 76.73 0.328 8.01 32.93 7.26
7/8/2021 5:15:00 AM 24.8 76.64 0.329 8.01 36.23 7.25
7/8/2021 5:30:00 AM 24.76 76.568 0.329 8.02 29.91 7.28
7/8/2021 5:45:00 AM 24.72 76.496 0.33 8.01 41.28 7.29
7/8/2021 6:00:00 AM 24.69 76.442 0.331 8.02 34.82 7.28
7/8/2021 6:15:00 AM 24.67 76.406 0.331 8.03 31.29 7.31
7/8/2021 6:30:00 AM 24.66 76.388 0.333 8.03 30.73 7.31
7/8/2021 6:45:00 AM 24.66 76.388 0.333 8.04 31.47 7.34
7/8/2021 7:00:00 AM 24.66 76.388 0.334 8.03 32.01 7.33
7/8/2021 7:15:00 AM 24.67 76.406 0.334 8.05 31.09 7.34
7/8/2021 7:30:00 AM 24.68 76.424 0.335 8.05 31.58 7.34
7/8/2021 7:45:00 AM 24.7 76.46 0.334 8.05 31.05 7.34
7/8/2021 8:00:00 AM 24.72 76.496 0.334 8.04 29.51 7.34
7/8/2021 8:15:00 AM 24.71 76.478 0.332 8.04 30.88 7.35
7/8/2021 8:30:00 AM 24.69 76.442 0.329 8.04 30.01 7.34
7/8/2021 8:45:00 AM 24.64 76.352 0.326 8.03 30.77 7.32
7/8/2021 9:00:00 AM 24.57 76.226 0.321 8 34.21 7.31
7/8/2021 9:15:00 AM 24.5 76.1 0.317 7.99 36.66 7.31
7/8/2021 9:30:00 AM 24.42 75.956 0.311 7.97 43.67 7.28
7/8/2021 9:45:00 AM 24.35 75.83 0.305 7.95 47.58 7.28
7/8/2021 10:00:00 AM 24.28 75.704 0.299 7.94 54.22 7.27
7/8/2021 10:15:00 AM 24.16 75.488 0.292 7.9 70.85 7.29
7/8/2021 10:30:00 AM 24.04 75.272 0.286 7.89 96.27 7.29
7/8/2021 10:45:00 AM 23.94 75.092 0.28 7.85 79.24 7.3
7/8/2021 11:00:00 AM 23.84 74.912 0.274 7.84 122.22 7.31
7/8/2021 11:15:00 AM 23.7 74.66 0.268 7.83 127.03 7.32
7/8/2021 11:30:00 AM 23.62 74.516 0.265 7.81 129.2 7.33
7/8/2021 11:45:00 AM 23.55 74.39 0.261 7.78 149.02 7.34
7/8/2021 12:00:00 PM 23.53 74.354 0.26 7.78 151.1 7.37
7/8/2021 12:15:00 PM 23.55 74.39 0.258 7.77 172.51 7.36
7/8/2021 12:30:00 PM 23.53 74.354 0.257 7.77 157.82 7.39
7/8/2021 12:45:00 PM 23.49 74.282 0.256 7.74 206.03 7.39
7/8/2021 1:00:00 PM 23.44 74.192 0.254 7.75 189.35 7.4
7/8/2021 1:15:00 PM 23.42 74.156 0.252 7.75 203.64 7.41
7/8/2021 1:30:00 PM 23.45 74.21 0.25 7.74 182.61 7.42
7/8/2021 1:45:00 PM 23.48 74.264 0.247 7.74 258.39 7.43
7/8/2021 2:00:00 PM 23.49 74.282 0.243 7.73 180.77 7.46
7/8/2021 2:15:00 PM 23.45 74.21 0.24 7.73 152.95 7.44
7/8/2021 2:30:00 PM 23.39 74.102 0.236 7.72 182.76 7.45
7/8/2021 2:45:00 PM 23.31 73.958 0.233 7.71 167.97 7.46
7/8/2021 3:00:00 PM 23.24 73.832 0.229 7.71 166.85 7.49
7/8/2021 3:15:00 PM 23.18 73.724 0.226 7.7 163.12 7.51
7/8/2021 3:30:00 PM 23.15 73.67 0.223 7.69 195.92 7.54
7/8/2021 3:45:00 PM 23.13 73.634 0.22 7.68 167.29 7.54
7/8/2021 4:00:00 PM 23.11 73.598 0.218 7.69 160.3 7.57
7/8/2021 4:15:00 PM 23.1 73.58 0.216 7.66 153.09 7.58
7/8/2021 4:30:00 PM 23.1 73.58 0.214 7.68 154.55 7.6
7/8/2021 4:45:00 PM 23.08 73.544 0.213 7.67 124.02 7.6
7/8/2021 5:00:00 PM 23.07 73.526 0.212 7.68 145.04 7.6
7/8/2021 5:15:00 PM 23.06 73.508 0.211 7.67 136.04 7.62
7/8/2021 5:30:00 PM 23.09 73.562 0.211 7.66 145.47 7.63
7/8/2021 5:45:00 PM 23.08 73.544 0.211 7.68 115.29 7.62
7/8/2021 6:00:00 PM 23.06 73.508 0.211 7.68 134.76 7.65
7/8/2021 6:15:00 PM 23.05 73.49 0.211 7.68 119.48 7.65
7/8/2021 6:30:00 PM 23.02 73.436 0.211 7.67 127.19 7.64
7/8/2021 6:45:00 PM 22.99 73.382 0.212 7.69 113.71 7.65
7/8/2021 7:00:00 PM 22.97 73.346 0.212 7.69 103.92 7.66
7/8/2021 7:15:00 PM 22.95 73.31 0.213 7.69 113.77 7.67
7/8/2021 7:30:00 PM 22.93 73.274 0.214 7.69 94.13 7.66
7/8/2021 7:45:00 PM 22.92 73.256 0.215 7.68 91 7.67
7/8/2021 8:00:00 PM 22.9 73.22 0.215 7.7 95.23 7.69
7/8/2021 8:15:00 PM 22.89 73.202 0.216 7.7 96.51 7.68
7/8/2021 8:30:00 PM 22.88 73.184 0.217 7.71 118.01 7.69
7/8/2021 8:45:00 PM 22.88 73.184 0.219 7.7 79.17 7.69
7/8/2021 9:00:00 PM 22.87 73.166 0.22 7.72 88.22 7.7
7/8/2021 9:15:00 PM 22.87 73.166 0.221 7.72 82.76 7.7
7/8/2021 9:30:00 PM 22.86 73.148 0.222 7.72 83.83 7.7
7/8/2021 9:45:00 PM 22.86 73.148 0.224 7.7 186.15 7.57
7/8/2021 10:00:00 PM 22.86 73.148 0.225 7.73 74.74 7.7
7/8/2021 10:15:00 PM 22.86 73.148 0.226 7.74 78.63 7.73
7/8/2021 10:30:00 PM 22.86 73.148 0.228 7.73 70.83 7.73
7/8/2021 10:45:00 PM 22.85 73.13 0.229 7.75 66.79 7.74
7/8/2021 11:00:00 PM 22.85 73.13 0.231 7.74 67.43 7.73
7/8/2021 11:15:00 PM 22.85 73.13 0.232 7.75 63.13 7.75
7/8/2021 11:30:00 PM 22.85 73.13 0.234 7.75 65.4 7.75
7/8/2021 11:45:00 PM 22.85 73.13 0.235 7.75 71.62 7.75
7/9/2021 12:00:00 AM 22.86 73.148 0.236 7.78 78 7.77
7/9/2021 12:15:00 AM 22.87 73.166 0.237 7.76 60.89 7.78
7/9/2021 12:30:00 AM 22.88 73.184 0.238 7.77 60.51 7.79
7/9/2021 12:45:00 AM 22.88 73.184 0.239 7.78 58.5 7.8
7/9/2021 1:00:00 AM 22.89 73.202 0.24 7.79 58.14 7.8
7/9/2021 1:15:00 AM 22.9 73.22 0.241 7.78 57.59 7.79
7/9/2021 1:30:00 AM 22.91 73.238 0.241 7.8 58.49 7.82
7/9/2021 1:45:00 AM 22.91 73.238 0.242 7.8 56.69 7.8
7/9/2021 2:00:00 AM 22.91 73.238 0.242 7.8 55.35 7.81
7/9/2021 2:15:00 AM 22.9 73.22 0.242 7.8 57.07 7.8
7/9/2021 2:30:00 AM 22.89 73.202 0.243 7.79 55.25 7.79
7/9/2021 2:45:00 AM 22.87 73.166 0.243 7.81 56.42 7.81
7/9/2021 3:00:00 AM 22.85 73.13 0.243 7.81 52.64 7.81
7/9/2021 3:15:00 AM 22.84 73.112 0.243 7.8 50.58 7.8
7/9/2021 3:30:00 AM 22.81 73.058 0.243 7.81 50.15 7.81
7/9/2021 3:45:00 AM 22.79 73.022 0.243 7.8 49.47 7.81
7/9/2021 4:00:00 AM 22.77 72.986 0.243 7.82 47.91 7.81
7/9/2021 4:15:00 AM 22.74 72.932 0.243 7.81 45.51 7.8
7/9/2021 4:30:00 AM 22.71 72.878 0.243 7.81 54.28 7.82
7/9/2021 4:45:00 AM 22.69 72.842 0.243 7.8 50.16 7.81
7/9/2021 5:00:00 AM 22.66 72.788 0.244 7.82 50.59 7.82
7/9/2021 5:15:00 AM 22.63 72.734 0.244 7.82 48.64 7.81
7/9/2021 5:30:00 AM 22.61 72.698 0.243 7.81 45.68 7.81
7/9/2021 5:45:00 AM 22.58 72.644 0.243 7.81 49.74 7.82
7/9/2021 6:00:00 AM 22.55 72.59 0.243 7.82 48.1 7.82
7/9/2021 6:15:00 AM 22.52 72.536 0.243 7.81 49.56 7.82
7/9/2021 6:30:00 AM 22.49 72.482 0.243 7.83 48.97 7.84
7/9/2021 6:45:00 AM 22.46 72.42799 0.243 7.82 48.66 7.84
7/9/2021 7:00:00 AM 22.45 72.41 0.243 7.83 47.18 7.86
7/9/2021 7:15:00 AM 22.43 72.374 0.242 7.83 44.15 7.84
7/9/2021 7:30:00 AM 22.42 72.356 0.242 7.83 44.9 7.87
7/9/2021 7:45:00 AM 22.42 72.356 0.242 7.82 43.74 7.89
7/9/2021 8:00:00 AM 22.42 72.356 0.242 7.84 43.25 7.9
7/9/2021 8:15:00 AM 22.42 72.356 0.242 7.84 43.57 7.92
7/9/2021 8:30:00 AM 22.42 72.356 0.242 7.83 43.89 7.93
7/9/2021 8:45:00 AM 22.42 72.356 0.242 7.83 43.64 7.95
7/9/2021 9:00:00 AM 22.43 72.374 0.242 7.84 40.78 7.96
7/9/2021 9:15:00 AM 22.46 72.42799 0.242 7.84 41.54 7.99
7/9/2021 9:30:00 AM 22.47 72.446 0.242 7.84 40.91 8.01
7/9/2021 9:45:00 AM 22.49 72.482 0.242 7.86 40.2 8.06
7/9/2021 10:00:00 AM 22.49 72.482 0.241 7.84 42.89 8.07
7/9/2021 10:15:00 AM 22.47 72.446 0.241 7.85 82.07 8.07
7/9/2021 10:30:00 AM 22.48 72.464 0.24 7.85 45.32 8.12
7/9/2021 10:45:00 AM 22.5 72.5 0.239 7.85 49.62 8.13
7/9/2021 11:00:00 AM 22.56 72.608 0.237 7.85 54.09 8.17
7/9/2021 11:15:00 AM 22.52 72.536 0.236 7.85 68.5 8.16
7/9/2021 11:30:00 AM 22.55 72.59 0.235 7.82 64.03 8.14
7/9/2021 11:45:00 AM 22.58 72.644 0.233 7.82 88.87 8.12
7/9/2021 12:00:00 PM 22.61 72.698 0.232 7.81 105.15 8.09
7/9/2021 12:15:00 PM 22.65 72.77 0.231 7.8 120.84 8.07
7/9/2021 12:30:00 PM 22.73 72.914 0.23 7.78 107.41 8.06
7/9/2021 12:45:00 PM 22.75 72.95 0.228 7.79 128.6 8.04
7/9/2021 1:00:00 PM 22.76 72.968 0.227 7.78 132.47 8.03
7/9/2021 1:15:00 PM 22.79 73.022 0.225 7.77 148.4 8.03
7/9/2021 1:30:00 PM 22.83 73.094 0.224 7.76 141.62 8.02
7/9/2021 1:45:00 PM 22.82 73.076 0.222 7.76 153.1 8.03
7/9/2021 2:00:00 PM 22.82 73.076 0.22 7.74 167.18 8.02
7/9/2021 2:15:00 PM 22.78 73.004 0.218 7.75 191.53 8.02
7/9/2021 2:30:00 PM 22.76 72.968 0.217 7.72 154.3 8.02
7/9/2021 2:45:00 PM 22.69 72.842 0.214 7.74 170.03 8.04
7/9/2021 3:00:00 PM 22.65 72.77 0.213 7.73 168.74 8.06
7/9/2021 3:15:00 PM 22.62 72.716 0.212 7.72 157.14 8.06
7/9/2021 3:30:00 PM 22.59 72.662 0.21 7.72 192.96 8.04
7/9/2021 3:45:00 PM 22.59 72.662 0.21 7.72 154.23 8.05
7/9/2021 4:00:00 PM 22.61 72.698 0.209 7.72 181.63 8.03
7/9/2021 4:15:00 PM 22.67 72.806 0.209 7.72 137.62 8.02
7/9/2021 4:30:00 PM 22.74 72.932 0.209 7.71 134.78 8.05
7/9/2021 4:45:00 PM 22.78 73.004 0.209 7.72 153.59 8.04
7/9/2021 5:00:00 PM 22.8 73.04 0.209 7.7 135.4 8.05
7/9/2021 5:15:00 PM 22.82 73.076 0.209 7.71 130.99 8.04
7/9/2021 5:30:00 PM 22.8 73.04 0.21 7.71 139 8.05
7/9/2021 5:45:00 PM 22.81 73.058 0.21 7.73 112.68 8.06
7/9/2021 6:00:00 PM 22.82 73.076 0.211 7.72 120.23 8.06
7/9/2021 6:15:00 PM 22.85 73.13 0.212 7.73 109.02 8.07
7/9/2021 6:30:00 PM 22.88 73.184 0.214 7.74 118.35 8.09
7/9/2021 6:45:00 PM 22.9 73.22 0.215 7.74 105.48 8.08
7/9/2021 7:00:00 PM 22.9 73.22 0.216 7.73 106.04 8.09
7/9/2021 7:15:00 PM 22.9 73.22 0.217 7.75 91.69 8.1
7/9/2021 7:30:00 PM 22.89 73.202 0.219 7.76 104.68 8.13
7/9/2021 7:45:00 PM 22.89 73.202 0.22 7.77 108.58 8.12
7/9/2021 8:00:00 PM 22.89 73.202 0.222 7.77 99.98 8.15
7/9/2021 8:15:00 PM 22.88 73.184 0.223 7.78 85.01 8.15
7/9/2021 8:30:00 PM 22.87 73.166 0.225 7.79 98.64 8.17
7/9/2021 8:45:00 PM 22.87 73.166 0.226 7.8 87.38 8.2
7/9/2021 9:00:00 PM 22.88 73.184 0.228 7.79 101.46 8.22
7/9/2021 9:15:00 PM 22.88 73.184 0.229 7.81 82.05 8.23
7/9/2021 9:30:00 PM 22.88 73.184 0.231 7.83 86.23 8.25
7/9/2021 9:45:00 PM 22.88 73.184 0.232 7.82 85.31 8.28
7/9/2021 10:00:00 PM 22.88 73.184 0.234 7.83 102.74 8.28
7/9/2021 10:15:00 PM 22.88 73.184 0.235 7.84 77.29 8.29
7/9/2021 10:30:00 PM 22.88 73.184 0.237 7.85 77.32 8.31
7/9/2021 10:45:00 PM 22.88 73.184 0.239 7.85 67.03 8.32
7/9/2021 11:00:00 PM 22.88 73.184 0.24 7.86 63.31 8.33
7/9/2021 11:15:00 PM 22.87 73.166 0.242 7.87 75.45 8.33
7/9/2021 11:30:00 PM 22.86 73.148 0.243 7.88 69.48 8.33
7/9/2021 11:45:00 PM 22.84 73.112 0.245 7.88 62.7 8.31
7/10/2021 12:00:00 AM 22.82 73.076 0.246 7.87 61.63 8.32
7/10/2021 12:15:00 AM 22.8 73.04 0.247 7.89 60.5 8.31
7/10/2021 12:30:00 AM 22.78 73.004 0.248 7.89 58.86 8.31
7/10/2021 12:45:00 AM 22.76 72.968 0.249 7.89 50.26 8.3
7/10/2021 1:00:00 AM 22.74 72.932 0.25 7.88 57.18 8.29
7/10/2021 1:15:00 AM 22.72 72.896 0.252 7.89 58.14 8.29
7/10/2021 1:30:00 AM 22.69 72.842 0.253 7.89 52.2 8.26
7/10/2021 1:45:00 AM 22.67 72.806 0.254 7.9 51.43 8.26
7/10/2021 2:00:00 AM 22.65 72.77 0.255 7.9 47.83 8.26
7/10/2021 2:15:00 AM 22.63 72.734 0.255 7.91 47.46 8.24
7/10/2021 2:30:00 AM 22.61 72.698 0.256 7.9 47.12 8.25
7/10/2021 2:45:00 AM 22.59 72.662 0.257 7.9 45.41 8.23
7/10/2021 3:00:00 AM 22.57 72.626 0.257 7.91 57.04 8.21
7/10/2021 3:15:00 AM 22.55 72.59 0.257 7.91 55.82 8.2
7/10/2021 3:30:00 AM 22.53 72.554 0.257 7.89 44.78 8.15
7/10/2021 3:45:00 AM 22.52 72.536 0.258 7.89 42.57 8.16
7/10/2021 4:00:00 AM 22.49 72.482 0.258 7.9 42.02 8.15
7/10/2021 4:15:00 AM 22.46 72.42799 0.258 7.9 42.14 8.14
7/10/2021 4:30:00 AM 22.44 72.392 0.258 7.9 40.14 8.12
7/10/2021 4:45:00 AM 22.41 72.338 0.257 7.87 43.1 8.09
7/10/2021 5:00:00 AM 22.38 72.284 0.257 7.89 43.55 8.09
7/10/2021 5:15:00 AM 22.35 72.23 0.257 7.87 43.44 8.07
7/10/2021 5:30:00 AM 22.33 72.194 0.257 7.88 42.14 8.07
7/10/2021 5:45:00 AM 22.3 72.14 0.256 7.85 46.06 8.06
7/10/2021 6:00:00 AM 22.28 72.104 0.257 7.86 67.39 8.05
7/10/2021 6:15:00 AM 22.25 72.05 0.257 7.87 41 8.03
7/10/2021 6:30:00 AM 22.22 71.996 0.257 7.86 47.89 8.03
7/10/2021 6:45:00 AM 22.21 71.978 0.257 7.85 42.81 8.01
7/10/2021 7:00:00 AM 22.18 71.924 0.257 7.86 44.59 8.03
7/10/2021 7:15:00 AM 22.17 71.906 0.257 7.86 44.26 8.02
7/10/2021 7:30:00 AM 22.15 71.87 0.257 7.85 45.21 8
7/10/2021 7:45:00 AM 22.14 71.852 0.258 7.86 42.73 8.03
7/10/2021 8:00:00 AM 22.12 71.816 0.258 7.86 42.52 8.02
7/10/2021 8:15:00 AM 22.12 71.816 0.258 7.86 41.48 8.04
7/10/2021 8:30:00 AM 22.12 71.816 0.258 7.85 41.1 8.04
7/10/2021 8:45:00 AM 22.13 71.834 0.259 7.86 38.77 8.07
7/10/2021 9:00:00 AM 22.14 71.852 0.259 7.86 37.97 8.1
7/10/2021 9:15:00 AM 22.14 71.852 0.259 7.87 38.86 8.15
7/10/2021 9:30:00 AM 22.16 71.888 0.259 7.86 40.11 8.19
7/10/2021 9:45:00 AM 22.18 71.924 0.26 7.88 39.66 8.21
7/10/2021 10:00:00 AM 22.22 71.996 0.26 7.88 44.6 8.28
7/10/2021 10:15:00 AM 22.24 72.032 0.26 7.89 35.44 8.3
7/10/2021 10:30:00 AM 22.25 72.05 0.082 7.91 42.93 8.34
7/10/2021 10:45:00 AM 22.28 72.104 0.259 7.89 42.69 8.38
7/10/2021 11:00:00 AM 22.38 72.284 0.259 7.93 42.62 8.45
7/10/2021 11:15:00 AM 22.42 72.356 0.259 7.92 39.51 8.47
7/10/2021 11:30:00 AM 22.5 72.5 0.259 7.94 42.83 8.5
7/10/2021 11:45:00 AM 22.46 72.42799 0.259 7.93 43.05 8.5
7/10/2021 12:00:00 PM 22.39 72.302 0.259 7.92 45.4 8.43
7/10/2021 12:15:00 PM 22.4 72.32 0.259 7.9 46.15 8.4
7/10/2021 12:30:00 PM 22.47 72.446 0.258 7.91 45.04 8.45
7/10/2021 12:45:00 PM 22.54 72.57201 0.258 7.92 42.29 8.47
7/10/2021 1:00:00 PM 22.6 72.68 0.258 7.92 40.93 8.47
7/10/2021 1:15:00 PM 22.63 72.734 0.258 7.93 47.44 8.5
7/10/2021 1:30:00 PM 22.64 72.752 0.258 7.93 46.85 8.49
7/10/2021 1:45:00 PM 22.62 72.716 0.258 7.93 50.17 8.47
7/10/2021 2:00:00 PM 22.67 72.806 0.259 7.93 48.6 8.48
7/10/2021 2:15:00 PM 22.71 72.878 0.259 7.93 43.22 8.5
7/10/2021 2:30:00 PM 22.74 72.932 0.259 7.94 48.5 8.51
7/10/2021 2:45:00 PM 22.78 73.004 0.259 7.94 42.35 8.5
7/10/2021 3:00:00 PM 22.79 73.022 0.259 7.94 49.55 8.5
7/10/2021 3:15:00 PM 22.82 73.076 0.258 7.93 51.57 8.49
7/10/2021 3:30:00 PM 22.85 73.13 0.256 7.92 43.12 8.48
7/10/2021 3:45:00 PM 22.89 73.202 0.253 7.93 44.22 8.49
7/10/2021 4:00:00 PM 22.91 73.238 0.25 7.92 41.21 8.49
7/10/2021 4:15:00 PM 22.88 73.184 0.247 7.91 42.17 8.49
7/10/2021 4:30:00 PM 22.83 73.094 0.244 7.89 47.59 8.49
7/10/2021 4:45:00 PM 22.77 72.986 0.241 7.89 41.66 8.47
7/10/2021 5:00:00 PM 22.69 72.842 0.238 7.87 38.94 8.47
7/10/2021 5:15:00 PM 22.66 72.788 0.236 7.87 38.67 8.49
7/10/2021 5:30:00 PM 22.61 72.698 0.234 7.84 48.49 8.48
7/10/2021 5:45:00 PM 22.56 72.608 0.233 7.84 42.05 8.47
7/10/2021 6:00:00 PM 22.53 72.554 0.231 7.83 38.62 8.48
7/10/2021 6:15:00 PM 22.5 72.5 0.23 7.8 39.58 8.49
7/10/2021 6:30:00 PM 22.48 72.464 0.23 7.82 39.55 8.48
7/10/2021 6:45:00 PM 22.44 72.392 0.229 7.79 41.54 8.47
7/10/2021 7:00:00 PM 22.42 72.356 0.229 7.79 36.78 8.47
7/10/2021 7:15:00 PM 22.4 72.32 0.228 7.79 50.77 8.47
7/10/2021 7:30:00 PM 22.4 72.32 0.228 7.79 36.73 8.46
7/10/2021 7:45:00 PM 22.39 72.302 0.228 7.78 36.68 8.47
7/10/2021 8:00:00 PM 22.38 72.284 0.228 7.77 46.97 8.46
7/10/2021 8:15:00 PM 22.37 72.266 0.228 7.77 381.78 8.46
7/10/2021 8:30:00 PM 22.36 72.248 0.228 7.75 31.89 8.46
7/10/2021 8:45:00 PM 22.36 72.248 0.228 7.77 35.27 8.44
7/10/2021 9:00:00 PM 22.35 72.23 0.228 7.75 34.51 8.44
7/10/2021 9:15:00 PM 22.34 72.212 0.228 7.75 30.54 8.42
7/10/2021 9:30:00 PM 22.34 72.212 0.228 7.75 65.09 8.42
7/10/2021 9:45:00 PM 22.32 72.176 0.228 7.75 39.88 8.4
7/10/2021 10:00:00 PM 22.31 72.158 0.228 7.75 27.46 8.39
7/10/2021 10:15:00 PM 22.29 72.122 0.228 7.75 28.53 8.38
7/10/2021 10:30:00 PM 22.28 72.104 0.228 7.75 28.47 8.37
7/10/2021 10:45:00 PM 22.27 72.086 0.229 7.75 31.69 8.37
7/10/2021 11:00:00 PM 22.25 72.05 0.229 7.75 30.38 8.37
7/10/2021 11:15:00 PM 22.24 72.032 0.229 7.75 28.33 8.36
7/10/2021 11:30:00 PM 22.22 71.996 0.229 7.75 28.01 8.33
7/10/2021 11:45:00 PM 22.21 71.978 0.23 7.74 29.25 8.35
7/11/2021 12:00:00 AM 22.19 71.942 0.23 7.75 24.61 8.34
7/11/2021 12:15:00 AM 22.17 71.906 0.231 7.75 28.76 8.34
7/11/2021 12:30:00 AM 22.14 71.852 0.231 7.76 24.96 8.32
7/11/2021 12:45:00 AM 22.11 71.798 0.232 7.75 28.33 8.3
7/11/2021 1:00:00 AM 22.07 71.726 0.232 7.73 25.96 8.3
7/11/2021 1:15:00 AM 22.03 71.654 0.233 7.75 26.62 8.29
7/11/2021 1:30:00 AM 21.99 71.582 0.233 7.74 28.6 8.28
7/11/2021 1:45:00 AM 21.95 71.51 0.234 7.75 24.49 8.27
7/11/2021 2:00:00 AM 21.9 71.42 0.235 7.74 26.3 8.28
7/11/2021 2:15:00 AM 21.86 71.348 0.235 7.74 26.96 8.26
7/11/2021 2:30:00 AM 21.82 71.276 0.236 7.74 25.42 8.24
7/11/2021 2:45:00 AM 21.79 71.222 0.236 7.73 23.92 8.24
7/11/2021 3:00:00 AM 21.76 71.168 0.237 7.73 29.74 8.24
7/11/2021 3:15:00 AM 21.72 71.096 0.238 7.73 26.15 8.22
7/11/2021 3:30:00 AM 21.7 71.06 0.238 7.73 26.1 8.21
7/11/2021 3:45:00 AM 21.68 71.024 0.239 7.75 24.39 8.22
7/11/2021 4:00:00 AM 21.65 70.97 0.239 7.75 27.55 8.21
7/11/2021 4:15:00 AM 21.63 70.934 0.24 7.74 25.77 8.19
7/11/2021 4:30:00 AM 21.61 70.898 0.241 7.74 23.96 8.17
7/11/2021 4:45:00 AM 21.59 70.862 0.241 7.75 23.54 8.19
7/11/2021 5:00:00 AM 21.56 70.808 0.242 7.73 25.8 8.17
7/11/2021 5:15:00 AM 21.54 70.772 0.242 7.75 24.75 8.17
7/11/2021 5:30:00 AM 21.51 70.718 0.243 7.73 25.18 8.17
7/11/2021 5:45:00 AM 21.49 70.682 0.243 7.75 22.39 8.17
7/11/2021 6:00:00 AM 21.46 70.628 0.244 7.75 23.68 8.17
7/11/2021 6:15:00 AM 21.44 70.592 0.244 7.74 23.41 8.16
7/11/2021 6:30:00 AM 21.4 70.52 0.244 7.76 25.18 8.16
7/11/2021 6:45:00 AM 21.38 70.484 0.245 7.74 23.81 8.15
7/11/2021 7:00:00 AM 21.36 70.448 0.245 7.76 24.27 8.17
7/11/2021 7:15:00 AM 21.35 70.43 0.245 7.77 22.43 8.19
7/11/2021 7:30:00 AM 21.33 70.394 0.246 7.77 24.72 8.21
7/11/2021 7:45:00 AM 21.31 70.358 0.246 7.78 23.65 8.23
7/11/2021 8:00:00 AM 21.3 70.34 0.247 7.78 23.29 8.25
7/11/2021 8:15:00 AM 21.29 70.32201 0.247 7.78 22.27 8.27
7/11/2021 8:30:00 AM 21.28 70.304 0.247 7.79 22.44 8.29
7/11/2021 8:45:00 AM 21.28 70.304 0.248 7.79 23.39 8.33
7/11/2021 9:00:00 AM 21.28 70.304 0.248 7.81 21.91 8.35
7/11/2021 9:15:00 AM 21.29 70.32201 0.248 7.82 21.78 8.42
7/11/2021 9:30:00 AM 21.3 70.34 0.249 7.82 37.72 8.44
7/11/2021 9:45:00 AM 21.31 70.358 0.249 7.84 24.15 8.49
7/11/2021 10:00:00 AM 21.34 70.412 0.25 7.85 32.59 8.55
7/11/2021 10:15:00 AM 21.34 70.412 0.25 7.86 31.56 8.59
7/11/2021 10:30:00 AM 21.36 70.448 0.251 7.87 32.91 8.64
7/11/2021 10:45:00 AM 21.38 70.484 0.252 7.88 30.79 8.66
7/11/2021 11:00:00 AM 21.39 70.502 0.252 7.89 148.34 8.69
7/11/2021 11:15:00 AM 21.42 70.556 0.253 7.89 26.36 8.71
7/11/2021 11:30:00 AM 21.44 70.592 0.254 7.9 61.69 8.75
7/11/2021 11:45:00 AM 21.46 70.628 0.255 7.92 21.42 8.78
7/11/2021 12:00:00 PM 21.45 70.61 0.255 7.92 105.65 8.82
7/11/2021 12:15:00 PM 21.44 70.592 0.256 7.93 43.71 8.82
7/11/2021 12:30:00 PM 21.44 70.592 0.257 7.93 22.41 8.75
7/11/2021 12:45:00 PM 21.44 70.592 0.258 7.92 22.27 8.78
7/11/2021 1:00:00 PM 21.44 70.592 0.259 7.93 17.89 8.8
7/11/2021 1:15:00 PM 21.43 70.574 0.26 7.94 19.79 8.79
7/11/2021 1:30:00 PM 21.41 70.538 0.261 7.95 19.63 8.79
7/11/2021 1:45:00 PM 21.4 70.52 0.261 7.93 19.22 8.82
7/11/2021 2:00:00 PM 21.39 70.502 0.262 7.95 20.18 8.78
7/11/2021 2:15:00 PM 21.37 70.466 0.262 7.95 20.43 8.79
7/11/2021 2:30:00 PM 21.34 70.412 0.263 7.93 23.04 8.34
7/11/2021 2:45:00 PM 21.32 70.376 0.263 7.94 20.75 8.76
7/11/2021 3:00:00 PM 21.3 70.34 0.263 7.93 22.22 8.74
7/11/2021 3:15:00 PM 21.28 70.304 0.263 7.94 22.19 8.74
7/11/2021 3:30:00 PM 21.26 70.268 0.263 7.92 22.79 8.72
7/11/2021 3:45:00 PM 21.25 70.25 0.263 7.92 39.01 8.67
7/11/2021 4:00:00 PM 21.23 70.214 0.264 7.93 22.79 8.67
7/11/2021 4:15:00 PM 21.22 70.196 0.264 7.92 23.79 8.65
7/11/2021 4:30:00 PM 21.21 70.17799 0.264 7.91 24.02 8.63
7/11/2021 4:45:00 PM 21.2 70.16 0.265 7.91 27.17 8.62
7/11/2021 5:00:00 PM 21.19 70.142 0.265 7.9 28.15 8.62
7/11/2021 5:15:00 PM 21.18 70.124 0.265 7.9 24.9 8.59
7/11/2021 5:30:00 PM 21.17 70.106 0.265 7.89 24.75 8.58
7/11/2021 5:45:00 PM 21.16 70.088 0.265 7.9 24.84 8.58
7/11/2021 6:00:00 PM 21.15 70.07 0.265 7.89 25.72 8.55
7/11/2021 6:15:00 PM 21.14 70.052 0.264 7.9 26.7 8.56
7/11/2021 6:30:00 PM 21.12 70.016 0.264 7.9 26.66 8.54
7/11/2021 6:45:00 PM 21.11 69.998 0.264 7.88 26.88 8.53
7/11/2021 7:00:00 PM 21.09 69.962 0.264 7.88 27.1 8.51
7/11/2021 7:15:00 PM 21.07 69.926 0.264 7.87 27.68 8.48
7/11/2021 7:30:00 PM 21.05 69.89 0.264 7.86 27.76 8.47
7/11/2021 7:45:00 PM 21.03 69.854 0.264 7.87 28.51 8.45
7/11/2021 8:00:00 PM 20.99 69.782 0.263 7.86 30.33 8.45
7/11/2021 8:15:00 PM 20.9 69.62 0.259 7.86 35.94 8.54
7/11/2021 8:30:00 PM 20.72 69.296 0.259 7.85 167.89 8.56
7/11/2021 8:45:00 PM 20.65 69.17 0.251 7.83 447.32 8.58
7/11/2021 9:00:00 PM 20.45 68.81 0.251 7.77 251.85 8.57
7/11/2021 9:15:00 PM 20.3 68.54 0.248 7.75 246.14 8.58
7/11/2021 9:30:00 PM 20.32 68.576 0.249 7.76 160.62 8.56
7/11/2021 9:45:00 PM 20.34 68.612 0.25 7.74 123.65 8.51
7/11/2021 10:00:00 PM 20.37 68.666 0.252 7.76 107.11 8.47
7/11/2021 10:15:00 PM 20.37 68.666 0.253 7.74 83.7 8.44
7/11/2021 10:30:00 PM 20.4 68.72 0.254 7.76 67.38 8.43
7/11/2021 10:45:00 PM 20.4 68.72 0.255 7.76 74.7 8.4
7/11/2021 11:00:00 PM 20.45 68.81 0.256 7.77 65.57 8.37
7/11/2021 11:15:00 PM 20.47 68.846 0.257 7.76 63.82 8.37
7/11/2021 11:30:00 PM 20.48 68.864 0.257 7.77 80.06 8.36
7/11/2021 11:45:00 PM 20.48 68.864 0.258 7.77 60.64 8.35
7/12/2021 12:00:00 AM 20.47 68.846 0.258 7.77 60.37 8.35
7/12/2021 12:15:00 AM 20.45 68.81 0.26 7.77 54.65 8.35
7/12/2021 12:30:00 AM 20.4 68.72 0.261 7.78 60.14 8.37
7/12/2021 12:45:00 AM 20.37 68.666 0.261 7.77 52.68 8.4
7/12/2021 1:00:00 AM 20.34 68.612 0.261 7.79 72 8.41
7/12/2021 1:15:00 AM 20.33 68.594 0.26 7.79 62.85 8.44
7/12/2021 1:30:00 AM 20.32 68.576 0.259 7.81 59.41 8.45
7/12/2021 1:45:00 AM 20.31 68.558 0.258 7.8 63.38 8.47
7/12/2021 2:00:00 AM 20.29 68.522 0.257 7.81 66.26 8.48
7/12/2021 2:15:00 AM 20.26 68.468 0.257 7.8 78.55 8.48
7/12/2021 2:30:00 AM 20.23 68.414 0.256 7.81 69.86 8.48
7/12/2021 2:45:00 AM 20.21 68.378 0.255 7.81 73.43 8.5
7/12/2021 3:00:00 AM 20.19 68.342 0.254 7.81 64.79 8.51
7/12/2021 3:15:00 AM 20.17 68.306 0.253 7.82 56.23 8.51
7/12/2021 3:30:00 AM 20.14 68.252 0.252 7.8 88.29 8.53
7/12/2021 3:45:00 AM 20.12 68.216 0.251 7.81 64.34 8.53
7/12/2021 4:00:00 AM 20.08 68.144 0.249 7.81 77.73 8.54
7/12/2021 4:15:00 AM 20.05 68.09 0.248 7.8 79.03 8.54
7/12/2021 4:30:00 AM 20 68 0.246 7.8 71.41 8.55
7/12/2021 4:45:00 AM 19.94 67.892 0.244 7.8 75.29 8.55
7/12/2021 5:00:00 AM 19.87 67.766 0.241 7.77 86.86 8.56
7/12/2021 5:15:00 AM 19.8 67.64 0.239 7.77 93.93 8.57
7/12/2021 5:30:00 AM 19.74 67.532 0.236 7.76 203.22 8.59
7/12/2021 5:45:00 AM 19.68 67.424 0.234 7.77 83.16 8.58
7/12/2021 6:00:00 AM 19.64 67.352 0.232 7.75 79.11 8.59
7/12/2021 6:15:00 AM 19.6 67.28 0.231 7.76 100.39 8.59
7/12/2021 6:30:00 AM 19.57 67.226 0.23 7.76 107.4 8.6
7/12/2021 6:45:00 AM 19.56 67.208 0.229 7.75 89.44 8.6
7/12/2021 7:00:00 AM 19.54 67.172 0.227 7.73 76.2 8.61
7/12/2021 7:15:00 AM 19.53 67.154 0.225 7.75 67.96 8.62
7/12/2021 7:30:00 AM 19.52 67.136 0.224 7.74 74.35 8.61
7/12/2021 7:45:00 AM 19.52 67.136 0.222 7.74 76.45 8.61
7/12/2021 8:00:00 AM 19.52 67.136 0.22 7.74 84.09 8.62
7/12/2021 8:15:00 AM 19.53 67.154 0.218 7.74 119.21 8.62
7/12/2021 8:30:00 AM 19.53 67.154 0.215 7.73 82.52 8.62
7/12/2021 8:45:00 AM 19.53 67.154 0.213 7.73 99.88 8.62
7/12/2021 9:00:00 AM 19.52 67.136 0.211 7.72 100.82 8.63
7/12/2021 9:15:00 AM 19.51 67.118 0.208 7.74 115.09 8.64
7/12/2021 9:30:00 AM 19.5 67.1 0.207 7.73 109.62 8.64
7/12/2021 9:45:00 AM 19.5 67.1 0.205 7.73 119.38 8.65
7/12/2021 10:00:00 AM 19.49 67.082 0.203 7.73 127.27 8.66
7/12/2021 10:15:00 AM 19.51 67.118 0.202 7.73 121.28 8.67
7/12/2021 10:30:00 AM 19.53 67.154 0.2 7.72 144.57 8.67
7/12/2021 10:45:00 AM 19.54 67.172 0.199 7.71 122.77 8.69
7/12/2021 11:00:00 AM 19.55 67.19 0.198 7.71 169.55 8.69
7/12/2021 11:15:00 AM 19.58 67.244 0.196 7.71 139.11 8.69
7/12/2021 11:30:00 AM 19.62 67.316 0.195 7.71 146.69 8.71
7/12/2021 11:45:00 AM 19.68 67.424 0.194 7.72 127.34 8.7
7/12/2021 12:00:00 PM 19.77 67.586 0.193 7.7 131.77 8.7
7/12/2021 12:15:00 PM 19.88 67.784 0.192 7.7 153.72 8.7
7/12/2021 12:30:00 PM 19.97 67.946 0.192 7.72 124.22 8.7
7/12/2021 12:45:00 PM 19.99 67.982 0.191 7.71 114.2 8.69
7/12/2021 1:00:00 PM 20.09 68.162 0.19 7.7 123.44 8.68
7/12/2021 1:15:00 PM 20.16 68.288 0.19 7.7 131.19 8.67
7/12/2021 1:30:00 PM 20.26 68.468 0.191 7.71 111.3 8.67
7/12/2021 1:45:00 PM 20.38 68.684 0.191 7.71 97.24 8.66
7/12/2021 2:00:00 PM 20.46 68.828 0.192 7.72 111.3 8.65
7/12/2021 2:15:00 PM 20.51 68.918 0.193 7.71 85.98 8.65
7/12/2021 2:30:00 PM 20.55 68.99 0.194 7.72 100.83 8.64
7/12/2021 2:45:00 PM 20.61 69.098 0.194 7.72 97.06 8.64
7/12/2021 3:00:00 PM 20.67 69.206 0.195 7.71 84.69 8.65
7/12/2021 3:15:00 PM 20.74 69.332 0.195 7.72 82.97 8.64
7/12/2021 3:30:00 PM 20.8 69.44 0.196 7.71 88.94 8.64
7/12/2021 3:45:00 PM 20.86 69.548 0.196 7.73 89.72 8.64
7/12/2021 4:00:00 PM 20.9 69.62 0.197 7.73 87.2 8.63
7/12/2021 4:15:00 PM 20.96 69.728 0.197 7.71 72.69 8.63
7/12/2021 4:30:00 PM 21.04 69.872 0.197 7.73 75.7 8.62
7/12/2021 4:45:00 PM 21.12 70.016 0.198 7.7 73.45 8.62
7/12/2021 5:00:00 PM 21.22 70.196 0.198 7.72 75.12 8.61
7/12/2021 5:15:00 PM 21.33 70.394 0.198 7.71 79.13 8.61
7/12/2021 5:30:00 PM 21.41 70.538 0.199 7.72 79.38 8.6
7/12/2021 5:45:00 PM 21.47 70.646 0.199 7.71 72.63 8.6
7/12/2021 6:00:00 PM 21.5 70.7 0.199 7.72 85.99 8.59
7/12/2021 6:15:00 PM 21.54 70.772 0.2 7.72 62.78 8.6
7/12/2021 6:30:00 PM 21.57 70.826 0.201 7.71 69.02 8.6
7/12/2021 6:45:00 PM 21.6 70.88 0.201 7.71 64.23 8.59
7/12/2021 7:00:00 PM 21.63 70.934 0.202 7.73 65.16 8.6
7/12/2021 7:15:00 PM 21.67 71.006 0.202 7.73 59.64 8.6
7/12/2021 7:30:00 PM 21.69 71.042 0.202 7.72 54.53 8.61
7/12/2021 7:45:00 PM 21.71 71.078 0.203 7.73 62.91 8.61
7/12/2021 8:00:00 PM 21.73 71.114 0.203 7.74 71.42 8.6
7/12/2021 8:15:00 PM 21.75 71.15 0.204 7.75 51.66 8.61
7/12/2021 8:30:00 PM 21.77 71.186 0.205 7.73 52.51 8.6
7/12/2021 8:45:00 PM 21.79 71.222 0.205 7.75 54.03 8.6
7/12/2021 9:00:00 PM 21.8 71.24 0.206 7.74 58.04 8.6
7/12/2021 9:15:00 PM 21.81 71.258 0.207 7.75 54.96 8.59
7/12/2021 9:30:00 PM 21.82 71.276 0.208 7.75 53.65 8.59
7/12/2021 9:45:00 PM 21.83 71.294 0.209 7.76 51.72 8.59
7/12/2021 10:00:00 PM 21.84 71.312 0.21 7.76 46.27 8.58
7/12/2021 10:15:00 PM 21.86 71.348 0.211 7.76 47.97 8.57
7/12/2021 10:30:00 PM 21.87 71.366 0.213 7.76 51.42 8.57
7/12/2021 10:45:00 PM 21.87 71.366 0.214 7.75 49.84 8.56
7/12/2021 11:00:00 PM 21.88 71.384 0.215 7.77 46.96 8.55
7/12/2021 11:15:00 PM 21.87 71.366 0.217 7.77 51.11 8.56
7/12/2021 11:30:00 PM 21.87 71.366 0.218 7.76 50.82 8.56
7/12/2021 11:45:00 PM 21.87 71.366 0.22 7.78 43.39 8.55
7/13/2021 12:00:00 AM 21.86 71.348 0.222 7.78 58.57 8.55
7/13/2021 12:15:00 AM 21.85 71.33 0.223 7.79 42.81 8.55
7/13/2021 12:30:00 AM 21.83 71.294 0.225 7.79 45.38 8.54
7/13/2021 12:45:00 AM 21.82 71.276 0.226 7.79 45.48 8.54
7/13/2021 1:00:00 AM 21.8 71.24 0.228 7.8 43.37 8.53
7/13/2021 1:15:00 AM 21.78 71.204 0.23 7.81 45.02 8.53
7/13/2021 1:30:00 AM 21.76 71.168 0.231 7.8 40.97 8.52
7/13/2021 1:45:00 AM 21.74 71.132 0.232 7.81 43.9 8.52
7/13/2021 2:00:00 AM 21.73 71.114 0.234 7.81 44.07 8.51
7/13/2021 2:15:00 AM 21.71 71.078 0.236 7.81 42.54 8.5
7/13/2021 2:30:00 AM 21.7 71.06 0.237 7.82 138.48 8.49
7/13/2021 2:45:00 AM 21.69 71.042 0.238 7.82 51.03 8.48
7/13/2021 3:00:00 AM 21.68 71.024 0.239 7.83 53.9 8.48
7/13/2021 3:15:00 AM 21.66 70.988 0.24 7.83 46.85 8.47
7/13/2021 3:30:00 AM 21.65 70.97 0.24 7.83 49.06 8.46
7/13/2021 3:45:00 AM 21.62 70.916 0.24 7.83 54.14 8.45
7/13/2021 4:00:00 AM 21.6 70.88 0.24 7.83 58.55 8.44
7/13/2021 4:15:00 AM 21.58 70.844 0.24 7.83 53.23 8.44
7/13/2021 4:30:00 AM 21.55 70.79 0.24 7.83 53.71 8.43
7/13/2021 4:45:00 AM 21.51 70.718 0.24 7.83 63.31 8.43
7/13/2021 5:00:00 AM 21.47 70.646 0.239 7.83 62.87 8.42
7/13/2021 5:15:00 AM 21.43 70.574 0.238 7.83 68.53 8.42
7/13/2021 5:30:00 AM 21.38 70.484 0.238 7.81 67.29 8.42
7/13/2021 5:45:00 AM 21.33 70.394 0.237 7.82 67.06 8.42
7/13/2021 6:00:00 AM 21.29 70.32201 0.236 7.82 75.85 8.42
7/13/2021 6:15:00 AM 21.25 70.25 0.235 7.79 68.81 8.41
7/13/2021 6:30:00 AM 21.21 70.17799 0.234 7.81 73.13 8.42
7/13/2021 6:45:00 AM 21.16 70.088 0.232 7.81 84.21 8.41
7/13/2021 7:00:00 AM 21.12 70.016 0.231 7.8 86.38 8.42
7/13/2021 7:15:00 AM 21.09 69.962 0.229 7.79 80.88 8.42
7/13/2021 7:30:00 AM 21.07 69.926 0.228 7.8 94.63 8.41
7/13/2021 7:45:00 AM 21.04 69.872 0.226 7.78 76.78 8.41
7/13/2021 8:00:00 AM 21.03 69.854 0.225 7.79 84.25 8.42
7/13/2021 8:15:00 AM 21.03 69.854 0.224 7.78 90 8.41
7/13/2021 8:30:00 AM 21.03 69.854 0.222 7.75 93.78 8.42
7/13/2021 8:45:00 AM 21.03 69.854 0.22 7.76 104.39 8.42
7/13/2021 9:00:00 AM 21.04 69.872 0.219 7.77 101.23 8.41
7/13/2021 9:15:00 AM 21.04 69.872 0.217 7.75 117.13 8.42
7/13/2021 9:30:00 AM 21.03 69.854 0.215 7.75 133.12 8.41
7/13/2021 9:45:00 AM 21.03 69.854 0.213 7.73 147.44 8.41
7/13/2021 10:00:00 AM 21.02 69.836 0.211 7.73 177.57 8.41
7/13/2021 10:15:00 AM 21.02 69.836 0.209 7.72 181.42 8.4
7/13/2021 10:30:00 AM 21.02 69.836 0.206 7.72 206.7 8.4
7/13/2021 10:45:00 AM 21 69.8 0.204 7.71 180.45 8.4
7/13/2021 11:00:00 AM 21 69.8 0.202 7.68 180.31 8.42
7/13/2021 11:15:00 AM 20.98 69.764 0.2 7.69 178.18 8.43
7/13/2021 11:30:00 AM 20.94 69.692 0.199 7.69 189.06 8.46
7/13/2021 11:45:00 AM 20.86 69.548 0.197 7.67 167.52 8.49
7/13/2021 12:00:00 PM 20.81 69.458 0.196 7.66 175.23 8.52
7/13/2021 12:15:00 PM 20.79 69.422 0.195 7.66 173.78 8.54
7/13/2021 12:30:00 PM 20.75 69.35 0.195 7.67 152.79 8.58
7/13/2021 12:45:00 PM 20.75 69.35 0.195 7.66 144.71 8.59
7/13/2021 1:00:00 PM 20.74 69.332 0.195 7.66 134.26 8.63
7/13/2021 1:15:00 PM 20.77 69.386 0.195 7.66 130.93 8.65
7/13/2021 1:30:00 PM 20.79 69.422 0.196 7.66 109.94 8.67
7/13/2021 1:45:00 PM 20.84 69.512 0.197 7.66 133.22 8.67
7/13/2021 2:00:00 PM 20.89 69.602 0.197 7.67 111.57 8.69
7/13/2021 2:15:00 PM 20.93 69.674 0.198 7.68 109.65 8.69
7/13/2021 2:30:00 PM 20.99 69.782 0.199 7.66 128.74 8.69
7/13/2021 2:45:00 PM 21.07 69.926 0.2 7.68 141.27 8.69
7/13/2021 3:00:00 PM 21.1 69.98 0.2 7.68 106.45 8.69
7/13/2021 3:15:00 PM 21.12 70.016 0.2 7.67 115.58 8.69
7/13/2021 3:30:00 PM 21.15 70.07 0.2 7.66 132.89 8.69
7/13/2021 3:45:00 PM 21.2 70.16 0.201 7.67 105.39 8.67
7/13/2021 4:00:00 PM 21.29 70.32201 0.201 7.68 128.91 8.66
7/13/2021 4:15:00 PM 21.37 70.466 0.2 7.69 102.21 8.66
7/13/2021 4:30:00 PM 21.44 70.592 0.2 7.67 95.26 8.65
7/13/2021 4:45:00 PM 21.52 70.736 0.2 7.69 128.22 8.63
7/13/2021 5:00:00 PM 21.62 70.916 0.199 7.69 114.22 8.63
7/13/2021 5:15:00 PM 21.73 71.114 0.199 7.69 120.5 8.61
7/13/2021 5:30:00 PM 21.84 71.312 0.199 7.7 110.99 8.61
7/13/2021 5:45:00 PM 21.95 71.51 0.198 7.69 95.97 8.6
7/13/2021 6:00:00 PM 22.03 71.654 0.198 7.69 102.6 8.59
7/13/2021 6:15:00 PM 22.13 71.834 0.198 7.7 104.13 8.59
7/13/2021 6:30:00 PM 22.19 71.942 0.198 7.69 88.38 8.58
7/13/2021 6:45:00 PM 22.27 72.086 0.197 7.69 83.35 8.59
7/13/2021 7:00:00 PM 22.31 72.158 0.197 7.69 77.33 8.56
7/13/2021 7:15:00 PM 22.36 72.248 0.196 7.7 84.53 8.56
7/13/2021 7:30:00 PM 22.39 72.302 0.196 7.68 73.37 8.56
7/13/2021 7:45:00 PM 22.41 72.338 0.195 7.7 72.77 8.56
7/13/2021 8:00:00 PM 22.41 72.338 0.195 7.7 82.48 8.55
7/13/2021 8:15:00 PM 22.41 72.338 0.195 7.68 94.46 8.54
7/13/2021 8:30:00 PM 22.39 72.302 0.194 7.7 98.22 8.53
7/13/2021 8:45:00 PM 22.37 72.266 0.193 7.7 127.7 8.53
7/13/2021 9:00:00 PM 22.35 72.23 0.192 7.68 113.24 8.52
7/13/2021 9:15:00 PM 22.34 72.212 0.191 7.68 107 8.5
7/13/2021 9:30:00 PM 22.33 72.194 0.19 7.69 107.26 8.5
7/13/2021 9:45:00 PM 22.32 72.176 0.189 7.68 114.05 8.49
7/13/2021 10:00:00 PM 22.31 72.158 0.189 7.68 123.43 8.48
7/13/2021 10:15:00 PM 22.31 72.158 0.188 7.69 121.07 8.47
7/13/2021 10:30:00 PM 22.3 72.14 0.188 7.68 203.1 8.46
7/13/2021 10:45:00 PM 22.3 72.14 0.187 7.67 182.04 8.46
7/13/2021 11:00:00 PM 22.31 72.158 0.187 7.68 146.51 8.45
7/13/2021 11:15:00 PM 22.31 72.158 0.186 7.68 171.07 8.44
7/13/2021 11:30:00 PM 22.32 72.176 0.186 7.66 196.51 8.43
7/13/2021 11:45:00 PM 22.32 72.176 0.185 7.66 207.62 8.42
7/14/2021 12:00:00 AM 22.33 72.194 0.184 7.66 202.43 8.42
7/14/2021 12:15:00 AM 22.33 72.194 0.184 7.66 182.04 8.41
7/14/2021 12:30:00 AM 22.33 72.194 0.183 7.67 161.27 8.4
7/14/2021 12:45:00 AM 22.32 72.176 0.182 7.66 201.27 8.4
7/14/2021 1:00:00 AM 22.31 72.158 0.182 7.66 200.65 8.39
7/14/2021 1:15:00 AM 22.3 72.14 0.181 7.67 220.25 8.39
7/14/2021 1:30:00 AM 22.28 72.104 0.18 7.66 235.73 8.39
7/14/2021 1:45:00 AM 22.25 72.05 0.179 7.64 281.01 8.37
7/14/2021 2:00:00 AM 22.23 72.014 0.179 7.66 224.47 8.37
7/14/2021 2:15:00 AM 22.2 71.96 0.178 7.64 215.53 8.37
7/14/2021 2:30:00 AM 22.17 71.906 0.177 7.65 289.43 8.37
7/14/2021 2:45:00 AM 22.15 71.87 0.176 7.65 274.41 8.36
7/14/2021 3:00:00 AM 22.12 71.816 0.176 7.64 237.72 8.36
7/14/2021 3:15:00 AM 22.1 71.78 0.175 7.65 241.15 8.36
7/14/2021 3:30:00 AM 22.07 71.726 0.175 7.65 277.55 8.35
7/14/2021 3:45:00 AM 22.04 71.672 0.174 7.64 307.23 8.34
7/14/2021 4:00:00 AM 22.02 71.636 0.174 7.64 251.31 8.34
7/14/2021 4:15:00 AM 21.99 71.582 0.174 7.64 231.73 8.34
7/14/2021 4:30:00 AM 21.96 71.528 0.174 7.63 277.75 8.34
7/14/2021 4:45:00 AM 21.94 71.492 0.174 7.63 396.4 8.34
7/14/2021 5:00:00 AM 21.91 71.438 0.174 7.63 277.61 8.33
7/14/2021 5:15:00 AM 21.88 71.384 0.174 7.63 455.28 8.32
7/14/2021 5:30:00 AM 21.85 71.33 0.174 7.64 328.85 8.33
7/14/2021 5:45:00 AM 21.81 71.258 0.174 7.63 224.69 8.33
7/14/2021 6:00:00 AM 21.77 71.186 0.173 7.61 251.07 8.32
7/14/2021 6:15:00 AM 21.73 71.114 0.173 7.63 249.38 8.32
7/14/2021 6:30:00 AM 21.68 71.024 0.173 7.62 257.1 8.33
7/14/2021 6:45:00 AM 21.62 70.916 0.172 7.62 266.91 8.33
7/14/2021 7:00:00 AM 21.58 70.844 0.172 7.61 273.77 8.33
7/14/2021 7:15:00 AM 21.52 70.736 0.171 7.62 232.56 8.34
7/14/2021 7:30:00 AM 21.47 70.646 0.17 7.62 226.86 8.36
7/14/2021 7:45:00 AM 21.42 70.556 0.17 7.62 250.17 8.36
7/14/2021 8:00:00 AM 21.38 70.484 0.17 7.61 196.63 8.37
7/14/2021 8:15:00 AM 21.34 70.412 0.169 7.61 314.76 8.38
7/14/2021 8:30:00 AM 21.3 70.34 0.168 7.61 235.47 8.39
7/14/2021 8:45:00 AM 21.27 70.286 0.168 7.6 207.86 8.4
7/14/2021 9:00:00 AM 21.25 70.25 0.167 7.61 233.61 8.42
7/14/2021 9:15:00 AM 21.22 70.196 0.167 7.61 214.8 8.43
7/14/2021 9:30:00 AM 21.19 70.142 0.167 7.6 207.5 8.44
7/14/2021 9:45:00 AM 21.19 70.142 0.166 7.59 269.52 8.44
7/14/2021 10:00:00 AM 21.2 70.16 0.165 7.58 217.77 8.45
7/14/2021 10:15:00 AM 21.21 70.17799 0.165 7.59 210.49 8.46
7/14/2021 10:30:00 AM 21.2 70.16 0.165 7.6 241.54 8.47
7/14/2021 10:45:00 AM 21.2 70.16 0.165 7.6 203.47 8.48
7/14/2021 11:00:00 AM 21.21 70.17799 0.165 7.6 231.71 8.48
7/14/2021 11:15:00 AM 21.26 70.268 0.165 7.6 219.34 8.48
7/14/2021 11:30:00 AM 21.33 70.394 0.165 7.61 215.39 8.47
7/14/2021 11:45:00 AM 21.4 70.52 0.166 7.59 226.52 8.48
7/14/2021 12:00:00 PM 21.49 70.682 0.166 7.6 197.85 8.48
7/14/2021 12:15:00 PM 21.56 70.808 0.167 7.59 227.91 8.48
7/14/2021 12:30:00 PM 21.61 70.898 0.168 7.61 164.07 8.48
7/14/2021 12:45:00 PM 21.64 70.952 0.169 7.61 199.15 8.48
7/14/2021 1:00:00 PM 21.69 71.042 0.169 7.62 165.75 8.48
7/14/2021 1:15:00 PM 21.72 71.096 0.17 7.59 155.9 8.48
7/14/2021 1:30:00 PM 21.78 71.204 0.17 7.62 179.01 8.48
7/14/2021 1:45:00 PM 21.8 71.24 0.171 7.61 185.74 8.47
7/14/2021 2:00:00 PM 21.79 71.222 0.171 7.63 168.26 8.48
7/14/2021 2:15:00 PM 21.75 71.15 0.17 7.63 202.55 8.51
7/14/2021 2:30:00 PM 21.74 71.132 0.171 7.63 221.01 8.51
7/14/2021 2:45:00 PM 21.77 71.186 0.171 7.62 186.84 8.5
7/14/2021 3:00:00 PM 21.81 71.258 0.172 7.62 187.22 8.51
7/14/2021 3:15:00 PM 21.8 71.24 0.173 7.63 199.3 8.51
7/14/2021 3:30:00 PM 21.81 71.258 0.173 7.63 224.42 8.51
7/14/2021 3:45:00 PM 21.83 71.294 0.173 7.62 160.27 8.5
7/14/2021 4:00:00 PM 21.82 71.276 0.173 7.62 201.07 8.51
7/14/2021 4:15:00 PM 21.81 71.258 0.173 7.63 297.92 8.51
7/14/2021 4:30:00 PM 21.84 71.312 0.172 7.62 174.85 8.51
7/14/2021 4:45:00 PM 21.85 71.33 0.172 7.63 168.78 8.51
7/14/2021 5:00:00 PM 21.86 71.348 0.172 7.62 175.37 8.52
7/14/2021 5:15:00 PM 21.89 71.402 0.172 7.64 217.08 8.51
7/14/2021 5:30:00 PM 21.94 71.492 0.172 7.63 202.28 8.51
7/14/2021 5:45:00 PM 21.97 71.546 0.172 7.63 217.07 8.52
7/14/2021 6:00:00 PM 21.99 71.582 0.172 7.62 227.49 8.51
7/14/2021 6:15:00 PM 21.99 71.582 0.172 7.62 200.49 8.51
7/14/2021 6:30:00 PM 21.99 71.582 0.172 7.62 177.96 8.5
7/14/2021 6:45:00 PM 22.01 71.618 0.173 7.63 179.66 8.51
7/14/2021 7:00:00 PM 22.03 71.654 0.173 7.62 182.58 8.5
7/14/2021 7:15:00 PM 22.05 71.69 0.173 7.63 174.07 8.49
7/14/2021 7:30:00 PM 22.05 71.69 0.174 7.64 198.89 8.49
7/14/2021 7:45:00 PM 22.06 71.708 0.175 7.63 173.63 8.49
7/14/2021 8:00:00 PM 22.05 71.69 0.176 7.64 169.3 8.48
7/14/2021 8:15:00 PM 22.05 71.69 0.177 7.63 180.32 8.48
7/14/2021 8:30:00 PM 22.04 71.672 0.178 7.64 152.58 8.49
7/14/2021 8:45:00 PM 22.03 71.654 0.179 7.64 144.1 8.49
7/14/2021 9:00:00 PM 22.02 71.636 0.179 7.64 147.63 8.49
7/14/2021 9:15:00 PM 22.01 71.618 0.18 7.64 160.07 8.48
7/14/2021 9:30:00 PM 22 71.6 0.18 7.66 147.66 8.49
7/14/2021 9:45:00 PM 21.98 71.564 0.18 7.65 153.43 8.49
7/14/2021 10:00:00 PM 21.97 71.546 0.18 7.65 126.93 8.5
7/14/2021 10:15:00 PM 21.94 71.492 0.18 7.67 113.53 8.49
7/14/2021 10:30:00 PM 21.92 71.456 0.179 7.65 124.39 8.5
7/14/2021 10:45:00 PM 21.89 71.402 0.178 7.67 129.65 8.5
7/14/2021 11:00:00 PM 21.87 71.366 0.177 7.66 156.53 8.49
7/14/2021 11:15:00 PM 21.84 71.312 0.176 7.66 122.47 8.49
7/14/2021 11:30:00 PM 21.81 71.258 0.175 7.64 194.3 8.48
7/14/2021 11:45:00 PM 21.79 71.222 0.174 7.66 141.94 8.47
7/15/2021 12:00:00 AM 21.76 71.168 0.173 7.66 142.35 8.46
7/15/2021 12:15:00 AM 21.74 71.132 0.171 7.65 133.47 8.46
7/15/2021 12:30:00 AM 21.72 71.096 0.171 7.65 161.63 8.45
7/15/2021 12:45:00 AM 21.69 71.042 0.17 7.64 161.22 8.43
7/15/2021 1:00:00 AM 21.67 71.006 0.168 7.62 167.34 8.44
7/15/2021 1:15:00 AM 21.65 70.97 0.168 7.61 162.74 8.43
7/15/2021 1:30:00 AM 21.62 70.916 0.167 7.63 148.29 8.43
7/15/2021 1:45:00 AM 21.59 70.862 0.167 7.63 153.4 8.42
7/15/2021 2:00:00 AM 21.57 70.826 0.166 7.61 161.11 8.42
7/15/2021 2:15:00 AM 21.55 70.79 0.166 7.63 156.11 8.42
7/15/2021 2:30:00 AM 21.52 70.736 0.165 7.6 148.34 8.42
7/15/2021 2:45:00 AM 21.5 70.7 0.165 7.63 131.06 8.42
7/15/2021 3:00:00 AM 21.47 70.646 0.165 7.6 131.21 8.41
7/15/2021 3:15:00 AM 21.45 70.61 0.165 7.63 144.78 8.42
7/15/2021 3:30:00 AM 21.44 70.592 0.165 7.61 135.63 8.41
7/15/2021 3:45:00 AM 21.42 70.556 0.166 7.62 129.73 8.41
7/15/2021 4:00:00 AM 21.4 70.52 0.166 7.6 145.75 8.41
7/15/2021 4:15:00 AM 21.39 70.502 0.166 7.6 123.51 8.4
7/15/2021 4:30:00 AM 21.37 70.466 0.166 7.62 174.28 8.41
7/15/2021 4:45:00 AM 21.35 70.43 0.166 7.61 149.21 8.4
7/15/2021 5:00:00 AM 21.33 70.394 0.167 7.63 123.52 8.4
7/15/2021 5:15:00 AM 21.3 70.34 0.167 7.63 142.19 8.41
7/15/2021 5:30:00 AM 21.28 70.304 0.168 7.62 145.42 8.41
7/15/2021 5:45:00 AM 21.25 70.25 0.168 7.62 133.25 8.42
7/15/2021 6:00:00 AM 21.23 70.214 0.169 7.63 139.98 8.42
7/15/2021 6:15:00 AM 21.2 70.16 0.169 7.61 159.2 8.4
7/15/2021 6:30:00 AM 21.18 70.124 0.17 7.63 150.71 8.42
7/15/2021 6:45:00 AM 21.15 70.07 0.17 7.61 124.26 8.42
7/15/2021 7:00:00 AM 21.12 70.016 0.171 7.63 126.96 8.43
7/15/2021 7:15:00 AM 21.1 69.98 0.171 7.63 109.58 8.43
7/15/2021 7:30:00 AM 21.07 69.926 0.172 7.63 158.91 8.43
7/15/2021 7:45:00 AM 21.05 69.89 0.173 7.64 104.97 8.44
7/15/2021 8:00:00 AM 21.03 69.854 0.174 7.64 157.35 8.45
7/15/2021 8:15:00 AM 21.02 69.836 0.174 7.65 134.4 8.44
7/15/2021 8:30:00 AM 21.01 69.818 0.175 7.64 107.55 8.45
7/15/2021 8:45:00 AM 21 69.8 0.176 7.65 130.44 8.46
7/15/2021 9:00:00 AM 21 69.8 0.177 7.63 128.06 8.46
7/15/2021 9:15:00 AM 21.02 69.836 0.178 7.65 173.49 8.47
7/15/2021 9:30:00 AM 21.04 69.872 0.179 7.65 112.96 8.47
7/15/2021 9:45:00 AM 21.07 69.926 0.179 7.66 120.88 8.47
7/15/2021 10:00:00 AM 21.1 69.98 0.18 7.64 116.78 8.48
7/15/2021 10:15:00 AM 21.15 70.07 0.18 7.65 113.65 8.47
7/15/2021 10:30:00 AM 21.18 70.124 0.181 7.66 138.63 8.48
7/15/2021 10:45:00 AM 21.2 70.16 0.182 7.66 107.71 8.49
7/15/2021 11:00:00 AM 21.25 70.25 0.182 7.67 130.25 8.48
7/15/2021 11:15:00 AM 21.32 70.376 0.182 7.67 117.92 8.49
7/15/2021 11:30:00 AM 21.37 70.466 0.183 7.67 94.51 8.49
7/15/2021 11:45:00 AM 21.43 70.574 0.183 7.67 99.3 8.5
7/15/2021 12:00:00 PM 21.43 70.574 0.183 7.67 126.78 8.49
7/15/2021 12:15:00 PM 21.49 70.682 0.183 7.66 95.39 8.49
7/15/2021 12:30:00 PM 21.54 70.772 0.183 7.68 102.17 8.49
7/15/2021 12:45:00 PM 21.59 70.862 0.184 7.67 103.35 8.5
7/15/2021 1:00:00 PM 21.66 70.988 0.184 7.68 143.52 8.5
7/15/2021 1:15:00 PM 21.73 71.114 0.184 7.66 100.68 8.5
7/15/2021 1:30:00 PM 21.76 71.168 0.184 7.68 87.34 8.5
7/15/2021 1:45:00 PM 21.84 71.312 0.185 7.68 108.31 8.5
7/15/2021 2:00:00 PM 21.92 71.456 0.185 7.68 127.01 8.49
7/15/2021 2:15:00 PM 22.01 71.618 0.186 7.69 104.34 8.49
7/15/2021 2:30:00 PM 22.09 71.762 0.186 7.68 141.09 8.48
7/15/2021 2:45:00 PM 22.16 71.888 0.187 7.69 119.78 8.48
7/15/2021 3:00:00 PM 22.23 72.014 0.187 7.69 112.31 8.47
7/15/2021 3:15:00 PM 22.28 72.104 0.188 7.7 86.57 8.47
7/15/2021 3:30:00 PM 22.32 72.176 0.188 7.68 96.83 8.47
7/15/2021 3:45:00 PM 22.36 72.248 0.189 7.7 87.17 8.47
7/15/2021 4:00:00 PM 22.42 72.356 0.189 7.71 100.08 8.46
7/15/2021 4:15:00 PM 22.47 72.446 0.19 7.69 104.55 8.46
7/15/2021 4:30:00 PM 22.52 72.536 0.191 7.7 106.31 8.46
7/15/2021 4:45:00 PM 22.57 72.626 0.191 7.71 91.66 8.46
7/15/2021 5:00:00 PM 22.61 72.698 0.192 7.71 86.7 8.46
7/15/2021 5:15:00 PM 22.65 72.77 0.192 7.71 81.57 8.44
7/15/2021 5:30:00 PM 22.69 72.842 0.193 7.72 87.83 8.45
7/15/2021 5:45:00 PM 22.74 72.932 0.193 7.71 85.47 8.45
7/15/2021 6:00:00 PM 22.77 72.986 0.193 7.71 96.56 8.45
7/15/2021 6:15:00 PM 22.77 72.986 0.194 7.72 85.82 8.44
7/15/2021 6:30:00 PM 22.77 72.986 0.194 7.73 73.66 8.43
7/15/2021 6:45:00 PM 22.79 73.022 0.195 7.73 78.93 8.43
7/15/2021 7:00:00 PM 22.81 73.058 0.196 7.71 82.88 8.43
7/15/2021 7:15:00 PM 22.82 73.076 0.196 7.73 78.33 8.43
7/15/2021 7:30:00 PM 22.83 73.094 0.196 7.71 96.35 8.43
7/15/2021 7:45:00 PM 22.83 73.094 0.197 7.74 68.36 8.42
7/15/2021 8:00:00 PM 22.84 73.112 0.197 7.74 64.79 8.41
7/15/2021 8:15:00 PM 22.84 73.112 0.197 7.73 70.27 8.4
7/15/2021 8:30:00 PM 22.84 73.112 0.197 7.74 75.25 8.4
7/15/2021 8:45:00 PM 22.84 73.112 0.198 7.71 72.08 8.39
7/15/2021 9:00:00 PM 22.84 73.112 0.198 7.73 69.81 8.38
7/15/2021 9:15:00 PM 22.84 73.112 0.199 7.73 68.35 8.37
7/15/2021 9:30:00 PM 22.83 73.094 0.199 7.73 61.72 8.37
7/15/2021 9:45:00 PM 22.82 73.076 0.199 7.73 75.75 8.35
7/15/2021 10:00:00 PM 22.82 73.076 0.2 7.73 72.57 8.34
7/15/2021 10:15:00 PM 22.81 73.058 0.2 7.73 68.33 8.33
7/15/2021 10:30:00 PM 22.8 73.04 0.2 7.74 61.68 8.33
7/15/2021 10:45:00 PM 22.79 73.022 0.2 7.72 74.76 8.33
7/15/2021 11:00:00 PM 22.78 73.004 0.201 7.74 63.44 8.32
7/15/2021 11:15:00 PM 22.77 72.986 0.201 7.74 71.73 8.31
7/15/2021 11:30:00 PM 22.75 72.95 0.201 7.75 64.19 8.31
7/15/2021 11:45:00 PM 22.74 72.932 0.202 7.73 72.44 8.31
7/16/2021 12:00:00 AM 22.73 72.914 0.202 7.75 59.91 8.3
7/16/2021 12:15:00 AM 22.71 72.878 0.203 7.74 65.67 8.3
7/16/2021 12:30:00 AM 22.71 72.878 0.204 7.75 75.6 8.3
7/16/2021 12:45:00 AM 22.7 72.86 0.205 7.76 60.91 8.3
7/16/2021 1:00:00 AM 22.69 72.842 0.205 7.76 70.5 8.3
7/16/2021 1:15:00 AM 22.69 72.842 0.206 7.75 62.2 8.29
7/16/2021 1:30:00 AM 22.68 72.824 0.207 7.76 54.26 8.29
7/16/2021 1:45:00 AM 22.68 72.824 0.208 7.77 56.97 8.29
7/16/2021 2:00:00 AM 22.67 72.806 0.209 7.78 53.25 8.29
7/16/2021 2:15:00 AM 22.66 72.788 0.21 7.78 60.47 8.28
7/16/2021 2:30:00 AM 22.65 72.77 0.21 7.78 57.47 8.28
7/16/2021 2:45:00 AM 22.64 72.752 0.211 7.77 72.28 8.26
7/16/2021 3:00:00 AM 22.62 72.716 0.212 7.79 67.1 8.26
7/16/2021 3:15:00 AM 22.61 72.698 0.212 7.78 51.53 8.25
7/16/2021 3:30:00 AM 22.6 72.68 0.213 7.79 55.63 8.23
7/16/2021 3:45:00 AM 22.58 72.644 0.213 7.77 59.98 8.23
7/16/2021 4:00:00 AM 22.57 72.626 0.213 7.78 53.31 8.22
7/16/2021 4:15:00 AM 22.55 72.59 0.212 7.77 71.49 8.2
7/16/2021 4:30:00 AM 22.54 72.57201 0.212 7.78 53.81 8.17
7/16/2021 4:45:00 AM 22.53 72.554 0.212 7.77 54.85 8.18
7/16/2021 5:00:00 AM 22.51 72.518 0.212 7.78 55.68 8.18
7/16/2021 5:15:00 AM 22.5 72.5 0.211 7.77 54.81 8.16
7/16/2021 5:30:00 AM 22.48 72.464 0.211 7.77 50.69 8.14
7/16/2021 5:45:00 AM 22.46 72.42799 0.211 7.75 55.34 8.14
7/16/2021 6:00:00 AM 22.45 72.41 0.211 7.75 48.09 8.13
7/16/2021 6:15:00 AM 22.43 72.374 0.21 7.75 55.81 8.12
7/16/2021 6:30:00 AM 22.41 72.338 0.21 7.75 51.63 8.11
7/16/2021 6:45:00 AM 22.39 72.302 0.209 7.76 52.75 8.11
7/16/2021 7:00:00 AM 22.38 72.284 0.209 7.75 49.01 8.11
7/16/2021 7:15:00 AM 22.36 72.248 0.208 7.74 56.92 8.1
7/16/2021 7:30:00 AM 22.35 72.23 0.208 7.74 55.94 8.11
7/16/2021 7:45:00 AM 22.34 72.212 0.207 7.74 52.18 8.11
7/16/2021 8:00:00 AM 22.35 72.23 0.207 7.75 60.89 8.11
7/16/2021 8:15:00 AM 22.36 72.248 0.206 7.75 54.94 8.12
7/16/2021 8:30:00 AM 22.37 72.266 0.206 7.73 57.53 8.12
7/16/2021 8:45:00 AM 22.38 72.284 0.205 7.74 61.75 8.12
7/16/2021 9:00:00 AM 22.38 72.284 0.205 7.74 57.62 8.13
7/16/2021 9:15:00 AM 2